<?xml version="1.0" encoding="UTF-8" standalone="no" ?>
<gpx xmlns="http://www.topografix.com/GPX/1/1" xmlns:xsi="http://www.w3.org/2001/XMLSchema-instance" xsi:schemaLocation="http://www.topografix.com/GPX/1/1 http://www.topografix.com/GPX/1/1/gpx.xsd" version="1.1" creator="VisuGPX - https://www.visugpx.com">
  <metadata>
    <name>Oisans Trièves - Sarenne</name>
    <desc><![CDATA[Oisans Trièves
Etape Bourg d'Oisans Aller et Retour par l'Alpe d'Huez et le col de Sarenne]]></desc>
  </metadata>
  <wpt lat="45.0552" lon="6.03064">
    <ele>723</ele>
    <name><![CDATA[TO - Alpes Huez / Sarenne]]></name>
    <type><![CDATA[Generic]]></type>
  </wpt>
  <trk>
    <name><![CDATA[TO - Alpes Huez / Sarenne]]></name>
    <trkseg>
      <trkpt lat="45.0552" lon="6.03064">
        <ele>723</ele>
        <time>2017-12-15T18:24:31Z</time>
      </trkpt>
      <trkpt lat="45.05513" lon="6.03091">
        <ele>722</ele>
        <time>2017-12-15T18:24:45Z</time>
      </trkpt>
      <trkpt lat="45.05503" lon="6.03099">
        <ele>722</ele>
        <time>2017-12-15T18:24:56Z</time>
      </trkpt>
      <trkpt lat="45.05487" lon="6.031">
        <ele>723</ele>
        <time>2017-12-15T18:25:08Z</time>
      </trkpt>
      <trkpt lat="45.05477" lon="6.03178">
        <ele>721</ele>
        <time>2017-12-15T18:25:24Z</time>
      </trkpt>
      <trkpt lat="45.05476" lon="6.03198">
        <ele>720</ele>
        <time>2017-12-15T18:25:42Z</time>
      </trkpt>
      <trkpt lat="45.05478" lon="6.03208">
        <ele>720</ele>
        <time>2017-12-15T18:25:53Z</time>
      </trkpt>
      <trkpt lat="45.05487" lon="6.03235">
        <ele>720</ele>
        <time>2017-12-15T18:26:07Z</time>
      </trkpt>
      <trkpt lat="45.05497" lon="6.03256">
        <ele>720</ele>
        <time>2017-12-15T18:26:16Z</time>
      </trkpt>
      <trkpt lat="45.05508" lon="6.03272">
        <ele>720</ele>
        <time>2017-12-15T18:26:22Z</time>
      </trkpt>
      <trkpt lat="45.05531" lon="6.03302">
        <ele>719</ele>
        <time>2017-12-15T18:26:28Z</time>
      </trkpt>
      <trkpt lat="45.0559" lon="6.0337">
        <ele>718</ele>
        <time>2017-12-15T18:26:48Z</time>
      </trkpt>
      <trkpt lat="45.05659" lon="6.03446">
        <ele>719</ele>
        <time>2017-12-15T18:27:03Z</time>
      </trkpt>
      <trkpt lat="45.05691" lon="6.03479">
        <ele>719</ele>
        <time>2017-12-15T18:27:07Z</time>
      </trkpt>
      <trkpt lat="45.05739" lon="6.03536">
        <ele>720</ele>
        <time>2017-12-15T18:27:18Z</time>
      </trkpt>
      <trkpt lat="45.0579" lon="6.0359">
        <ele>721</ele>
        <time>2017-12-15T18:27:27Z</time>
      </trkpt>
      <trkpt lat="45.05819" lon="6.03626">
        <ele>721</ele>
        <time>2017-12-15T18:27:46Z</time>
      </trkpt>
      <trkpt lat="45.05838" lon="6.03658">
        <ele>721</ele>
        <time>2017-12-15T18:27:54Z</time>
      </trkpt>
      <trkpt lat="45.05857" lon="6.03687">
        <ele>722</ele>
        <time>2017-12-15T18:28:02Z</time>
      </trkpt>
      <trkpt lat="45.05874" lon="6.03714">
        <ele>723</ele>
        <time>2017-12-15T18:28:08Z</time>
      </trkpt>
      <trkpt lat="45.05886" lon="6.03736">
        <ele>723</ele>
        <time>2017-12-15T18:28:15Z</time>
      </trkpt>
      <trkpt lat="45.05909" lon="6.0378">
        <ele>723</ele>
        <time>2017-12-15T18:28:23Z</time>
      </trkpt>
      <trkpt lat="45.05908" lon="6.03787">
        <ele>723</ele>
        <time>2017-12-15T18:28:35Z</time>
      </trkpt>
      <trkpt lat="45.05913" lon="6.038">
        <ele>722</ele>
        <time>2017-12-15T18:28:42Z</time>
      </trkpt>
      <trkpt lat="45.05922" lon="6.03807">
        <ele>722</ele>
        <time>2017-12-15T18:29:02Z</time>
      </trkpt>
      <trkpt lat="45.05928" lon="6.03808">
        <ele>722</ele>
        <time>2017-12-15T18:29:10Z</time>
      </trkpt>
      <trkpt lat="45.05933" lon="6.03806">
        <ele>722</ele>
        <time>2017-12-15T18:29:18Z</time>
      </trkpt>
      <trkpt lat="45.0594" lon="6.03796">
        <ele>722</ele>
        <time>2017-12-15T18:29:33Z</time>
      </trkpt>
      <trkpt lat="45.05941" lon="6.03792">
        <ele>722</ele>
        <time>2017-12-15T18:29:36Z</time>
      </trkpt>
      <trkpt lat="45.05973" lon="6.03781">
        <ele>722</ele>
        <time>2017-12-15T18:29:48Z</time>
      </trkpt>
      <trkpt lat="45.06017" lon="6.03774">
        <ele>721</ele>
        <time>2017-12-15T18:29:57Z</time>
      </trkpt>
      <trkpt lat="45.06034" lon="6.03769">
        <ele>720</ele>
        <time>2017-12-15T18:30:12Z</time>
      </trkpt>
      <trkpt lat="45.06112" lon="6.03751">
        <ele>719</ele>
        <time>2017-12-15T18:30:26Z</time>
      </trkpt>
      <trkpt lat="45.06167" lon="6.03733">
        <ele>718</ele>
        <time>2017-12-15T18:30:28Z</time>
      </trkpt>
      <trkpt lat="45.06214" lon="6.03708">
        <ele>719</ele>
        <time>2017-12-15T18:30:32Z</time>
      </trkpt>
      <trkpt lat="45.06233" lon="6.03699">
        <ele>719</ele>
        <time>2017-12-15T18:30:48Z</time>
      </trkpt>
      <trkpt lat="45.06242" lon="6.03697">
        <ele>719</ele>
        <time>2017-12-15T18:31:02Z</time>
      </trkpt>
      <trkpt lat="45.06268" lon="6.03701">
        <ele>719</ele>
        <time>2017-12-15T18:31:04Z</time>
      </trkpt>
      <trkpt lat="45.06288" lon="6.03707">
        <ele>719</ele>
        <time>2017-12-15T18:31:10Z</time>
      </trkpt>
      <trkpt lat="45.06313" lon="6.0374">
        <ele>719</ele>
        <time>2017-12-15T18:31:26Z</time>
      </trkpt>
      <trkpt lat="45.06392" lon="6.03854">
        <ele>723</ele>
        <time>2017-12-15T18:31:43Z</time>
      </trkpt>
      <trkpt lat="45.06433" lon="6.03911">
        <ele>724</ele>
        <time>2017-12-15T18:31:56Z</time>
      </trkpt>
      <trkpt lat="45.06481" lon="6.03979">
        <ele>727</ele>
        <time>2017-12-15T18:32:16Z</time>
      </trkpt>
      <trkpt lat="45.06497" lon="6.04001">
        <ele>730</ele>
        <time>2017-12-15T18:32:30Z</time>
      </trkpt>
      <trkpt lat="45.06505" lon="6.04009">
        <ele>736</ele>
        <time>2017-12-15T18:32:33Z</time>
      </trkpt>
      <trkpt lat="45.06512" lon="6.04013">
        <ele>740</ele>
        <time>2017-12-15T18:32:38Z</time>
      </trkpt>
      <trkpt lat="45.06525" lon="6.04013">
        <ele>743</ele>
        <time>2017-12-15T18:32:48Z</time>
      </trkpt>
      <trkpt lat="45.0654" lon="6.0401">
        <ele>745</ele>
        <time>2017-12-15T18:33:00Z</time>
      </trkpt>
      <trkpt lat="45.06568" lon="6.03998">
        <ele>734</ele>
        <time>2017-12-15T18:33:07Z</time>
      </trkpt>
      <trkpt lat="45.06639" lon="6.03969">
        <ele>740</ele>
        <time>2017-12-15T18:33:15Z</time>
      </trkpt>
      <trkpt lat="45.06672" lon="6.03959">
        <ele>751</ele>
        <time>2017-12-15T18:33:28Z</time>
      </trkpt>
      <trkpt lat="45.06704" lon="6.03954">
        <ele>752</ele>
        <time>2017-12-15T18:33:32Z</time>
      </trkpt>
      <trkpt lat="45.06769" lon="6.03945">
        <ele>764</ele>
        <time>2017-12-15T18:33:36Z</time>
      </trkpt>
      <trkpt lat="45.06827" lon="6.03925">
        <ele>764</ele>
        <time>2017-12-15T18:33:48Z</time>
      </trkpt>
      <trkpt lat="45.06868" lon="6.03932">
        <ele>781</ele>
        <time>2017-12-15T18:33:58Z</time>
      </trkpt>
      <trkpt lat="45.0689" lon="6.03929">
        <ele>784</ele>
        <time>2017-12-15T18:34:04Z</time>
      </trkpt>
      <trkpt lat="45.0691" lon="6.03923">
        <ele>782</ele>
        <time>2017-12-15T18:34:17Z</time>
      </trkpt>
      <trkpt lat="45.0694" lon="6.03911">
        <ele>779</ele>
        <time>2017-12-15T18:34:37Z</time>
      </trkpt>
      <trkpt lat="45.06982" lon="6.03886">
        <ele>781</ele>
        <time>2017-12-15T18:34:57Z</time>
      </trkpt>
      <trkpt lat="45.07024" lon="6.03872">
        <ele>792</ele>
        <time>2017-12-15T18:35:04Z</time>
      </trkpt>
      <trkpt lat="45.07054" lon="6.03872">
        <ele>795</ele>
        <time>2017-12-15T18:35:24Z</time>
      </trkpt>
      <trkpt lat="45.07094" lon="6.03881">
        <ele>807</ele>
        <time>2017-12-15T18:35:39Z</time>
      </trkpt>
      <trkpt lat="45.0712" lon="6.03891">
        <ele>809</ele>
        <time>2017-12-15T18:35:52Z</time>
      </trkpt>
      <trkpt lat="45.0715" lon="6.03898">
        <ele>813</ele>
        <time>2017-12-15T18:35:59Z</time>
      </trkpt>
      <trkpt lat="45.07179" lon="6.03904">
        <ele>817</ele>
        <time>2017-12-15T18:36:03Z</time>
      </trkpt>
      <trkpt lat="45.07186" lon="6.03909">
        <ele>817</ele>
        <time>2017-12-15T18:36:09Z</time>
      </trkpt>
      <trkpt lat="45.07189" lon="6.03916">
        <ele>817</ele>
        <time>2017-12-15T18:36:24Z</time>
      </trkpt>
      <trkpt lat="45.07187" lon="6.03927">
        <ele>841</ele>
        <time>2017-12-15T18:36:39Z</time>
      </trkpt>
      <trkpt lat="45.07183" lon="6.0393">
        <ele>841</ele>
        <time>2017-12-15T18:36:44Z</time>
      </trkpt>
      <trkpt lat="45.07159" lon="6.03925">
        <ele>835</ele>
        <time>2017-12-15T18:36:55Z</time>
      </trkpt>
      <trkpt lat="45.07131" lon="6.03917">
        <ele>840</ele>
        <time>2017-12-15T18:37:00Z</time>
      </trkpt>
      <trkpt lat="45.07112" lon="6.03913">
        <ele>813</ele>
        <time>2017-12-15T18:37:07Z</time>
      </trkpt>
      <trkpt lat="45.07094" lon="6.03914">
        <ele>818</ele>
        <time>2017-12-15T18:37:23Z</time>
      </trkpt>
      <trkpt lat="45.07054" lon="6.03931">
        <ele>831</ele>
        <time>2017-12-15T18:37:33Z</time>
      </trkpt>
      <trkpt lat="45.07022" lon="6.03955">
        <ele>832</ele>
        <time>2017-12-15T18:37:52Z</time>
      </trkpt>
      <trkpt lat="45.06991" lon="6.03997">
        <ele>835</ele>
        <time>2017-12-15T18:38:06Z</time>
      </trkpt>
      <trkpt lat="45.06969" lon="6.04019">
        <ele>848</ele>
        <time>2017-12-15T18:38:12Z</time>
      </trkpt>
      <trkpt lat="45.06951" lon="6.04042">
        <ele>850</ele>
        <time>2017-12-15T18:38:27Z</time>
      </trkpt>
      <trkpt lat="45.06934" lon="6.04073">
        <ele>854</ele>
        <time>2017-12-15T18:38:37Z</time>
      </trkpt>
      <trkpt lat="45.06918" lon="6.04088">
        <ele>863</ele>
        <time>2017-12-15T18:38:41Z</time>
      </trkpt>
      <trkpt lat="45.06849" lon="6.04103">
        <ele>864</ele>
        <time>2017-12-15T18:38:44Z</time>
      </trkpt>
      <trkpt lat="45.06826" lon="6.04108">
        <ele>857</ele>
        <time>2017-12-15T18:38:53Z</time>
      </trkpt>
      <trkpt lat="45.06799" lon="6.0412">
        <ele>860</ele>
        <time>2017-12-15T18:39:13Z</time>
      </trkpt>
      <trkpt lat="45.06732" lon="6.04156">
        <ele>859</ele>
        <time>2017-12-15T18:39:29Z</time>
      </trkpt>
      <trkpt lat="45.06681" lon="6.04189">
        <ele>882</ele>
        <time>2017-12-15T18:39:41Z</time>
      </trkpt>
      <trkpt lat="45.06648" lon="6.04207">
        <ele>871</ele>
        <time>2017-12-15T18:39:44Z</time>
      </trkpt>
      <trkpt lat="45.06644" lon="6.04211">
        <ele>872</ele>
        <time>2017-12-15T18:39:52Z</time>
      </trkpt>
      <trkpt lat="45.06643" lon="6.04217">
        <ele>874</ele>
        <time>2017-12-15T18:40:06Z</time>
      </trkpt>
      <trkpt lat="45.06644" lon="6.04224">
        <ele>876</ele>
        <time>2017-12-15T18:40:24Z</time>
      </trkpt>
      <trkpt lat="45.06647" lon="6.04227">
        <ele>878</ele>
        <time>2017-12-15T18:40:29Z</time>
      </trkpt>
      <trkpt lat="45.06651" lon="6.04228">
        <ele>880</ele>
        <time>2017-12-15T18:40:33Z</time>
      </trkpt>
      <trkpt lat="45.06667" lon="6.04219">
        <ele>892</ele>
        <time>2017-12-15T18:40:46Z</time>
      </trkpt>
      <trkpt lat="45.06739" lon="6.04182">
        <ele>884</ele>
        <time>2017-12-15T18:40:49Z</time>
      </trkpt>
      <trkpt lat="45.06757" lon="6.04177">
        <ele>889</ele>
        <time>2017-12-15T18:41:07Z</time>
      </trkpt>
      <trkpt lat="45.0677" lon="6.04177">
        <ele>895</ele>
        <time>2017-12-15T18:41:16Z</time>
      </trkpt>
      <trkpt lat="45.06788" lon="6.04185">
        <ele>901</ele>
        <time>2017-12-15T18:41:36Z</time>
      </trkpt>
      <trkpt lat="45.06798" lon="6.0419">
        <ele>904</ele>
        <time>2017-12-15T18:41:53Z</time>
      </trkpt>
      <trkpt lat="45.068" lon="6.04192">
        <ele>904</ele>
        <time>2017-12-15T18:42:08Z</time>
      </trkpt>
      <trkpt lat="45.068" lon="6.04199">
        <ele>907</ele>
        <time>2017-12-15T18:42:15Z</time>
      </trkpt>
      <trkpt lat="45.06798" lon="6.04206">
        <ele>909</ele>
        <time>2017-12-15T18:42:18Z</time>
      </trkpt>
      <trkpt lat="45.06793" lon="6.0421">
        <ele>910</ele>
        <time>2017-12-15T18:42:26Z</time>
      </trkpt>
      <trkpt lat="45.06763" lon="6.04192">
        <ele>899</ele>
        <time>2017-12-15T18:42:36Z</time>
      </trkpt>
      <trkpt lat="45.06753" lon="6.04194">
        <ele>899</ele>
        <time>2017-12-15T18:42:44Z</time>
      </trkpt>
      <trkpt lat="45.06735" lon="6.04205">
        <ele>892</ele>
        <time>2017-12-15T18:42:48Z</time>
      </trkpt>
      <trkpt lat="45.06703" lon="6.04242">
        <ele>898</ele>
        <time>2017-12-15T18:43:05Z</time>
      </trkpt>
      <trkpt lat="45.06681" lon="6.04264">
        <ele>920</ele>
        <time>2017-12-15T18:43:12Z</time>
      </trkpt>
      <trkpt lat="45.06669" lon="6.04273">
        <ele>921</ele>
        <time>2017-12-15T18:43:30Z</time>
      </trkpt>
      <trkpt lat="45.06632" lon="6.04291">
        <ele>899</ele>
        <time>2017-12-15T18:43:38Z</time>
      </trkpt>
      <trkpt lat="45.06598" lon="6.04309">
        <ele>891</ele>
        <time>2017-12-15T18:43:41Z</time>
      </trkpt>
      <trkpt lat="45.06594" lon="6.04316">
        <ele>889</ele>
        <time>2017-12-15T18:43:47Z</time>
      </trkpt>
      <trkpt lat="45.06594" lon="6.04326">
        <ele>887</ele>
        <time>2017-12-15T18:44:04Z</time>
      </trkpt>
      <trkpt lat="45.06601" lon="6.04332">
        <ele>890</ele>
        <time>2017-12-15T18:44:21Z</time>
      </trkpt>
      <trkpt lat="45.06606" lon="6.04333">
        <ele>892</ele>
        <time>2017-12-15T18:44:39Z</time>
      </trkpt>
      <trkpt lat="45.06637" lon="6.0432">
        <ele>906</ele>
        <time>2017-12-15T18:44:42Z</time>
      </trkpt>
      <trkpt lat="45.06673" lon="6.04313">
        <ele>934</ele>
        <time>2017-12-15T18:44:53Z</time>
      </trkpt>
      <trkpt lat="45.06693" lon="6.043">
        <ele>933</ele>
        <time>2017-12-15T18:44:56Z</time>
      </trkpt>
      <trkpt lat="45.06713" lon="6.04286">
        <ele>932</ele>
        <time>2017-12-15T18:45:14Z</time>
      </trkpt>
      <trkpt lat="45.06724" lon="6.04282">
        <ele>932</ele>
        <time>2017-12-15T18:45:21Z</time>
      </trkpt>
      <trkpt lat="45.06746" lon="6.04284">
        <ele>934</ele>
        <time>2017-12-15T18:45:35Z</time>
      </trkpt>
      <trkpt lat="45.06756" lon="6.04285">
        <ele>950</ele>
        <time>2017-12-15T18:45:53Z</time>
      </trkpt>
      <trkpt lat="45.06776" lon="6.04278">
        <ele>951</ele>
        <time>2017-12-15T18:46:11Z</time>
      </trkpt>
      <trkpt lat="45.06808" lon="6.04263">
        <ele>954</ele>
        <time>2017-12-15T18:46:19Z</time>
      </trkpt>
      <trkpt lat="45.06822" lon="6.04262">
        <ele>954</ele>
        <time>2017-12-15T18:46:24Z</time>
      </trkpt>
      <trkpt lat="45.06836" lon="6.04264">
        <ele>964</ele>
        <time>2017-12-15T18:46:29Z</time>
      </trkpt>
      <trkpt lat="45.06867" lon="6.04266">
        <ele>975</ele>
        <time>2017-12-15T18:46:36Z</time>
      </trkpt>
      <trkpt lat="45.06883" lon="6.04268">
        <ele>977</ele>
        <time>2017-12-15T18:46:45Z</time>
      </trkpt>
      <trkpt lat="45.06888" lon="6.04271">
        <ele>978</ele>
        <time>2017-12-15T18:46:59Z</time>
      </trkpt>
      <trkpt lat="45.0689" lon="6.04274">
        <ele>979</ele>
        <time>2017-12-15T18:47:09Z</time>
      </trkpt>
      <trkpt lat="45.06891" lon="6.04276">
        <ele>980</ele>
        <time>2017-12-15T18:47:25Z</time>
      </trkpt>
      <trkpt lat="45.06889" lon="6.04286">
        <ele>982</ele>
        <time>2017-12-15T18:47:34Z</time>
      </trkpt>
      <trkpt lat="45.06885" lon="6.04291">
        <ele>983</ele>
        <time>2017-12-15T18:47:37Z</time>
      </trkpt>
      <trkpt lat="45.06881" lon="6.04292">
        <ele>983</ele>
        <time>2017-12-15T18:47:46Z</time>
      </trkpt>
      <trkpt lat="45.06866" lon="6.04287">
        <ele>980</ele>
        <time>2017-12-15T18:48:02Z</time>
      </trkpt>
      <trkpt lat="45.06847" lon="6.04281">
        <ele>975</ele>
        <time>2017-12-15T18:48:17Z</time>
      </trkpt>
      <trkpt lat="45.06831" lon="6.04282">
        <ele>959</ele>
        <time>2017-12-15T18:48:35Z</time>
      </trkpt>
      <trkpt lat="45.06817" lon="6.0429">
        <ele>961</ele>
        <time>2017-12-15T18:48:41Z</time>
      </trkpt>
      <trkpt lat="45.06789" lon="6.04314">
        <ele>963</ele>
        <time>2017-12-15T18:48:43Z</time>
      </trkpt>
      <trkpt lat="45.06722" lon="6.04365">
        <ele>961</ele>
        <time>2017-12-15T18:48:48Z</time>
      </trkpt>
      <trkpt lat="45.06719" lon="6.04372">
        <ele>961</ele>
        <time>2017-12-15T18:49:06Z</time>
      </trkpt>
      <trkpt lat="45.06717" lon="6.04384">
        <ele>962</ele>
        <time>2017-12-15T18:49:12Z</time>
      </trkpt>
      <trkpt lat="45.0672" lon="6.04395">
        <ele>964</ele>
        <time>2017-12-15T18:49:28Z</time>
      </trkpt>
      <trkpt lat="45.06731" lon="6.04408">
        <ele>969</ele>
        <time>2017-12-15T18:49:31Z</time>
      </trkpt>
      <trkpt lat="45.06765" lon="6.04443">
        <ele>981</ele>
        <time>2017-12-15T18:49:36Z</time>
      </trkpt>
      <trkpt lat="45.06792" lon="6.0446">
        <ele>981</ele>
        <time>2017-12-15T18:49:43Z</time>
      </trkpt>
      <trkpt lat="45.06828" lon="6.04474">
        <ele>982</ele>
        <time>2017-12-15T18:50:02Z</time>
      </trkpt>
      <trkpt lat="45.06872" lon="6.04484">
        <ele>996</ele>
        <time>2017-12-15T18:50:07Z</time>
      </trkpt>
      <trkpt lat="45.06884" lon="6.0449">
        <ele>997</ele>
        <time>2017-12-15T18:50:24Z</time>
      </trkpt>
      <trkpt lat="45.06893" lon="6.04499">
        <ele>998</ele>
        <time>2017-12-15T18:50:30Z</time>
      </trkpt>
      <trkpt lat="45.06912" lon="6.04526">
        <ele>987</ele>
        <time>2017-12-15T18:50:35Z</time>
      </trkpt>
      <trkpt lat="45.06923" lon="6.0454">
        <ele>996</ele>
        <time>2017-12-15T18:50:48Z</time>
      </trkpt>
      <trkpt lat="45.06947" lon="6.04559">
        <ele>996</ele>
        <time>2017-12-15T18:51:08Z</time>
      </trkpt>
      <trkpt lat="45.06995" lon="6.04582">
        <ele>1001</ele>
        <time>2017-12-15T18:51:26Z</time>
      </trkpt>
      <trkpt lat="45.07013" lon="6.04598">
        <ele>1005</ele>
        <time>2017-12-15T18:51:39Z</time>
      </trkpt>
      <trkpt lat="45.07047" lon="6.04661">
        <ele>1009</ele>
        <time>2017-12-15T18:51:41Z</time>
      </trkpt>
      <trkpt lat="45.07064" lon="6.04688">
        <ele>1004</ele>
        <time>2017-12-15T18:51:47Z</time>
      </trkpt>
      <trkpt lat="45.07141" lon="6.04761">
        <ele>1019</ele>
        <time>2017-12-15T18:52:05Z</time>
      </trkpt>
      <trkpt lat="45.07185" lon="6.04813">
        <ele>1034</ele>
        <time>2017-12-15T18:52:09Z</time>
      </trkpt>
      <trkpt lat="45.07192" lon="6.04814">
        <ele>1036</ele>
        <time>2017-12-15T18:52:21Z</time>
      </trkpt>
      <trkpt lat="45.07196" lon="6.04811">
        <ele>1038</ele>
        <time>2017-12-15T18:52:33Z</time>
      </trkpt>
      <trkpt lat="45.07199" lon="6.04799">
        <ele>1040</ele>
        <time>2017-12-15T18:52:46Z</time>
      </trkpt>
      <trkpt lat="45.07197" lon="6.04794">
        <ele>1041</ele>
        <time>2017-12-15T18:52:54Z</time>
      </trkpt>
      <trkpt lat="45.07192" lon="6.04789">
        <ele>1041</ele>
        <time>2017-12-15T18:53:06Z</time>
      </trkpt>
      <trkpt lat="45.07176" lon="6.04776">
        <ele>1040</ele>
        <time>2017-12-15T18:53:21Z</time>
      </trkpt>
      <trkpt lat="45.0715" lon="6.04746">
        <ele>1034</ele>
        <time>2017-12-15T18:53:26Z</time>
      </trkpt>
      <trkpt lat="45.07132" lon="6.0472">
        <ele>1032</ele>
        <time>2017-12-15T18:53:33Z</time>
      </trkpt>
      <trkpt lat="45.07115" lon="6.04691">
        <ele>1032</ele>
        <time>2017-12-15T18:53:50Z</time>
      </trkpt>
      <trkpt lat="45.07105" lon="6.04662">
        <ele>1037</ele>
        <time>2017-12-15T18:54:02Z</time>
      </trkpt>
      <trkpt lat="45.07104" lon="6.04622">
        <ele>1042</ele>
        <time>2017-12-15T18:54:20Z</time>
      </trkpt>
      <trkpt lat="45.07109" lon="6.04518">
        <ele>1051</ele>
        <time>2017-12-15T18:54:35Z</time>
      </trkpt>
      <trkpt lat="45.07109" lon="6.04498">
        <ele>1058</ele>
        <time>2017-12-15T18:54:39Z</time>
      </trkpt>
      <trkpt lat="45.07105" lon="6.04482">
        <ele>1059</ele>
        <time>2017-12-15T18:54:48Z</time>
      </trkpt>
      <trkpt lat="45.07091" lon="6.04452">
        <ele>1064</ele>
        <time>2017-12-15T18:54:50Z</time>
      </trkpt>
      <trkpt lat="45.07088" lon="6.04441">
        <ele>1066</ele>
        <time>2017-12-15T18:55:10Z</time>
      </trkpt>
      <trkpt lat="45.0709" lon="6.04434">
        <ele>1066</ele>
        <time>2017-12-15T18:55:18Z</time>
      </trkpt>
      <trkpt lat="45.07092" lon="6.04429">
        <ele>1067</ele>
        <time>2017-12-15T18:55:38Z</time>
      </trkpt>
      <trkpt lat="45.07098" lon="6.04425">
        <ele>1067</ele>
        <time>2017-12-15T18:55:44Z</time>
      </trkpt>
      <trkpt lat="45.07102" lon="6.04427">
        <ele>1067</ele>
        <time>2017-12-15T18:55:51Z</time>
      </trkpt>
      <trkpt lat="45.0711" lon="6.0444">
        <ele>1067</ele>
        <time>2017-12-15T18:56:02Z</time>
      </trkpt>
      <trkpt lat="45.0712" lon="6.04464">
        <ele>1065</ele>
        <time>2017-12-15T18:56:20Z</time>
      </trkpt>
      <trkpt lat="45.07131" lon="6.04497">
        <ele>1065</ele>
        <time>2017-12-15T18:56:34Z</time>
      </trkpt>
      <trkpt lat="45.07147" lon="6.04582">
        <ele>1060</ele>
        <time>2017-12-15T18:56:42Z</time>
      </trkpt>
      <trkpt lat="45.07153" lon="6.04615">
        <ele>1053</ele>
        <time>2017-12-15T18:56:59Z</time>
      </trkpt>
      <trkpt lat="45.07159" lon="6.04632">
        <ele>1053</ele>
        <time>2017-12-15T18:57:02Z</time>
      </trkpt>
      <trkpt lat="45.07173" lon="6.04657">
        <ele>1071</ele>
        <time>2017-12-15T18:57:08Z</time>
      </trkpt>
      <trkpt lat="45.07194" lon="6.04682">
        <ele>1069</ele>
        <time>2017-12-15T18:57:23Z</time>
      </trkpt>
      <trkpt lat="45.07206" lon="6.04693">
        <ele>1071</ele>
        <time>2017-12-15T18:57:36Z</time>
      </trkpt>
      <trkpt lat="45.07254" lon="6.04733">
        <ele>1088</ele>
        <time>2017-12-15T18:57:54Z</time>
      </trkpt>
      <trkpt lat="45.07295" lon="6.04764">
        <ele>1079</ele>
        <time>2017-12-15T18:58:03Z</time>
      </trkpt>
      <trkpt lat="45.07322" lon="6.04769">
        <ele>1085</ele>
        <time>2017-12-15T18:58:20Z</time>
      </trkpt>
      <trkpt lat="45.07335" lon="6.04772">
        <ele>1102</ele>
        <time>2017-12-15T18:58:34Z</time>
      </trkpt>
      <trkpt lat="45.07349" lon="6.04786">
        <ele>1103</ele>
        <time>2017-12-15T18:58:49Z</time>
      </trkpt>
      <trkpt lat="45.07355" lon="6.04798">
        <ele>1102</ele>
        <time>2017-12-15T18:58:55Z</time>
      </trkpt>
      <trkpt lat="45.07365" lon="6.04842">
        <ele>1099</ele>
        <time>2017-12-15T18:59:14Z</time>
      </trkpt>
      <trkpt lat="45.07368" lon="6.0487">
        <ele>1101</ele>
        <time>2017-12-15T18:59:19Z</time>
      </trkpt>
      <trkpt lat="45.07363" lon="6.04888">
        <ele>1101</ele>
        <time>2017-12-15T18:59:31Z</time>
      </trkpt>
      <trkpt lat="45.07346" lon="6.04911">
        <ele>1096</ele>
        <time>2017-12-15T18:59:36Z</time>
      </trkpt>
      <trkpt lat="45.0734" lon="6.0492">
        <ele>1098</ele>
        <time>2017-12-15T18:59:44Z</time>
      </trkpt>
      <trkpt lat="45.07336" lon="6.04934">
        <ele>1104</ele>
        <time>2017-12-15T18:59:47Z</time>
      </trkpt>
      <trkpt lat="45.07327" lon="6.0497">
        <ele>1094</ele>
        <time>2017-12-15T19:00:06Z</time>
      </trkpt>
      <trkpt lat="45.07318" lon="6.04993">
        <ele>1101</ele>
        <time>2017-12-15T19:00:20Z</time>
      </trkpt>
      <trkpt lat="45.07294" lon="6.0503">
        <ele>1110</ele>
        <time>2017-12-15T19:00:22Z</time>
      </trkpt>
      <trkpt lat="45.07248" lon="6.05102">
        <ele>1095</ele>
        <time>2017-12-15T19:00:31Z</time>
      </trkpt>
      <trkpt lat="45.07243" lon="6.05112">
        <ele>1094</ele>
        <time>2017-12-15T19:00:40Z</time>
      </trkpt>
      <trkpt lat="45.07243" lon="6.05118">
        <ele>1094</ele>
        <time>2017-12-15T19:01:00Z</time>
      </trkpt>
      <trkpt lat="45.07245" lon="6.05127">
        <ele>1096</ele>
        <time>2017-12-15T19:01:10Z</time>
      </trkpt>
      <trkpt lat="45.07248" lon="6.05129">
        <ele>1097</ele>
        <time>2017-12-15T19:01:15Z</time>
      </trkpt>
      <trkpt lat="45.07254" lon="6.0513">
        <ele>1131</ele>
        <time>2017-12-15T19:01:25Z</time>
      </trkpt>
      <trkpt lat="45.0726" lon="6.05126">
        <ele>1131</ele>
        <time>2017-12-15T19:01:37Z</time>
      </trkpt>
      <trkpt lat="45.07274" lon="6.05094">
        <ele>1127</ele>
        <time>2017-12-15T19:01:46Z</time>
      </trkpt>
      <trkpt lat="45.07301" lon="6.05068">
        <ele>1119</ele>
        <time>2017-12-15T19:01:53Z</time>
      </trkpt>
      <trkpt lat="45.07348" lon="6.05032">
        <ele>1143</ele>
        <time>2017-12-15T19:01:58Z</time>
      </trkpt>
      <trkpt lat="45.07369" lon="6.05009">
        <ele>1143</ele>
        <time>2017-12-15T19:02:15Z</time>
      </trkpt>
      <trkpt lat="45.07378" lon="6.04996">
        <ele>1126</ele>
        <time>2017-12-15T19:02:34Z</time>
      </trkpt>
      <trkpt lat="45.07395" lon="6.04973">
        <ele>1127</ele>
        <time>2017-12-15T19:02:51Z</time>
      </trkpt>
      <trkpt lat="45.07413" lon="6.0496">
        <ele>1126</ele>
        <time>2017-12-15T19:02:56Z</time>
      </trkpt>
      <trkpt lat="45.07428" lon="6.04957">
        <ele>1148</ele>
        <time>2017-12-15T19:03:14Z</time>
      </trkpt>
      <trkpt lat="45.0745" lon="6.04957">
        <ele>1152</ele>
        <time>2017-12-15T19:03:18Z</time>
      </trkpt>
      <trkpt lat="45.07468" lon="6.04951">
        <ele>1155</ele>
        <time>2017-12-15T19:03:31Z</time>
      </trkpt>
      <trkpt lat="45.07475" lon="6.04943">
        <ele>1155</ele>
        <time>2017-12-15T19:03:35Z</time>
      </trkpt>
      <trkpt lat="45.07482" lon="6.0493">
        <ele>1155</ele>
        <time>2017-12-15T19:03:50Z</time>
      </trkpt>
      <trkpt lat="45.075" lon="6.04874">
        <ele>1173</ele>
        <time>2017-12-15T19:04:09Z</time>
      </trkpt>
      <trkpt lat="45.07503" lon="6.04859">
        <ele>1171</ele>
        <time>2017-12-15T19:04:21Z</time>
      </trkpt>
      <trkpt lat="45.07502" lon="6.04842">
        <ele>1165</ele>
        <time>2017-12-15T19:04:29Z</time>
      </trkpt>
      <trkpt lat="45.07487" lon="6.04802">
        <ele>1147</ele>
        <time>2017-12-15T19:04:42Z</time>
      </trkpt>
      <trkpt lat="45.07478" lon="6.04778">
        <ele>1147</ele>
        <time>2017-12-15T19:04:54Z</time>
      </trkpt>
      <trkpt lat="45.07478" lon="6.04766">
        <ele>1149</ele>
        <time>2017-12-15T19:05:07Z</time>
      </trkpt>
      <trkpt lat="45.07479" lon="6.04762">
        <ele>1150</ele>
        <time>2017-12-15T19:05:13Z</time>
      </trkpt>
      <trkpt lat="45.07483" lon="6.04759">
        <ele>1151</ele>
        <time>2017-12-15T19:05:17Z</time>
      </trkpt>
      <trkpt lat="45.07488" lon="6.04759">
        <ele>1153</ele>
        <time>2017-12-15T19:05:23Z</time>
      </trkpt>
      <trkpt lat="45.07494" lon="6.04766">
        <ele>1153</ele>
        <time>2017-12-15T19:05:30Z</time>
      </trkpt>
      <trkpt lat="45.07496" lon="6.04782">
        <ele>1149</ele>
        <time>2017-12-15T19:05:44Z</time>
      </trkpt>
      <trkpt lat="45.075" lon="6.04806">
        <ele>1172</ele>
        <time>2017-12-15T19:05:53Z</time>
      </trkpt>
      <trkpt lat="45.07515" lon="6.04844">
        <ele>1170</ele>
        <time>2017-12-15T19:05:56Z</time>
      </trkpt>
      <trkpt lat="45.07522" lon="6.04863">
        <ele>1176</ele>
        <time>2017-12-15T19:06:03Z</time>
      </trkpt>
      <trkpt lat="45.07525" lon="6.04879">
        <ele>1177</ele>
        <time>2017-12-15T19:06:14Z</time>
      </trkpt>
      <trkpt lat="45.07526" lon="6.04927">
        <ele>1182</ele>
        <time>2017-12-15T19:06:24Z</time>
      </trkpt>
      <trkpt lat="45.07522" lon="6.04966">
        <ele>1189</ele>
        <time>2017-12-15T19:06:26Z</time>
      </trkpt>
      <trkpt lat="45.07515" lon="6.04987">
        <ele>1189</ele>
        <time>2017-12-15T19:06:33Z</time>
      </trkpt>
      <trkpt lat="45.0751" lon="6.04995">
        <ele>1187</ele>
        <time>2017-12-15T19:06:43Z</time>
      </trkpt>
      <trkpt lat="45.07501" lon="6.05004">
        <ele>1190</ele>
        <time>2017-12-15T19:06:47Z</time>
      </trkpt>
      <trkpt lat="45.07465" lon="6.05016">
        <ele>1182</ele>
        <time>2017-12-15T19:06:55Z</time>
      </trkpt>
      <trkpt lat="45.07447" lon="6.05026">
        <ele>1179</ele>
        <time>2017-12-15T19:07:09Z</time>
      </trkpt>
      <trkpt lat="45.07437" lon="6.05046">
        <ele>1183</ele>
        <time>2017-12-15T19:07:11Z</time>
      </trkpt>
      <trkpt lat="45.07422" lon="6.05078">
        <ele>1187</ele>
        <time>2017-12-15T19:07:23Z</time>
      </trkpt>
      <trkpt lat="45.07351" lon="6.05173">
        <ele>1204</ele>
        <time>2017-12-15T19:07:28Z</time>
      </trkpt>
      <trkpt lat="45.07325" lon="6.05193">
        <ele>1174</ele>
        <time>2017-12-15T19:07:44Z</time>
      </trkpt>
      <trkpt lat="45.07321" lon="6.05199">
        <ele>1174</ele>
        <time>2017-12-15T19:07:54Z</time>
      </trkpt>
      <trkpt lat="45.0732" lon="6.05208">
        <ele>1175</ele>
        <time>2017-12-15T19:07:56Z</time>
      </trkpt>
      <trkpt lat="45.07322" lon="6.05211">
        <ele>1176</ele>
        <time>2017-12-15T19:08:16Z</time>
      </trkpt>
      <trkpt lat="45.07327" lon="6.05213">
        <ele>1178</ele>
        <time>2017-12-15T19:08:29Z</time>
      </trkpt>
      <trkpt lat="45.07333" lon="6.05211">
        <ele>1178</ele>
        <time>2017-12-15T19:08:43Z</time>
      </trkpt>
      <trkpt lat="45.0734" lon="6.05205">
        <ele>1214</ele>
        <time>2017-12-15T19:08:57Z</time>
      </trkpt>
      <trkpt lat="45.07375" lon="6.05169">
        <ele>1216</ele>
        <time>2017-12-15T19:09:08Z</time>
      </trkpt>
      <trkpt lat="45.07418" lon="6.05126">
        <ele>1217</ele>
        <time>2017-12-15T19:09:12Z</time>
      </trkpt>
      <trkpt lat="45.07437" lon="6.05111">
        <ele>1214</ele>
        <time>2017-12-15T19:09:29Z</time>
      </trkpt>
      <trkpt lat="45.0748" lon="6.05083">
        <ele>1202</ele>
        <time>2017-12-15T19:09:48Z</time>
      </trkpt>
      <trkpt lat="45.07513" lon="6.05072">
        <ele>1220</ele>
        <time>2017-12-15T19:09:54Z</time>
      </trkpt>
      <trkpt lat="45.07533" lon="6.05069">
        <ele>1223</ele>
        <time>2017-12-15T19:10:09Z</time>
      </trkpt>
      <trkpt lat="45.07549" lon="6.05059">
        <ele>1225</ele>
        <time>2017-12-15T19:10:29Z</time>
      </trkpt>
      <trkpt lat="45.07573" lon="6.05042">
        <ele>1226</ele>
        <time>2017-12-15T19:10:38Z</time>
      </trkpt>
      <trkpt lat="45.07589" lon="6.05015">
        <ele>1240</ele>
        <time>2017-12-15T19:10:57Z</time>
      </trkpt>
      <trkpt lat="45.076" lon="6.04981">
        <ele>1232</ele>
        <time>2017-12-15T19:11:11Z</time>
      </trkpt>
      <trkpt lat="45.07622" lon="6.04927">
        <ele>1234</ele>
        <time>2017-12-15T19:11:29Z</time>
      </trkpt>
      <trkpt lat="45.07637" lon="6.04892">
        <ele>1233</ele>
        <time>2017-12-15T19:11:32Z</time>
      </trkpt>
      <trkpt lat="45.07638" lon="6.04869">
        <ele>1233</ele>
        <time>2017-12-15T19:11:40Z</time>
      </trkpt>
      <trkpt lat="45.07629" lon="6.04804">
        <ele>1230</ele>
        <time>2017-12-15T19:11:57Z</time>
      </trkpt>
      <trkpt lat="45.07633" lon="6.04788">
        <ele>1231</ele>
        <time>2017-12-15T19:12:15Z</time>
      </trkpt>
      <trkpt lat="45.07647" lon="6.04748">
        <ele>1242</ele>
        <time>2017-12-15T19:12:32Z</time>
      </trkpt>
      <trkpt lat="45.07656" lon="6.04731">
        <ele>1244</ele>
        <time>2017-12-15T19:12:37Z</time>
      </trkpt>
      <trkpt lat="45.07658" lon="6.0473">
        <ele>1244</ele>
        <time>2017-12-15T19:12:45Z</time>
      </trkpt>
      <trkpt lat="45.07663" lon="6.04731">
        <ele>1245</ele>
        <time>2017-12-15T19:13:04Z</time>
      </trkpt>
      <trkpt lat="45.07667" lon="6.04736">
        <ele>1266</ele>
        <time>2017-12-15T19:13:16Z</time>
      </trkpt>
      <trkpt lat="45.07667" lon="6.04749">
        <ele>1254</ele>
        <time>2017-12-15T19:13:19Z</time>
      </trkpt>
      <trkpt lat="45.07652" lon="6.04785">
        <ele>1236</ele>
        <time>2017-12-15T19:13:26Z</time>
      </trkpt>
      <trkpt lat="45.07649" lon="6.04799">
        <ele>1236</ele>
        <time>2017-12-15T19:13:37Z</time>
      </trkpt>
      <trkpt lat="45.07656" lon="6.04829">
        <ele>1245</ele>
        <time>2017-12-15T19:13:50Z</time>
      </trkpt>
      <trkpt lat="45.07669" lon="6.04858">
        <ele>1271</ele>
        <time>2017-12-15T19:13:56Z</time>
      </trkpt>
      <trkpt lat="45.07672" lon="6.0487">
        <ele>1273</ele>
        <time>2017-12-15T19:14:12Z</time>
      </trkpt>
      <trkpt lat="45.07674" lon="6.04884">
        <ele>1273</ele>
        <time>2017-12-15T19:14:17Z</time>
      </trkpt>
      <trkpt lat="45.07672" lon="6.0493">
        <ele>1269</ele>
        <time>2017-12-15T19:14:35Z</time>
      </trkpt>
      <trkpt lat="45.07671" lon="6.04949">
        <ele>1277</ele>
        <time>2017-12-15T19:14:48Z</time>
      </trkpt>
      <trkpt lat="45.07666" lon="6.04965">
        <ele>1248</ele>
        <time>2017-12-15T19:14:53Z</time>
      </trkpt>
      <trkpt lat="45.07653" lon="6.05016">
        <ele>1263</ele>
        <time>2017-12-15T19:15:00Z</time>
      </trkpt>
      <trkpt lat="45.07649" lon="6.05064">
        <ele>1269</ele>
        <time>2017-12-15T19:15:05Z</time>
      </trkpt>
      <trkpt lat="45.07636" lon="6.05102">
        <ele>1284</ele>
        <time>2017-12-15T19:15:12Z</time>
      </trkpt>
      <trkpt lat="45.07617" lon="6.05131">
        <ele>1284</ele>
        <time>2017-12-15T19:15:26Z</time>
      </trkpt>
      <trkpt lat="45.07608" lon="6.05144">
        <ele>1285</ele>
        <time>2017-12-15T19:15:29Z</time>
      </trkpt>
      <trkpt lat="45.07588" lon="6.05161">
        <ele>1284</ele>
        <time>2017-12-15T19:15:36Z</time>
      </trkpt>
      <trkpt lat="45.07548" lon="6.05193">
        <ele>1292</ele>
        <time>2017-12-15T19:15:48Z</time>
      </trkpt>
      <trkpt lat="45.07528" lon="6.05206">
        <ele>1293</ele>
        <time>2017-12-15T19:16:04Z</time>
      </trkpt>
      <trkpt lat="45.07508" lon="6.05216">
        <ele>1295</ele>
        <time>2017-12-15T19:16:18Z</time>
      </trkpt>
      <trkpt lat="45.07489" lon="6.05219">
        <ele>1278</ele>
        <time>2017-12-15T19:16:28Z</time>
      </trkpt>
      <trkpt lat="45.07483" lon="6.05221">
        <ele>1278</ele>
        <time>2017-12-15T19:16:40Z</time>
      </trkpt>
      <trkpt lat="45.07482" lon="6.05223">
        <ele>1279</ele>
        <time>2017-12-15T19:16:55Z</time>
      </trkpt>
      <trkpt lat="45.07478" lon="6.05233">
        <ele>1282</ele>
        <time>2017-12-15T19:17:00Z</time>
      </trkpt>
      <trkpt lat="45.07477" lon="6.05239">
        <ele>1284</ele>
        <time>2017-12-15T19:17:14Z</time>
      </trkpt>
      <trkpt lat="45.07477" lon="6.05243">
        <ele>1285</ele>
        <time>2017-12-15T19:17:29Z</time>
      </trkpt>
      <trkpt lat="45.0748" lon="6.05248">
        <ele>1288</ele>
        <time>2017-12-15T19:17:49Z</time>
      </trkpt>
      <trkpt lat="45.07483" lon="6.05252">
        <ele>1309</ele>
        <time>2017-12-15T19:18:05Z</time>
      </trkpt>
      <trkpt lat="45.07488" lon="6.05254">
        <ele>1310</ele>
        <time>2017-12-15T19:18:23Z</time>
      </trkpt>
      <trkpt lat="45.07496" lon="6.05249">
        <ele>1304</ele>
        <time>2017-12-15T19:18:32Z</time>
      </trkpt>
      <trkpt lat="45.07504" lon="6.0524">
        <ele>1305</ele>
        <time>2017-12-15T19:18:38Z</time>
      </trkpt>
      <trkpt lat="45.07509" lon="6.05232">
        <ele>1301</ele>
        <time>2017-12-15T19:18:55Z</time>
      </trkpt>
      <trkpt lat="45.07521" lon="6.05224">
        <ele>1298</ele>
        <time>2017-12-15T19:19:13Z</time>
      </trkpt>
      <trkpt lat="45.07573" lon="6.052">
        <ele>1296</ele>
        <time>2017-12-15T19:19:16Z</time>
      </trkpt>
      <trkpt lat="45.07599" lon="6.05193">
        <ele>1310</ele>
        <time>2017-12-15T19:19:20Z</time>
      </trkpt>
      <trkpt lat="45.07626" lon="6.05189">
        <ele>1315</ele>
        <time>2017-12-15T19:19:39Z</time>
      </trkpt>
      <trkpt lat="45.07644" lon="6.05183">
        <ele>1316</ele>
        <time>2017-12-15T19:19:46Z</time>
      </trkpt>
      <trkpt lat="45.07661" lon="6.05178">
        <ele>1316</ele>
        <time>2017-12-15T19:19:59Z</time>
      </trkpt>
      <trkpt lat="45.07678" lon="6.05168">
        <ele>1328</ele>
        <time>2017-12-15T19:20:09Z</time>
      </trkpt>
      <trkpt lat="45.07694" lon="6.05151">
        <ele>1323</ele>
        <time>2017-12-15T19:20:17Z</time>
      </trkpt>
      <trkpt lat="45.07704" lon="6.05134">
        <ele>1325</ele>
        <time>2017-12-15T19:20:22Z</time>
      </trkpt>
      <trkpt lat="45.07722" lon="6.05096">
        <ele>1326</ele>
        <time>2017-12-15T19:20:24Z</time>
      </trkpt>
      <trkpt lat="45.07743" lon="6.0506">
        <ele>1317</ele>
        <time>2017-12-15T19:20:29Z</time>
      </trkpt>
      <trkpt lat="45.07799" lon="6.04968">
        <ele>1340</ele>
        <time>2017-12-15T19:20:42Z</time>
      </trkpt>
      <trkpt lat="45.07806" lon="6.04937">
        <ele>1341</ele>
        <time>2017-12-15T19:20:50Z</time>
      </trkpt>
      <trkpt lat="45.07803" lon="6.04921">
        <ele>1341</ele>
        <time>2017-12-15T19:21:00Z</time>
      </trkpt>
      <trkpt lat="45.07795" lon="6.04893">
        <ele>1338</ele>
        <time>2017-12-15T19:21:08Z</time>
      </trkpt>
      <trkpt lat="45.07795" lon="6.0484">
        <ele>1341</ele>
        <time>2017-12-15T19:21:24Z</time>
      </trkpt>
      <trkpt lat="45.07783" lon="6.04802">
        <ele>1341</ele>
        <time>2017-12-15T19:21:43Z</time>
      </trkpt>
      <trkpt lat="45.07783" lon="6.04785">
        <ele>1341</ele>
        <time>2017-12-15T19:21:48Z</time>
      </trkpt>
      <trkpt lat="45.07783" lon="6.04783">
        <ele>1341</ele>
        <time>2017-12-15T19:22:06Z</time>
      </trkpt>
      <trkpt lat="45.07791" lon="6.04779">
        <ele>1344</ele>
        <time>2017-12-15T19:22:09Z</time>
      </trkpt>
      <trkpt lat="45.07796" lon="6.04784">
        <ele>1346</ele>
        <time>2017-12-15T19:22:21Z</time>
      </trkpt>
      <trkpt lat="45.078" lon="6.04797">
        <ele>1347</ele>
        <time>2017-12-15T19:22:24Z</time>
      </trkpt>
      <trkpt lat="45.07808" lon="6.04843">
        <ele>1348</ele>
        <time>2017-12-15T19:22:29Z</time>
      </trkpt>
      <trkpt lat="45.07816" lon="6.0487">
        <ele>1346</ele>
        <time>2017-12-15T19:22:46Z</time>
      </trkpt>
      <trkpt lat="45.07828" lon="6.04892">
        <ele>1347</ele>
        <time>2017-12-15T19:22:56Z</time>
      </trkpt>
      <trkpt lat="45.0784" lon="6.04915">
        <ele>1365</ele>
        <time>2017-12-15T19:23:00Z</time>
      </trkpt>
      <trkpt lat="45.07844" lon="6.04928">
        <ele>1371</ele>
        <time>2017-12-15T19:23:12Z</time>
      </trkpt>
      <trkpt lat="45.07845" lon="6.04973">
        <ele>1378</ele>
        <time>2017-12-15T19:23:18Z</time>
      </trkpt>
      <trkpt lat="45.0784" lon="6.05015">
        <ele>1379</ele>
        <time>2017-12-15T19:23:25Z</time>
      </trkpt>
      <trkpt lat="45.0782" lon="6.05075">
        <ele>1365</ele>
        <time>2017-12-15T19:23:31Z</time>
      </trkpt>
      <trkpt lat="45.07786" lon="6.05166">
        <ele>1370</ele>
        <time>2017-12-15T19:23:34Z</time>
      </trkpt>
      <trkpt lat="45.07772" lon="6.05225">
        <ele>1387</ele>
        <time>2017-12-15T19:23:53Z</time>
      </trkpt>
      <trkpt lat="45.0775" lon="6.05272">
        <ele>1394</ele>
        <time>2017-12-15T19:24:04Z</time>
      </trkpt>
      <trkpt lat="45.07741" lon="6.05286">
        <ele>1377</ele>
        <time>2017-12-15T19:24:23Z</time>
      </trkpt>
      <trkpt lat="45.07726" lon="6.05302">
        <ele>1376</ele>
        <time>2017-12-15T19:24:28Z</time>
      </trkpt>
      <trkpt lat="45.07715" lon="6.05314">
        <ele>1375</ele>
        <time>2017-12-15T19:24:30Z</time>
      </trkpt>
      <trkpt lat="45.07708" lon="6.05329">
        <ele>1374</ele>
        <time>2017-12-15T19:24:38Z</time>
      </trkpt>
      <trkpt lat="45.07707" lon="6.05341">
        <ele>1374</ele>
        <time>2017-12-15T19:24:46Z</time>
      </trkpt>
      <trkpt lat="45.07713" lon="6.05351">
        <ele>1375</ele>
        <time>2017-12-15T19:24:51Z</time>
      </trkpt>
      <trkpt lat="45.0772" lon="6.05358">
        <ele>1376</ele>
        <time>2017-12-15T19:25:10Z</time>
      </trkpt>
      <trkpt lat="45.07729" lon="6.05361">
        <ele>1377</ele>
        <time>2017-12-15T19:25:19Z</time>
      </trkpt>
      <trkpt lat="45.07744" lon="6.05362">
        <ele>1379</ele>
        <time>2017-12-15T19:25:30Z</time>
      </trkpt>
      <trkpt lat="45.07761" lon="6.05367">
        <ele>1395</ele>
        <time>2017-12-15T19:25:39Z</time>
      </trkpt>
      <trkpt lat="45.07773" lon="6.05376">
        <ele>1396</ele>
        <time>2017-12-15T19:25:44Z</time>
      </trkpt>
      <trkpt lat="45.07817" lon="6.05412">
        <ele>1402</ele>
        <time>2017-12-15T19:25:52Z</time>
      </trkpt>
      <trkpt lat="45.07894" lon="6.05453">
        <ele>1406</ele>
        <time>2017-12-15T19:26:02Z</time>
      </trkpt>
      <trkpt lat="45.07916" lon="6.05464">
        <ele>1406</ele>
        <time>2017-12-15T19:26:04Z</time>
      </trkpt>
      <trkpt lat="45.07929" lon="6.05469">
        <ele>1418</ele>
        <time>2017-12-15T19:26:13Z</time>
      </trkpt>
      <trkpt lat="45.07938" lon="6.05469">
        <ele>1419</ele>
        <time>2017-12-15T19:26:26Z</time>
      </trkpt>
      <trkpt lat="45.07955" lon="6.05463">
        <ele>1422</ele>
        <time>2017-12-15T19:26:42Z</time>
      </trkpt>
      <trkpt lat="45.0797" lon="6.05462">
        <ele>1424</ele>
        <time>2017-12-15T19:26:57Z</time>
      </trkpt>
      <trkpt lat="45.07982" lon="6.05462">
        <ele>1425</ele>
        <time>2017-12-15T19:27:09Z</time>
      </trkpt>
      <trkpt lat="45.08008" lon="6.05465">
        <ele>1434</ele>
        <time>2017-12-15T19:27:13Z</time>
      </trkpt>
      <trkpt lat="45.08038" lon="6.05475">
        <ele>1435</ele>
        <time>2017-12-15T19:27:16Z</time>
      </trkpt>
      <trkpt lat="45.08067" lon="6.0549">
        <ele>1435</ele>
        <time>2017-12-15T19:27:23Z</time>
      </trkpt>
      <trkpt lat="45.08077" lon="6.05502">
        <ele>1434</ele>
        <time>2017-12-15T19:27:29Z</time>
      </trkpt>
      <trkpt lat="45.0808" lon="6.05512">
        <ele>1434</ele>
        <time>2017-12-15T19:27:34Z</time>
      </trkpt>
      <trkpt lat="45.08082" lon="6.05531">
        <ele>1435</ele>
        <time>2017-12-15T19:27:41Z</time>
      </trkpt>
      <trkpt lat="45.08079" lon="6.05546">
        <ele>1436</ele>
        <time>2017-12-15T19:27:50Z</time>
      </trkpt>
      <trkpt lat="45.08075" lon="6.05554">
        <ele>1437</ele>
        <time>2017-12-15T19:28:07Z</time>
      </trkpt>
      <trkpt lat="45.08044" lon="6.05568">
        <ele>1434</ele>
        <time>2017-12-15T19:28:17Z</time>
      </trkpt>
      <trkpt lat="45.08026" lon="6.05578">
        <ele>1431</ele>
        <time>2017-12-15T19:28:25Z</time>
      </trkpt>
      <trkpt lat="45.0802" lon="6.05589">
        <ele>1435</ele>
        <time>2017-12-15T19:28:42Z</time>
      </trkpt>
      <trkpt lat="45.08012" lon="6.05612">
        <ele>1437</ele>
        <time>2017-12-15T19:28:55Z</time>
      </trkpt>
      <trkpt lat="45.08006" lon="6.05657">
        <ele>1436</ele>
        <time>2017-12-15T19:29:00Z</time>
      </trkpt>
      <trkpt lat="45.08007" lon="6.05676">
        <ele>1438</ele>
        <time>2017-12-15T19:29:03Z</time>
      </trkpt>
      <trkpt lat="45.08012" lon="6.05693">
        <ele>1442</ele>
        <time>2017-12-15T19:29:17Z</time>
      </trkpt>
      <trkpt lat="45.08018" lon="6.05713">
        <ele>1443</ele>
        <time>2017-12-15T19:29:23Z</time>
      </trkpt>
      <trkpt lat="45.08031" lon="6.05742">
        <ele>1444</ele>
        <time>2017-12-15T19:29:41Z</time>
      </trkpt>
      <trkpt lat="45.08061" lon="6.05818">
        <ele>1445</ele>
        <time>2017-12-15T19:29:54Z</time>
      </trkpt>
      <trkpt lat="45.08089" lon="6.05876">
        <ele>1462</ele>
        <time>2017-12-15T19:30:07Z</time>
      </trkpt>
      <trkpt lat="45.08101" lon="6.05892">
        <ele>1461</ele>
        <time>2017-12-15T19:30:21Z</time>
      </trkpt>
      <trkpt lat="45.08122" lon="6.05926">
        <ele>1462</ele>
        <time>2017-12-15T19:30:26Z</time>
      </trkpt>
      <trkpt lat="45.08136" lon="6.05961">
        <ele>1464</ele>
        <time>2017-12-15T19:30:39Z</time>
      </trkpt>
      <trkpt lat="45.0814" lon="6.05971">
        <ele>1465</ele>
        <time>2017-12-15T19:30:56Z</time>
      </trkpt>
      <trkpt lat="45.08166" lon="6.06048">
        <ele>1461</ele>
        <time>2017-12-15T19:31:13Z</time>
      </trkpt>
      <trkpt lat="45.08189" lon="6.06128">
        <ele>1481</ele>
        <time>2017-12-15T19:31:23Z</time>
      </trkpt>
      <trkpt lat="45.08198" lon="6.06167">
        <ele>1472</ele>
        <time>2017-12-15T19:31:30Z</time>
      </trkpt>
      <trkpt lat="45.08215" lon="6.06221">
        <ele>1474</ele>
        <time>2017-12-15T19:31:49Z</time>
      </trkpt>
      <trkpt lat="45.08218" lon="6.06228">
        <ele>1475</ele>
        <time>2017-12-15T19:32:06Z</time>
      </trkpt>
      <trkpt lat="45.08222" lon="6.06231">
        <ele>1477</ele>
        <time>2017-12-15T19:32:13Z</time>
      </trkpt>
      <trkpt lat="45.0823" lon="6.06231">
        <ele>1479</ele>
        <time>2017-12-15T19:32:21Z</time>
      </trkpt>
      <trkpt lat="45.08234" lon="6.06228">
        <ele>1480</ele>
        <time>2017-12-15T19:32:39Z</time>
      </trkpt>
      <trkpt lat="45.08235" lon="6.06225">
        <ele>1480</ele>
        <time>2017-12-15T19:32:41Z</time>
      </trkpt>
      <trkpt lat="45.08235" lon="6.06216">
        <ele>1480</ele>
        <time>2017-12-15T19:32:54Z</time>
      </trkpt>
      <trkpt lat="45.0823" lon="6.06204">
        <ele>1480</ele>
        <time>2017-12-15T19:33:10Z</time>
      </trkpt>
      <trkpt lat="45.08213" lon="6.0617">
        <ele>1478</ele>
        <time>2017-12-15T19:33:25Z</time>
      </trkpt>
      <trkpt lat="45.08209" lon="6.06146">
        <ele>1485</ele>
        <time>2017-12-15T19:33:31Z</time>
      </trkpt>
      <trkpt lat="45.08215" lon="6.06079">
        <ele>1494</ele>
        <time>2017-12-15T19:33:47Z</time>
      </trkpt>
      <trkpt lat="45.08223" lon="6.05922">
        <ele>1500</ele>
        <time>2017-12-15T19:33:59Z</time>
      </trkpt>
      <trkpt lat="45.08225" lon="6.05835">
        <ele>1501</ele>
        <time>2017-12-15T19:34:04Z</time>
      </trkpt>
      <trkpt lat="45.08227" lon="6.05816">
        <ele>1500</ele>
        <time>2017-12-15T19:34:11Z</time>
      </trkpt>
      <trkpt lat="45.08232" lon="6.05792">
        <ele>1498</ele>
        <time>2017-12-15T19:34:31Z</time>
      </trkpt>
      <trkpt lat="45.08242" lon="6.05776">
        <ele>1498</ele>
        <time>2017-12-15T19:34:36Z</time>
      </trkpt>
      <trkpt lat="45.08254" lon="6.05765">
        <ele>1505</ele>
        <time>2017-12-15T19:34:46Z</time>
      </trkpt>
      <trkpt lat="45.08272" lon="6.05761">
        <ele>1507</ele>
        <time>2017-12-15T19:34:55Z</time>
      </trkpt>
      <trkpt lat="45.08306" lon="6.05759">
        <ele>1510</ele>
        <time>2017-12-15T19:35:07Z</time>
      </trkpt>
      <trkpt lat="45.08361" lon="6.05747">
        <ele>1512</ele>
        <time>2017-12-15T19:35:17Z</time>
      </trkpt>
      <trkpt lat="45.08366" lon="6.05747">
        <ele>1512</ele>
        <time>2017-12-15T19:35:21Z</time>
      </trkpt>
      <trkpt lat="45.08369" lon="6.0575">
        <ele>1519</ele>
        <time>2017-12-15T19:35:36Z</time>
      </trkpt>
      <trkpt lat="45.08371" lon="6.05756">
        <ele>1520</ele>
        <time>2017-12-15T19:35:40Z</time>
      </trkpt>
      <trkpt lat="45.08369" lon="6.05767">
        <ele>1520</ele>
        <time>2017-12-15T19:35:50Z</time>
      </trkpt>
      <trkpt lat="45.08365" lon="6.05771">
        <ele>1520</ele>
        <time>2017-12-15T19:35:55Z</time>
      </trkpt>
      <trkpt lat="45.0835" lon="6.05779">
        <ele>1520</ele>
        <time>2017-12-15T19:35:57Z</time>
      </trkpt>
      <trkpt lat="45.08331" lon="6.05799">
        <ele>1514</ele>
        <time>2017-12-15T19:36:04Z</time>
      </trkpt>
      <trkpt lat="45.08312" lon="6.05845">
        <ele>1521</ele>
        <time>2017-12-15T19:36:12Z</time>
      </trkpt>
      <trkpt lat="45.08304" lon="6.0588">
        <ele>1522</ele>
        <time>2017-12-15T19:36:31Z</time>
      </trkpt>
      <trkpt lat="45.08302" lon="6.05921">
        <ele>1528</ele>
        <time>2017-12-15T19:36:46Z</time>
      </trkpt>
      <trkpt lat="45.08305" lon="6.05979">
        <ele>1531</ele>
        <time>2017-12-15T19:36:50Z</time>
      </trkpt>
      <trkpt lat="45.08319" lon="6.0606">
        <ele>1537</ele>
        <time>2017-12-15T19:36:52Z</time>
      </trkpt>
      <trkpt lat="45.08342" lon="6.06168">
        <ele>1552</ele>
        <time>2017-12-15T19:37:06Z</time>
      </trkpt>
      <trkpt lat="45.08347" lon="6.06199">
        <ele>1559</ele>
        <time>2017-12-15T19:37:18Z</time>
      </trkpt>
      <trkpt lat="45.08351" lon="6.06256">
        <ele>1555</ele>
        <time>2017-12-15T19:37:30Z</time>
      </trkpt>
      <trkpt lat="45.08352" lon="6.0626">
        <ele>1556</ele>
        <time>2017-12-15T19:37:43Z</time>
      </trkpt>
      <trkpt lat="45.08358" lon="6.06264">
        <ele>1559</ele>
        <time>2017-12-15T19:37:53Z</time>
      </trkpt>
      <trkpt lat="45.08364" lon="6.06262">
        <ele>1562</ele>
        <time>2017-12-15T19:38:04Z</time>
      </trkpt>
      <trkpt lat="45.08367" lon="6.06254">
        <ele>1563</ele>
        <time>2017-12-15T19:38:23Z</time>
      </trkpt>
      <trkpt lat="45.08364" lon="6.06231">
        <ele>1562</ele>
        <time>2017-12-15T19:38:33Z</time>
      </trkpt>
      <trkpt lat="45.0836" lon="6.06178">
        <ele>1560</ele>
        <time>2017-12-15T19:38:36Z</time>
      </trkpt>
      <trkpt lat="45.08361" lon="6.06149">
        <ele>1560</ele>
        <time>2017-12-15T19:38:55Z</time>
      </trkpt>
      <trkpt lat="45.08379" lon="6.06125">
        <ele>1564</ele>
        <time>2017-12-15T19:39:15Z</time>
      </trkpt>
      <trkpt lat="45.08402" lon="6.06064">
        <ele>1565</ele>
        <time>2017-12-15T19:39:34Z</time>
      </trkpt>
      <trkpt lat="45.08419" lon="6.06046">
        <ele>1576</ele>
        <time>2017-12-15T19:39:41Z</time>
      </trkpt>
      <trkpt lat="45.08447" lon="6.06027">
        <ele>1577</ele>
        <time>2017-12-15T19:39:49Z</time>
      </trkpt>
      <trkpt lat="45.08457" lon="6.06027">
        <ele>1578</ele>
        <time>2017-12-15T19:40:03Z</time>
      </trkpt>
      <trkpt lat="45.08464" lon="6.06024">
        <ele>1579</ele>
        <time>2017-12-15T19:40:09Z</time>
      </trkpt>
      <trkpt lat="45.0857" lon="6.05978">
        <ele>1590</ele>
        <time>2017-12-15T19:40:27Z</time>
      </trkpt>
      <trkpt lat="45.08584" lon="6.05967">
        <ele>1601</ele>
        <time>2017-12-15T19:40:40Z</time>
      </trkpt>
      <trkpt lat="45.08608" lon="6.05938">
        <ele>1600</ele>
        <time>2017-12-15T19:40:51Z</time>
      </trkpt>
      <trkpt lat="45.0863" lon="6.05908">
        <ele>1593</ele>
        <time>2017-12-15T19:41:08Z</time>
      </trkpt>
      <trkpt lat="45.08648" lon="6.05889">
        <ele>1594</ele>
        <time>2017-12-15T19:41:27Z</time>
      </trkpt>
      <trkpt lat="45.08661" lon="6.05876">
        <ele>1593</ele>
        <time>2017-12-15T19:41:47Z</time>
      </trkpt>
      <trkpt lat="45.08669" lon="6.05883">
        <ele>1607</ele>
        <time>2017-12-15T19:41:58Z</time>
      </trkpt>
      <trkpt lat="45.08673" lon="6.05891">
        <ele>1608</ele>
        <time>2017-12-15T19:42:09Z</time>
      </trkpt>
      <trkpt lat="45.08674" lon="6.05902">
        <ele>1608</ele>
        <time>2017-12-15T19:42:29Z</time>
      </trkpt>
      <trkpt lat="45.08673" lon="6.05914">
        <ele>1608</ele>
        <time>2017-12-15T19:42:31Z</time>
      </trkpt>
      <trkpt lat="45.08668" lon="6.05923">
        <ele>1611</ele>
        <time>2017-12-15T19:42:43Z</time>
      </trkpt>
      <trkpt lat="45.08645" lon="6.05942">
        <ele>1605</ele>
        <time>2017-12-15T19:42:49Z</time>
      </trkpt>
      <trkpt lat="45.08624" lon="6.05965">
        <ele>1605</ele>
        <time>2017-12-15T19:43:07Z</time>
      </trkpt>
      <trkpt lat="45.08607" lon="6.05999">
        <ele>1604</ele>
        <time>2017-12-15T19:43:20Z</time>
      </trkpt>
      <trkpt lat="45.086" lon="6.06014">
        <ele>1612</ele>
        <time>2017-12-15T19:43:24Z</time>
      </trkpt>
      <trkpt lat="45.08568" lon="6.06081">
        <ele>1608</ele>
        <time>2017-12-15T19:43:27Z</time>
      </trkpt>
      <trkpt lat="45.08524" lon="6.0615">
        <ele>1617</ele>
        <time>2017-12-15T19:43:45Z</time>
      </trkpt>
      <trkpt lat="45.08512" lon="6.0617">
        <ele>1623</ele>
        <time>2017-12-15T19:43:47Z</time>
      </trkpt>
      <trkpt lat="45.08505" lon="6.06196">
        <ele>1630</ele>
        <time>2017-12-15T19:44:01Z</time>
      </trkpt>
      <trkpt lat="45.08493" lon="6.06269">
        <ele>1622</ele>
        <time>2017-12-15T19:44:17Z</time>
      </trkpt>
      <trkpt lat="45.08484" lon="6.0631">
        <ele>1623</ele>
        <time>2017-12-15T19:44:37Z</time>
      </trkpt>
      <trkpt lat="45.08481" lon="6.06356">
        <ele>1628</ele>
        <time>2017-12-15T19:44:46Z</time>
      </trkpt>
      <trkpt lat="45.08477" lon="6.064">
        <ele>1631</ele>
        <time>2017-12-15T19:45:01Z</time>
      </trkpt>
      <trkpt lat="45.08465" lon="6.06465">
        <ele>1637</ele>
        <time>2017-12-15T19:45:14Z</time>
      </trkpt>
      <trkpt lat="45.08459" lon="6.06499">
        <ele>1638</ele>
        <time>2017-12-15T19:45:30Z</time>
      </trkpt>
      <trkpt lat="45.08448" lon="6.06525">
        <ele>1646</ele>
        <time>2017-12-15T19:45:42Z</time>
      </trkpt>
      <trkpt lat="45.08432" lon="6.06555">
        <ele>1646</ele>
        <time>2017-12-15T19:45:54Z</time>
      </trkpt>
      <trkpt lat="45.08429" lon="6.06565">
        <ele>1645</ele>
        <time>2017-12-15T19:46:02Z</time>
      </trkpt>
      <trkpt lat="45.08431" lon="6.06581">
        <ele>1645</ele>
        <time>2017-12-15T19:46:10Z</time>
      </trkpt>
      <trkpt lat="45.08435" lon="6.06588">
        <ele>1656</ele>
        <time>2017-12-15T19:46:13Z</time>
      </trkpt>
      <trkpt lat="45.08439" lon="6.06588">
        <ele>1659</ele>
        <time>2017-12-15T19:46:21Z</time>
      </trkpt>
      <trkpt lat="45.08451" lon="6.06586">
        <ele>1665</ele>
        <time>2017-12-15T19:46:39Z</time>
      </trkpt>
      <trkpt lat="45.08453" lon="6.06582">
        <ele>1653</ele>
        <time>2017-12-15T19:46:50Z</time>
      </trkpt>
      <trkpt lat="45.08467" lon="6.06523">
        <ele>1653</ele>
        <time>2017-12-15T19:47:06Z</time>
      </trkpt>
      <trkpt lat="45.08486" lon="6.06475">
        <ele>1645</ele>
        <time>2017-12-15T19:47:22Z</time>
      </trkpt>
      <trkpt lat="45.0851" lon="6.06423">
        <ele>1665</ele>
        <time>2017-12-15T19:47:38Z</time>
      </trkpt>
      <trkpt lat="45.08524" lon="6.06385">
        <ele>1666</ele>
        <time>2017-12-15T19:47:42Z</time>
      </trkpt>
      <trkpt lat="45.08541" lon="6.06332">
        <ele>1659</ele>
        <time>2017-12-15T19:48:02Z</time>
      </trkpt>
      <trkpt lat="45.08564" lon="6.06296">
        <ele>1662</ele>
        <time>2017-12-15T19:48:21Z</time>
      </trkpt>
      <trkpt lat="45.08581" lon="6.06274">
        <ele>1662</ele>
        <time>2017-12-15T19:48:30Z</time>
      </trkpt>
      <trkpt lat="45.08607" lon="6.0625">
        <ele>1674</ele>
        <time>2017-12-15T19:48:48Z</time>
      </trkpt>
      <trkpt lat="45.08689" lon="6.06209">
        <ele>1683</ele>
        <time>2017-12-15T19:49:03Z</time>
      </trkpt>
      <trkpt lat="45.08739" lon="6.06184">
        <ele>1682</ele>
        <time>2017-12-15T19:49:17Z</time>
      </trkpt>
      <trkpt lat="45.08747" lon="6.06185">
        <ele>1682</ele>
        <time>2017-12-15T19:49:26Z</time>
      </trkpt>
      <trkpt lat="45.08752" lon="6.0619">
        <ele>1689</ele>
        <time>2017-12-15T19:49:28Z</time>
      </trkpt>
      <trkpt lat="45.08755" lon="6.06195">
        <ele>1691</ele>
        <time>2017-12-15T19:49:46Z</time>
      </trkpt>
      <trkpt lat="45.08756" lon="6.06208">
        <ele>1694</ele>
        <time>2017-12-15T19:50:05Z</time>
      </trkpt>
      <trkpt lat="45.08751" lon="6.0622">
        <ele>1697</ele>
        <time>2017-12-15T19:50:19Z</time>
      </trkpt>
      <trkpt lat="45.08741" lon="6.06227">
        <ele>1692</ele>
        <time>2017-12-15T19:50:30Z</time>
      </trkpt>
      <trkpt lat="45.08713" lon="6.0623">
        <ele>1688</ele>
        <time>2017-12-15T19:50:38Z</time>
      </trkpt>
      <trkpt lat="45.08699" lon="6.06235">
        <ele>1688</ele>
        <time>2017-12-15T19:50:47Z</time>
      </trkpt>
      <trkpt lat="45.08674" lon="6.06254">
        <ele>1697</ele>
        <time>2017-12-15T19:51:01Z</time>
      </trkpt>
      <trkpt lat="45.08637" lon="6.06299">
        <ele>1693</ele>
        <time>2017-12-15T19:51:18Z</time>
      </trkpt>
      <trkpt lat="45.08621" lon="6.0633">
        <ele>1693</ele>
        <time>2017-12-15T19:51:29Z</time>
      </trkpt>
      <trkpt lat="45.08599" lon="6.06383">
        <ele>1706</ele>
        <time>2017-12-15T19:51:32Z</time>
      </trkpt>
      <trkpt lat="45.08592" lon="6.06408">
        <ele>1704</ele>
        <time>2017-12-15T19:51:49Z</time>
      </trkpt>
      <trkpt lat="45.0859" lon="6.06436">
        <ele>1714</ele>
        <time>2017-12-15T19:52:01Z</time>
      </trkpt>
      <trkpt lat="45.08591" lon="6.06467">
        <ele>1721</ele>
        <time>2017-12-15T19:52:14Z</time>
      </trkpt>
      <trkpt lat="45.08588" lon="6.06483">
        <ele>1719</ele>
        <time>2017-12-15T19:52:21Z</time>
      </trkpt>
      <trkpt lat="45.08572" lon="6.0654">
        <ele>1706</ele>
        <time>2017-12-15T19:52:41Z</time>
      </trkpt>
      <trkpt lat="45.08559" lon="6.06589">
        <ele>1719</ele>
        <time>2017-12-15T19:52:55Z</time>
      </trkpt>
      <trkpt lat="45.08554" lon="6.06622">
        <ele>1719</ele>
        <time>2017-12-15T19:53:02Z</time>
      </trkpt>
      <trkpt lat="45.08545" lon="6.06656">
        <ele>1720</ele>
        <time>2017-12-15T19:53:07Z</time>
      </trkpt>
      <trkpt lat="45.08535" lon="6.06677">
        <ele>1731</ele>
        <time>2017-12-15T19:53:20Z</time>
      </trkpt>
      <trkpt lat="45.08524" lon="6.06691">
        <ele>1730</ele>
        <time>2017-12-15T19:53:31Z</time>
      </trkpt>
      <trkpt lat="45.08501" lon="6.06708">
        <ele>1730</ele>
        <time>2017-12-15T19:53:51Z</time>
      </trkpt>
      <trkpt lat="45.08485" lon="6.06721">
        <ele>1703</ele>
        <time>2017-12-15T19:54:00Z</time>
      </trkpt>
      <trkpt lat="45.08471" lon="6.06744">
        <ele>1703</ele>
        <time>2017-12-15T19:54:02Z</time>
      </trkpt>
      <trkpt lat="45.08467" lon="6.06759">
        <ele>1713</ele>
        <time>2017-12-15T19:54:16Z</time>
      </trkpt>
      <trkpt lat="45.08462" lon="6.06792">
        <ele>1713</ele>
        <time>2017-12-15T19:54:18Z</time>
      </trkpt>
      <trkpt lat="45.08464" lon="6.0681">
        <ele>1716</ele>
        <time>2017-12-15T19:54:37Z</time>
      </trkpt>
      <trkpt lat="45.08478" lon="6.06838">
        <ele>1722</ele>
        <time>2017-12-15T19:54:40Z</time>
      </trkpt>
      <trkpt lat="45.08487" lon="6.06854">
        <ele>1722</ele>
        <time>2017-12-15T19:54:53Z</time>
      </trkpt>
      <trkpt lat="45.08512" lon="6.0688">
        <ele>1750</ele>
        <time>2017-12-15T19:55:06Z</time>
      </trkpt>
      <trkpt lat="45.08536" lon="6.06907">
        <ele>1754</ele>
        <time>2017-12-15T19:55:15Z</time>
      </trkpt>
      <trkpt lat="45.08563" lon="6.06944">
        <ele>1751</ele>
        <time>2017-12-15T19:55:25Z</time>
      </trkpt>
      <trkpt lat="45.08581" lon="6.06982">
        <ele>1750</ele>
        <time>2017-12-15T19:55:45Z</time>
      </trkpt>
      <trkpt lat="45.08592" lon="6.07023">
        <ele>1770</ele>
        <time>2017-12-15T19:55:52Z</time>
      </trkpt>
      <trkpt lat="45.08594" lon="6.07038">
        <ele>1771</ele>
        <time>2017-12-15T19:55:56Z</time>
      </trkpt>
      <trkpt lat="45.08597" lon="6.07085">
        <ele>1754</ele>
        <time>2017-12-15T19:56:00Z</time>
      </trkpt>
      <trkpt lat="45.08591" lon="6.07116">
        <ele>1759</ele>
        <time>2017-12-15T19:56:07Z</time>
      </trkpt>
      <trkpt lat="45.08582" lon="6.07141">
        <ele>1720</ele>
        <time>2017-12-15T19:56:24Z</time>
      </trkpt>
      <trkpt lat="45.08582" lon="6.07151">
        <ele>1723</ele>
        <time>2017-12-15T19:56:43Z</time>
      </trkpt>
      <trkpt lat="45.08586" lon="6.07163">
        <ele>1742</ele>
        <time>2017-12-15T19:56:59Z</time>
      </trkpt>
      <trkpt lat="45.08598" lon="6.07169">
        <ele>1745</ele>
        <time>2017-12-15T19:57:12Z</time>
      </trkpt>
      <trkpt lat="45.08619" lon="6.07177">
        <ele>1754</ele>
        <time>2017-12-15T19:57:28Z</time>
      </trkpt>
      <trkpt lat="45.08636" lon="6.0719">
        <ele>1760</ele>
        <time>2017-12-15T19:57:30Z</time>
      </trkpt>
      <trkpt lat="45.08652" lon="6.07213">
        <ele>1759</ele>
        <time>2017-12-15T19:57:49Z</time>
      </trkpt>
      <trkpt lat="45.08675" lon="6.07259">
        <ele>1762</ele>
        <time>2017-12-15T19:57:57Z</time>
      </trkpt>
      <trkpt lat="45.0868" lon="6.07266">
        <ele>1763</ele>
        <time>2017-12-15T19:58:01Z</time>
      </trkpt>
      <trkpt lat="45.08696" lon="6.07278">
        <ele>1764</ele>
        <time>2017-12-15T19:58:04Z</time>
      </trkpt>
      <trkpt lat="45.08729" lon="6.07299">
        <ele>1767</ele>
        <time>2017-12-15T19:58:10Z</time>
      </trkpt>
      <trkpt lat="45.08772" lon="6.07333">
        <ele>1779</ele>
        <time>2017-12-15T19:58:24Z</time>
      </trkpt>
      <trkpt lat="45.08789" lon="6.07345">
        <ele>1772</ele>
        <time>2017-12-15T19:58:31Z</time>
      </trkpt>
      <trkpt lat="45.08799" lon="6.07356">
        <ele>1773</ele>
        <time>2017-12-15T19:58:37Z</time>
      </trkpt>
      <trkpt lat="45.0882" lon="6.0738">
        <ele>1774</ele>
        <time>2017-12-15T19:58:45Z</time>
      </trkpt>
      <trkpt lat="45.08837" lon="6.07405">
        <ele>1784</ele>
        <time>2017-12-15T19:58:50Z</time>
      </trkpt>
      <trkpt lat="45.08876" lon="6.07487">
        <ele>1788</ele>
        <time>2017-12-15T19:58:57Z</time>
      </trkpt>
      <trkpt lat="45.08882" lon="6.07494">
        <ele>1789</ele>
        <time>2017-12-15T19:59:14Z</time>
      </trkpt>
      <trkpt lat="45.08892" lon="6.07496">
        <ele>1791</ele>
        <time>2017-12-15T19:59:28Z</time>
      </trkpt>
      <trkpt lat="45.0891" lon="6.07492">
        <ele>1793</ele>
        <time>2017-12-15T19:59:30Z</time>
      </trkpt>
      <trkpt lat="45.08921" lon="6.07486">
        <ele>1798</ele>
        <time>2017-12-15T19:59:38Z</time>
      </trkpt>
      <trkpt lat="45.0895" lon="6.07434">
        <ele>1801</ele>
        <time>2017-12-15T19:59:55Z</time>
      </trkpt>
      <trkpt lat="45.08942" lon="6.0743">
        <ele>1801</ele>
        <time>2017-12-15T19:59:59Z</time>
      </trkpt>
      <trkpt lat="45.08938" lon="6.07425">
        <ele>1800</ele>
        <time>2017-12-15T20:00:12Z</time>
      </trkpt>
      <trkpt lat="45.08933" lon="6.07416">
        <ele>1801</ele>
        <time>2017-12-15T20:00:29Z</time>
      </trkpt>
      <trkpt lat="45.08938" lon="6.07425">
        <ele>1800</ele>
        <time>2017-12-15T20:00:49Z</time>
      </trkpt>
      <trkpt lat="45.08942" lon="6.0743">
        <ele>1801</ele>
        <time>2017-12-15T20:01:08Z</time>
      </trkpt>
      <trkpt lat="45.0895" lon="6.07434">
        <ele>1801</ele>
        <time>2017-12-15T20:01:24Z</time>
      </trkpt>
      <trkpt lat="45.08921" lon="6.07486">
        <ele>1798</ele>
        <time>2017-12-15T20:01:44Z</time>
      </trkpt>
      <trkpt lat="45.0891" lon="6.07492">
        <ele>1793</ele>
        <time>2017-12-15T20:01:56Z</time>
      </trkpt>
      <trkpt lat="45.08892" lon="6.07496">
        <ele>1791</ele>
        <time>2017-12-15T20:02:11Z</time>
      </trkpt>
      <trkpt lat="45.08882" lon="6.07494">
        <ele>1789</ele>
        <time>2017-12-15T20:02:27Z</time>
      </trkpt>
      <trkpt lat="45.08876" lon="6.07487">
        <ele>1788</ele>
        <time>2017-12-15T20:02:39Z</time>
      </trkpt>
      <trkpt lat="45.08869" lon="6.07473">
        <ele>1788</ele>
        <time>2017-12-15T20:02:47Z</time>
      </trkpt>
      <trkpt lat="45.08854" lon="6.07515">
        <ele>1787</ele>
        <time>2017-12-15T20:03:01Z</time>
      </trkpt>
      <trkpt lat="45.08824" lon="6.07589">
        <ele>1790</ele>
        <time>2017-12-15T20:03:18Z</time>
      </trkpt>
      <trkpt lat="45.08823" lon="6.07602">
        <ele>1790</ele>
        <time>2017-12-15T20:03:27Z</time>
      </trkpt>
      <trkpt lat="45.08825" lon="6.07619">
        <ele>1790</ele>
        <time>2017-12-15T20:03:35Z</time>
      </trkpt>
      <trkpt lat="45.0883" lon="6.07651">
        <ele>1793</ele>
        <time>2017-12-15T20:03:41Z</time>
      </trkpt>
      <trkpt lat="45.08836" lon="6.07678">
        <ele>1799</ele>
        <time>2017-12-15T20:03:44Z</time>
      </trkpt>
      <trkpt lat="45.08843" lon="6.07714">
        <ele>1802</ele>
        <time>2017-12-15T20:03:52Z</time>
      </trkpt>
      <trkpt lat="45.08853" lon="6.07737">
        <ele>1803</ele>
        <time>2017-12-15T20:04:11Z</time>
      </trkpt>
      <trkpt lat="45.08853" lon="6.07757">
        <ele>1805</ele>
        <time>2017-12-15T20:04:31Z</time>
      </trkpt>
      <trkpt lat="45.08858" lon="6.07772">
        <ele>1806</ele>
        <time>2017-12-15T20:04:47Z</time>
      </trkpt>
      <trkpt lat="45.08869" lon="6.07789">
        <ele>1807</ele>
        <time>2017-12-15T20:04:57Z</time>
      </trkpt>
      <trkpt lat="45.08883" lon="6.07787">
        <ele>1807</ele>
        <time>2017-12-15T20:04:59Z</time>
      </trkpt>
      <trkpt lat="45.0891" lon="6.07768">
        <ele>1808</ele>
        <time>2017-12-15T20:05:12Z</time>
      </trkpt>
      <trkpt lat="45.08918" lon="6.07767">
        <ele>1810</ele>
        <time>2017-12-15T20:05:18Z</time>
      </trkpt>
      <trkpt lat="45.08926" lon="6.07769">
        <ele>1811</ele>
        <time>2017-12-15T20:05:28Z</time>
      </trkpt>
      <trkpt lat="45.08933" lon="6.07774">
        <ele>1811</ele>
        <time>2017-12-15T20:05:43Z</time>
      </trkpt>
      <trkpt lat="45.08937" lon="6.07788">
        <ele>1812</ele>
        <time>2017-12-15T20:06:02Z</time>
      </trkpt>
      <trkpt lat="45.08938" lon="6.078">
        <ele>1812</ele>
        <time>2017-12-15T20:06:06Z</time>
      </trkpt>
      <trkpt lat="45.08936" lon="6.07813">
        <ele>1812</ele>
        <time>2017-12-15T20:06:09Z</time>
      </trkpt>
      <trkpt lat="45.08931" lon="6.07826">
        <ele>1812</ele>
        <time>2017-12-15T20:06:28Z</time>
      </trkpt>
      <trkpt lat="45.08915" lon="6.07848">
        <ele>1813</ele>
        <time>2017-12-15T20:06:36Z</time>
      </trkpt>
      <trkpt lat="45.08903" lon="6.07864">
        <ele>1814</ele>
        <time>2017-12-15T20:06:39Z</time>
      </trkpt>
      <trkpt lat="45.08891" lon="6.07887">
        <ele>1815</ele>
        <time>2017-12-15T20:06:51Z</time>
      </trkpt>
      <trkpt lat="45.08883" lon="6.07921">
        <ele>1819</ele>
        <time>2017-12-15T20:07:04Z</time>
      </trkpt>
      <trkpt lat="45.08879" lon="6.07951">
        <ele>1820</ele>
        <time>2017-12-15T20:07:21Z</time>
      </trkpt>
      <trkpt lat="45.08878" lon="6.07967">
        <ele>1820</ele>
        <time>2017-12-15T20:07:27Z</time>
      </trkpt>
      <trkpt lat="45.08879" lon="6.07979">
        <ele>1820</ele>
        <time>2017-12-15T20:07:47Z</time>
      </trkpt>
      <trkpt lat="45.08884" lon="6.07991">
        <ele>1821</ele>
        <time>2017-12-15T20:07:54Z</time>
      </trkpt>
      <trkpt lat="45.0889" lon="6.07997">
        <ele>1821</ele>
        <time>2017-12-15T20:08:11Z</time>
      </trkpt>
      <trkpt lat="45.08897" lon="6.08002">
        <ele>1826</ele>
        <time>2017-12-15T20:08:30Z</time>
      </trkpt>
      <trkpt lat="45.08908" lon="6.08001">
        <ele>1826</ele>
        <time>2017-12-15T20:08:32Z</time>
      </trkpt>
      <trkpt lat="45.08925" lon="6.07994">
        <ele>1827</ele>
        <time>2017-12-15T20:08:41Z</time>
      </trkpt>
      <trkpt lat="45.08952" lon="6.0797">
        <ele>1828</ele>
        <time>2017-12-15T20:08:46Z</time>
      </trkpt>
      <trkpt lat="45.0897" lon="6.07946">
        <ele>1828</ele>
        <time>2017-12-15T20:08:52Z</time>
      </trkpt>
      <trkpt lat="45.08986" lon="6.07928">
        <ele>1827</ele>
        <time>2017-12-15T20:09:10Z</time>
      </trkpt>
      <trkpt lat="45.09012" lon="6.0791">
        <ele>1826</ele>
        <time>2017-12-15T20:09:19Z</time>
      </trkpt>
      <trkpt lat="45.09028" lon="6.07901">
        <ele>1826</ele>
        <time>2017-12-15T20:09:25Z</time>
      </trkpt>
      <trkpt lat="45.09041" lon="6.07898">
        <ele>1827</ele>
        <time>2017-12-15T20:09:27Z</time>
      </trkpt>
      <trkpt lat="45.0905" lon="6.07903">
        <ele>1828</ele>
        <time>2017-12-15T20:09:43Z</time>
      </trkpt>
      <trkpt lat="45.09057" lon="6.07918">
        <ele>1834</ele>
        <time>2017-12-15T20:09:50Z</time>
      </trkpt>
      <trkpt lat="45.09057" lon="6.07936">
        <ele>1835</ele>
        <time>2017-12-15T20:10:05Z</time>
      </trkpt>
      <trkpt lat="45.09054" lon="6.07945">
        <ele>1835</ele>
        <time>2017-12-15T20:10:15Z</time>
      </trkpt>
      <trkpt lat="45.09036" lon="6.07965">
        <ele>1836</ele>
        <time>2017-12-15T20:10:32Z</time>
      </trkpt>
      <trkpt lat="45.09026" lon="6.0798">
        <ele>1836</ele>
        <time>2017-12-15T20:10:46Z</time>
      </trkpt>
      <trkpt lat="45.0902" lon="6.07992">
        <ele>1837</ele>
        <time>2017-12-15T20:11:05Z</time>
      </trkpt>
      <trkpt lat="45.09012" lon="6.08017">
        <ele>1842</ele>
        <time>2017-12-15T20:11:12Z</time>
      </trkpt>
      <trkpt lat="45.09009" lon="6.0805">
        <ele>1844</ele>
        <time>2017-12-15T20:11:30Z</time>
      </trkpt>
      <trkpt lat="45.09005" lon="6.08084">
        <ele>1846</ele>
        <time>2017-12-15T20:11:44Z</time>
      </trkpt>
      <trkpt lat="45.08992" lon="6.08108">
        <ele>1846</ele>
        <time>2017-12-15T20:12:00Z</time>
      </trkpt>
      <trkpt lat="45.08983" lon="6.08118">
        <ele>1846</ele>
        <time>2017-12-15T20:12:08Z</time>
      </trkpt>
      <trkpt lat="45.08964" lon="6.08134">
        <ele>1846</ele>
        <time>2017-12-15T20:12:25Z</time>
      </trkpt>
      <trkpt lat="45.08953" lon="6.08147">
        <ele>1846</ele>
        <time>2017-12-15T20:12:32Z</time>
      </trkpt>
      <trkpt lat="45.08947" lon="6.08164">
        <ele>1846</ele>
        <time>2017-12-15T20:12:37Z</time>
      </trkpt>
      <trkpt lat="45.08945" lon="6.08187">
        <ele>1849</ele>
        <time>2017-12-15T20:12:51Z</time>
      </trkpt>
      <trkpt lat="45.08948" lon="6.08217">
        <ele>1850</ele>
        <time>2017-12-15T20:12:58Z</time>
      </trkpt>
      <trkpt lat="45.08969" lon="6.08297">
        <ele>1855</ele>
        <time>2017-12-15T20:13:11Z</time>
      </trkpt>
      <trkpt lat="45.0898" lon="6.08339">
        <ele>1859</ele>
        <time>2017-12-15T20:13:16Z</time>
      </trkpt>
      <trkpt lat="45.08986" lon="6.08379">
        <ele>1859</ele>
        <time>2017-12-15T20:13:29Z</time>
      </trkpt>
      <trkpt lat="45.08992" lon="6.0844">
        <ele>1862</ele>
        <time>2017-12-15T20:13:33Z</time>
      </trkpt>
      <trkpt lat="45.08991" lon="6.08459">
        <ele>1862</ele>
        <time>2017-12-15T20:13:40Z</time>
      </trkpt>
      <trkpt lat="45.08989" lon="6.08471">
        <ele>1863</ele>
        <time>2017-12-15T20:13:58Z</time>
      </trkpt>
      <trkpt lat="45.08982" lon="6.08495">
        <ele>1864</ele>
        <time>2017-12-15T20:14:15Z</time>
      </trkpt>
      <trkpt lat="45.08953" lon="6.08541">
        <ele>1866</ele>
        <time>2017-12-15T20:14:25Z</time>
      </trkpt>
      <trkpt lat="45.08937" lon="6.08575">
        <ele>1866</ele>
        <time>2017-12-15T20:14:40Z</time>
      </trkpt>
      <trkpt lat="45.08932" lon="6.08588">
        <ele>1869</ele>
        <time>2017-12-15T20:14:56Z</time>
      </trkpt>
      <trkpt lat="45.08923" lon="6.08618">
        <ele>1872</ele>
        <time>2017-12-15T20:15:14Z</time>
      </trkpt>
      <trkpt lat="45.08916" lon="6.08695">
        <ele>1870</ele>
        <time>2017-12-15T20:15:29Z</time>
      </trkpt>
      <trkpt lat="45.08914" lon="6.08723">
        <ele>1871</ele>
        <time>2017-12-15T20:15:42Z</time>
      </trkpt>
      <trkpt lat="45.08907" lon="6.0876">
        <ele>1874</ele>
        <time>2017-12-15T20:16:00Z</time>
      </trkpt>
      <trkpt lat="45.08899" lon="6.08786">
        <ele>1873</ele>
        <time>2017-12-15T20:16:07Z</time>
      </trkpt>
      <trkpt lat="45.08875" lon="6.08828">
        <ele>1873</ele>
        <time>2017-12-15T20:16:20Z</time>
      </trkpt>
      <trkpt lat="45.08825" lon="6.08922">
        <ele>1868</ele>
        <time>2017-12-15T20:16:36Z</time>
      </trkpt>
      <trkpt lat="45.08787" lon="6.08988">
        <ele>1866</ele>
        <time>2017-12-15T20:16:46Z</time>
      </trkpt>
      <trkpt lat="45.08764" lon="6.09032">
        <ele>1865</ele>
        <time>2017-12-15T20:17:05Z</time>
      </trkpt>
      <trkpt lat="45.08744" lon="6.09093">
        <ele>1857</ele>
        <time>2017-12-15T20:17:18Z</time>
      </trkpt>
      <trkpt lat="45.08731" lon="6.09156">
        <ele>1855</ele>
        <time>2017-12-15T20:17:33Z</time>
      </trkpt>
      <trkpt lat="45.08729" lon="6.09183">
        <ele>1854</ele>
        <time>2017-12-15T20:17:41Z</time>
      </trkpt>
      <trkpt lat="45.08731" lon="6.0921">
        <ele>1854</ele>
        <time>2017-12-15T20:17:50Z</time>
      </trkpt>
      <trkpt lat="45.0873" lon="6.09223">
        <ele>1854</ele>
        <time>2017-12-15T20:17:57Z</time>
      </trkpt>
      <trkpt lat="45.08727" lon="6.09232">
        <ele>1854</ele>
        <time>2017-12-15T20:18:07Z</time>
      </trkpt>
      <trkpt lat="45.0872" lon="6.09237">
        <ele>1853</ele>
        <time>2017-12-15T20:18:20Z</time>
      </trkpt>
      <trkpt lat="45.08711" lon="6.09236">
        <ele>1852</ele>
        <time>2017-12-15T20:18:33Z</time>
      </trkpt>
      <trkpt lat="45.08705" lon="6.09232">
        <ele>1852</ele>
        <time>2017-12-15T20:18:36Z</time>
      </trkpt>
      <trkpt lat="45.08699" lon="6.09221">
        <ele>1851</ele>
        <time>2017-12-15T20:18:54Z</time>
      </trkpt>
      <trkpt lat="45.08697" lon="6.09178">
        <ele>1850</ele>
        <time>2017-12-15T20:18:57Z</time>
      </trkpt>
      <trkpt lat="45.0869" lon="6.09146">
        <ele>1850</ele>
        <time>2017-12-15T20:19:00Z</time>
      </trkpt>
      <trkpt lat="45.08669" lon="6.09091">
        <ele>1848</ele>
        <time>2017-12-15T20:19:13Z</time>
      </trkpt>
      <trkpt lat="45.0865" lon="6.09059">
        <ele>1843</ele>
        <time>2017-12-15T20:19:20Z</time>
      </trkpt>
      <trkpt lat="45.08643" lon="6.09041">
        <ele>1843</ele>
        <time>2017-12-15T20:19:22Z</time>
      </trkpt>
      <trkpt lat="45.08634" lon="6.09001">
        <ele>1843</ele>
        <time>2017-12-15T20:19:30Z</time>
      </trkpt>
      <trkpt lat="45.0863" lon="6.08989">
        <ele>1842</ele>
        <time>2017-12-15T20:19:49Z</time>
      </trkpt>
      <trkpt lat="45.08625" lon="6.0898">
        <ele>1842</ele>
        <time>2017-12-15T20:19:58Z</time>
      </trkpt>
      <trkpt lat="45.08617" lon="6.08976">
        <ele>1841</ele>
        <time>2017-12-15T20:20:18Z</time>
      </trkpt>
      <trkpt lat="45.08609" lon="6.08979">
        <ele>1840</ele>
        <time>2017-12-15T20:20:38Z</time>
      </trkpt>
      <trkpt lat="45.08604" lon="6.08986">
        <ele>1840</ele>
        <time>2017-12-15T20:20:53Z</time>
      </trkpt>
      <trkpt lat="45.08602" lon="6.09">
        <ele>1839</ele>
        <time>2017-12-15T20:20:55Z</time>
      </trkpt>
      <trkpt lat="45.08612" lon="6.09062">
        <ele>1840</ele>
        <time>2017-12-15T20:21:01Z</time>
      </trkpt>
      <trkpt lat="45.08612" lon="6.09085">
        <ele>1839</ele>
        <time>2017-12-15T20:21:16Z</time>
      </trkpt>
      <trkpt lat="45.08603" lon="6.09148">
        <ele>1838</ele>
        <time>2017-12-15T20:21:28Z</time>
      </trkpt>
      <trkpt lat="45.08589" lon="6.09244">
        <ele>1836</ele>
        <time>2017-12-15T20:21:46Z</time>
      </trkpt>
      <trkpt lat="45.08569" lon="6.09313">
        <ele>1834</ele>
        <time>2017-12-15T20:21:56Z</time>
      </trkpt>
      <trkpt lat="45.08558" lon="6.09362">
        <ele>1835</ele>
        <time>2017-12-15T20:22:06Z</time>
      </trkpt>
      <trkpt lat="45.08543" lon="6.09453">
        <ele>1835</ele>
        <time>2017-12-15T20:22:16Z</time>
      </trkpt>
      <trkpt lat="45.08536" lon="6.09517">
        <ele>1833</ele>
        <time>2017-12-15T20:22:21Z</time>
      </trkpt>
      <trkpt lat="45.08533" lon="6.09601">
        <ele>1836</ele>
        <time>2017-12-15T20:22:25Z</time>
      </trkpt>
      <trkpt lat="45.08529" lon="6.09621">
        <ele>1836</ele>
        <time>2017-12-15T20:22:42Z</time>
      </trkpt>
      <trkpt lat="45.08517" lon="6.09657">
        <ele>1833</ele>
        <time>2017-12-15T20:22:46Z</time>
      </trkpt>
      <trkpt lat="45.08494" lon="6.09727">
        <ele>1822</ele>
        <time>2017-12-15T20:23:06Z</time>
      </trkpt>
      <trkpt lat="45.08474" lon="6.09808">
        <ele>1832</ele>
        <time>2017-12-15T20:23:17Z</time>
      </trkpt>
      <trkpt lat="45.08468" lon="6.09861">
        <ele>1841</ele>
        <time>2017-12-15T20:23:27Z</time>
      </trkpt>
      <trkpt lat="45.08466" lon="6.09919">
        <ele>1847</ele>
        <time>2017-12-15T20:23:37Z</time>
      </trkpt>
      <trkpt lat="45.08472" lon="6.09958">
        <ele>1848</ele>
        <time>2017-12-15T20:23:52Z</time>
      </trkpt>
      <trkpt lat="45.08476" lon="6.09991">
        <ele>1851</ele>
        <time>2017-12-15T20:24:04Z</time>
      </trkpt>
      <trkpt lat="45.08475" lon="6.10036">
        <ele>1852</ele>
        <time>2017-12-15T20:24:16Z</time>
      </trkpt>
      <trkpt lat="45.08474" lon="6.1007">
        <ele>1852</ele>
        <time>2017-12-15T20:24:35Z</time>
      </trkpt>
      <trkpt lat="45.08476" lon="6.10153">
        <ele>1849</ele>
        <time>2017-12-15T20:24:40Z</time>
      </trkpt>
      <trkpt lat="45.08479" lon="6.10273">
        <ele>1838</ele>
        <time>2017-12-15T20:24:55Z</time>
      </trkpt>
      <trkpt lat="45.08482" lon="6.10323">
        <ele>1841</ele>
        <time>2017-12-15T20:25:03Z</time>
      </trkpt>
      <trkpt lat="45.08482" lon="6.10378">
        <ele>1836</ele>
        <time>2017-12-15T20:25:18Z</time>
      </trkpt>
      <trkpt lat="45.08475" lon="6.10442">
        <ele>1829</ele>
        <time>2017-12-15T20:25:27Z</time>
      </trkpt>
      <trkpt lat="45.08478" lon="6.10458">
        <ele>1827</ele>
        <time>2017-12-15T20:25:38Z</time>
      </trkpt>
      <trkpt lat="45.08495" lon="6.10499">
        <ele>1833</ele>
        <time>2017-12-15T20:25:53Z</time>
      </trkpt>
      <trkpt lat="45.08509" lon="6.10533">
        <ele>1851</ele>
        <time>2017-12-15T20:26:03Z</time>
      </trkpt>
      <trkpt lat="45.08517" lon="6.10547">
        <ele>1853</ele>
        <time>2017-12-15T20:26:22Z</time>
      </trkpt>
      <trkpt lat="45.08522" lon="6.10561">
        <ele>1852</ele>
        <time>2017-12-15T20:26:30Z</time>
      </trkpt>
      <trkpt lat="45.08523" lon="6.10576">
        <ele>1850</ele>
        <time>2017-12-15T20:26:48Z</time>
      </trkpt>
      <trkpt lat="45.08519" lon="6.10587">
        <ele>1852</ele>
        <time>2017-12-15T20:26:54Z</time>
      </trkpt>
      <trkpt lat="45.08511" lon="6.10594">
        <ele>1849</ele>
        <time>2017-12-15T20:27:14Z</time>
      </trkpt>
      <trkpt lat="45.08458" lon="6.10608">
        <ele>1827</ele>
        <time>2017-12-15T20:27:29Z</time>
      </trkpt>
      <trkpt lat="45.08439" lon="6.1062">
        <ele>1824</ele>
        <time>2017-12-15T20:27:35Z</time>
      </trkpt>
      <trkpt lat="45.08422" lon="6.10641">
        <ele>1825</ele>
        <time>2017-12-15T20:27:54Z</time>
      </trkpt>
      <trkpt lat="45.08416" lon="6.10657">
        <ele>1812</ele>
        <time>2017-12-15T20:28:10Z</time>
      </trkpt>
      <trkpt lat="45.08412" lon="6.10675">
        <ele>1819</ele>
        <time>2017-12-15T20:28:13Z</time>
      </trkpt>
      <trkpt lat="45.08404" lon="6.1069">
        <ele>1818</ele>
        <time>2017-12-15T20:28:22Z</time>
      </trkpt>
      <trkpt lat="45.08384" lon="6.10719">
        <ele>1819</ele>
        <time>2017-12-15T20:28:37Z</time>
      </trkpt>
      <trkpt lat="45.08377" lon="6.10725">
        <ele>1818</ele>
        <time>2017-12-15T20:28:45Z</time>
      </trkpt>
      <trkpt lat="45.08362" lon="6.10732">
        <ele>1815</ele>
        <time>2017-12-15T20:28:57Z</time>
      </trkpt>
      <trkpt lat="45.08338" lon="6.10745">
        <ele>1812</ele>
        <time>2017-12-15T20:29:03Z</time>
      </trkpt>
      <trkpt lat="45.08319" lon="6.10759">
        <ele>1808</ele>
        <time>2017-12-15T20:29:16Z</time>
      </trkpt>
      <trkpt lat="45.08294" lon="6.10779">
        <ele>1805</ele>
        <time>2017-12-15T20:29:25Z</time>
      </trkpt>
      <trkpt lat="45.08275" lon="6.10801">
        <ele>1804</ele>
        <time>2017-12-15T20:29:30Z</time>
      </trkpt>
      <trkpt lat="45.08229" lon="6.10849">
        <ele>1799</ele>
        <time>2017-12-15T20:29:44Z</time>
      </trkpt>
      <trkpt lat="45.0821" lon="6.10872">
        <ele>1799</ele>
        <time>2017-12-15T20:29:54Z</time>
      </trkpt>
      <trkpt lat="45.08193" lon="6.10888">
        <ele>1800</ele>
        <time>2017-12-15T20:30:05Z</time>
      </trkpt>
      <trkpt lat="45.08176" lon="6.10899">
        <ele>1800</ele>
        <time>2017-12-15T20:30:09Z</time>
      </trkpt>
      <trkpt lat="45.08158" lon="6.10904">
        <ele>1789</ele>
        <time>2017-12-15T20:30:14Z</time>
      </trkpt>
      <trkpt lat="45.08138" lon="6.10903">
        <ele>1781</ele>
        <time>2017-12-15T20:30:32Z</time>
      </trkpt>
      <trkpt lat="45.08116" lon="6.10904">
        <ele>1777</ele>
        <time>2017-12-15T20:30:43Z</time>
      </trkpt>
      <trkpt lat="45.08099" lon="6.10909">
        <ele>1777</ele>
        <time>2017-12-15T20:30:58Z</time>
      </trkpt>
      <trkpt lat="45.08072" lon="6.10927">
        <ele>1777</ele>
        <time>2017-12-15T20:31:13Z</time>
      </trkpt>
      <trkpt lat="45.0805" lon="6.10948">
        <ele>1773</ele>
        <time>2017-12-15T20:31:23Z</time>
      </trkpt>
      <trkpt lat="45.0804" lon="6.10959">
        <ele>1772</ele>
        <time>2017-12-15T20:31:41Z</time>
      </trkpt>
      <trkpt lat="45.08021" lon="6.10977">
        <ele>1768</ele>
        <time>2017-12-15T20:31:45Z</time>
      </trkpt>
      <trkpt lat="45.08016" lon="6.10987">
        <ele>1767</ele>
        <time>2017-12-15T20:31:50Z</time>
      </trkpt>
      <trkpt lat="45.08015" lon="6.11">
        <ele>1772</ele>
        <time>2017-12-15T20:32:09Z</time>
      </trkpt>
      <trkpt lat="45.08022" lon="6.11052">
        <ele>1783</ele>
        <time>2017-12-15T20:32:19Z</time>
      </trkpt>
      <trkpt lat="45.08031" lon="6.11092">
        <ele>1787</ele>
        <time>2017-12-15T20:32:23Z</time>
      </trkpt>
      <trkpt lat="45.08033" lon="6.11108">
        <ele>1789</ele>
        <time>2017-12-15T20:32:39Z</time>
      </trkpt>
      <trkpt lat="45.08034" lon="6.11218">
        <ele>1787</ele>
        <time>2017-12-15T20:32:44Z</time>
      </trkpt>
      <trkpt lat="45.0804" lon="6.11272">
        <ele>1790</ele>
        <time>2017-12-15T20:32:50Z</time>
      </trkpt>
      <trkpt lat="45.08041" lon="6.11296">
        <ele>1791</ele>
        <time>2017-12-15T20:33:05Z</time>
      </trkpt>
      <trkpt lat="45.08028" lon="6.1135">
        <ele>1789</ele>
        <time>2017-12-15T20:33:18Z</time>
      </trkpt>
      <trkpt lat="45.08014" lon="6.11415">
        <ele>1785</ele>
        <time>2017-12-15T20:33:31Z</time>
      </trkpt>
      <trkpt lat="45.07998" lon="6.11451">
        <ele>1766</ele>
        <time>2017-12-15T20:33:41Z</time>
      </trkpt>
      <trkpt lat="45.07986" lon="6.11486">
        <ele>1771</ele>
        <time>2017-12-15T20:34:00Z</time>
      </trkpt>
      <trkpt lat="45.07968" lon="6.11538">
        <ele>1771</ele>
        <time>2017-12-15T20:34:03Z</time>
      </trkpt>
      <trkpt lat="45.07954" lon="6.11593">
        <ele>1775</ele>
        <time>2017-12-15T20:34:16Z</time>
      </trkpt>
      <trkpt lat="45.07941" lon="6.11643">
        <ele>1774</ele>
        <time>2017-12-15T20:34:31Z</time>
      </trkpt>
      <trkpt lat="45.07929" lon="6.11673">
        <ele>1771</ele>
        <time>2017-12-15T20:34:45Z</time>
      </trkpt>
      <trkpt lat="45.07911" lon="6.11721">
        <ele>1754</ele>
        <time>2017-12-15T20:34:50Z</time>
      </trkpt>
      <trkpt lat="45.07902" lon="6.11753">
        <ele>1763</ele>
        <time>2017-12-15T20:34:58Z</time>
      </trkpt>
      <trkpt lat="45.0789" lon="6.11842">
        <ele>1768</ele>
        <time>2017-12-15T20:35:18Z</time>
      </trkpt>
      <trkpt lat="45.07879" lon="6.11884">
        <ele>1765</ele>
        <time>2017-12-15T20:35:38Z</time>
      </trkpt>
      <trkpt lat="45.07878" lon="6.119">
        <ele>1765</ele>
        <time>2017-12-15T20:35:58Z</time>
      </trkpt>
      <trkpt lat="45.07882" lon="6.11934">
        <ele>1768</ele>
        <time>2017-12-15T20:36:11Z</time>
      </trkpt>
      <trkpt lat="45.07897" lon="6.12006">
        <ele>1773</ele>
        <time>2017-12-15T20:36:25Z</time>
      </trkpt>
      <trkpt lat="45.07921" lon="6.12084">
        <ele>1785</ele>
        <time>2017-12-15T20:36:29Z</time>
      </trkpt>
      <trkpt lat="45.07925" lon="6.12107">
        <ele>1795</ele>
        <time>2017-12-15T20:36:35Z</time>
      </trkpt>
      <trkpt lat="45.07928" lon="6.12149">
        <ele>1788</ele>
        <time>2017-12-15T20:36:55Z</time>
      </trkpt>
      <trkpt lat="45.0793" lon="6.12172">
        <ele>1777</ele>
        <time>2017-12-15T20:37:09Z</time>
      </trkpt>
      <trkpt lat="45.07938" lon="6.12208">
        <ele>1786</ele>
        <time>2017-12-15T20:37:14Z</time>
      </trkpt>
      <trkpt lat="45.07957" lon="6.12312">
        <ele>1784</ele>
        <time>2017-12-15T20:37:16Z</time>
      </trkpt>
      <trkpt lat="45.07963" lon="6.12356">
        <ele>1781</ele>
        <time>2017-12-15T20:37:35Z</time>
      </trkpt>
      <trkpt lat="45.07974" lon="6.12387">
        <ele>1782</ele>
        <time>2017-12-15T20:37:52Z</time>
      </trkpt>
      <trkpt lat="45.07998" lon="6.12427">
        <ele>1784</ele>
        <time>2017-12-15T20:38:01Z</time>
      </trkpt>
      <trkpt lat="45.08016" lon="6.12446">
        <ele>1801</ele>
        <time>2017-12-15T20:38:21Z</time>
      </trkpt>
      <trkpt lat="45.0803" lon="6.12467">
        <ele>1802</ele>
        <time>2017-12-15T20:38:29Z</time>
      </trkpt>
      <trkpt lat="45.08092" lon="6.12572">
        <ele>1808</ele>
        <time>2017-12-15T20:38:34Z</time>
      </trkpt>
      <trkpt lat="45.08119" lon="6.12626">
        <ele>1806</ele>
        <time>2017-12-15T20:38:43Z</time>
      </trkpt>
      <trkpt lat="45.08134" lon="6.12648">
        <ele>1808</ele>
        <time>2017-12-15T20:38:50Z</time>
      </trkpt>
      <trkpt lat="45.0814" lon="6.12661">
        <ele>1809</ele>
        <time>2017-12-15T20:38:56Z</time>
      </trkpt>
      <trkpt lat="45.08143" lon="6.12676">
        <ele>1802</ele>
        <time>2017-12-15T20:39:02Z</time>
      </trkpt>
      <trkpt lat="45.08149" lon="6.12709">
        <ele>1800</ele>
        <time>2017-12-15T20:39:04Z</time>
      </trkpt>
      <trkpt lat="45.08166" lon="6.12783">
        <ele>1800</ele>
        <time>2017-12-15T20:39:18Z</time>
      </trkpt>
      <trkpt lat="45.0818" lon="6.12819">
        <ele>1816</ele>
        <time>2017-12-15T20:39:27Z</time>
      </trkpt>
      <trkpt lat="45.08183" lon="6.12836">
        <ele>1816</ele>
        <time>2017-12-15T20:39:33Z</time>
      </trkpt>
      <trkpt lat="45.08185" lon="6.1287">
        <ele>1823</ele>
        <time>2017-12-15T20:39:48Z</time>
      </trkpt>
      <trkpt lat="45.08187" lon="6.12934">
        <ele>1829</ele>
        <time>2017-12-15T20:39:57Z</time>
      </trkpt>
      <trkpt lat="45.08186" lon="6.12952">
        <ele>1833</ele>
        <time>2017-12-15T20:40:17Z</time>
      </trkpt>
      <trkpt lat="45.08181" lon="6.12973">
        <ele>1833</ele>
        <time>2017-12-15T20:40:30Z</time>
      </trkpt>
      <trkpt lat="45.08163" lon="6.13012">
        <ele>1824</ele>
        <time>2017-12-15T20:40:47Z</time>
      </trkpt>
      <trkpt lat="45.08147" lon="6.13046">
        <ele>1826</ele>
        <time>2017-12-15T20:41:03Z</time>
      </trkpt>
      <trkpt lat="45.08142" lon="6.13063">
        <ele>1827</ele>
        <time>2017-12-15T20:41:13Z</time>
      </trkpt>
      <trkpt lat="45.08142" lon="6.13074">
        <ele>1827</ele>
        <time>2017-12-15T20:41:16Z</time>
      </trkpt>
      <trkpt lat="45.08144" lon="6.13095">
        <ele>1829</ele>
        <time>2017-12-15T20:41:26Z</time>
      </trkpt>
      <trkpt lat="45.08159" lon="6.13145">
        <ele>1831</ele>
        <time>2017-12-15T20:41:29Z</time>
      </trkpt>
      <trkpt lat="45.0816" lon="6.13159">
        <ele>1832</ele>
        <time>2017-12-15T20:41:49Z</time>
      </trkpt>
      <trkpt lat="45.08154" lon="6.13169">
        <ele>1834</ele>
        <time>2017-12-15T20:41:58Z</time>
      </trkpt>
      <trkpt lat="45.0814" lon="6.13183">
        <ele>1835</ele>
        <time>2017-12-15T20:42:14Z</time>
      </trkpt>
      <trkpt lat="45.08111" lon="6.13158">
        <ele>1829</ele>
        <time>2017-12-15T20:42:18Z</time>
      </trkpt>
      <trkpt lat="45.08105" lon="6.1315">
        <ele>1829</ele>
        <time>2017-12-15T20:42:26Z</time>
      </trkpt>
      <trkpt lat="45.08083" lon="6.13103">
        <ele>1830</ele>
        <time>2017-12-15T20:42:35Z</time>
      </trkpt>
      <trkpt lat="45.08082" lon="6.13083">
        <ele>1824</ele>
        <time>2017-12-15T20:42:43Z</time>
      </trkpt>
      <trkpt lat="45.08084" lon="6.13072">
        <ele>1824</ele>
        <time>2017-12-15T20:42:58Z</time>
      </trkpt>
      <trkpt lat="45.08089" lon="6.13054">
        <ele>1825</ele>
        <time>2017-12-15T20:43:11Z</time>
      </trkpt>
      <trkpt lat="45.08099" lon="6.13037">
        <ele>1825</ele>
        <time>2017-12-15T20:43:19Z</time>
      </trkpt>
      <trkpt lat="45.08132" lon="6.12979">
        <ele>1820</ele>
        <time>2017-12-15T20:43:23Z</time>
      </trkpt>
      <trkpt lat="45.08135" lon="6.12966">
        <ele>1820</ele>
        <time>2017-12-15T20:43:37Z</time>
      </trkpt>
      <trkpt lat="45.08135" lon="6.12951">
        <ele>1819</ele>
        <time>2017-12-15T20:43:51Z</time>
      </trkpt>
      <trkpt lat="45.08132" lon="6.12894">
        <ele>1810</ele>
        <time>2017-12-15T20:43:57Z</time>
      </trkpt>
      <trkpt lat="45.08128" lon="6.12875">
        <ele>1809</ele>
        <time>2017-12-15T20:44:15Z</time>
      </trkpt>
      <trkpt lat="45.08116" lon="6.12837">
        <ele>1807</ele>
        <time>2017-12-15T20:44:25Z</time>
      </trkpt>
      <trkpt lat="45.08099" lon="6.12789">
        <ele>1798</ele>
        <time>2017-12-15T20:44:33Z</time>
      </trkpt>
      <trkpt lat="45.0807" lon="6.12742">
        <ele>1792</ele>
        <time>2017-12-15T20:44:38Z</time>
      </trkpt>
      <trkpt lat="45.0805" lon="6.12705">
        <ele>1794</ele>
        <time>2017-12-15T20:44:50Z</time>
      </trkpt>
      <trkpt lat="45.08031" lon="6.12682">
        <ele>1794</ele>
        <time>2017-12-15T20:45:07Z</time>
      </trkpt>
      <trkpt lat="45.08009" lon="6.12641">
        <ele>1784</ele>
        <time>2017-12-15T20:45:18Z</time>
      </trkpt>
      <trkpt lat="45.07992" lon="6.12604">
        <ele>1786</ele>
        <time>2017-12-15T20:45:22Z</time>
      </trkpt>
      <trkpt lat="45.07979" lon="6.12581">
        <ele>1776</ele>
        <time>2017-12-15T20:45:30Z</time>
      </trkpt>
      <trkpt lat="45.07965" lon="6.12564">
        <ele>1779</ele>
        <time>2017-12-15T20:45:46Z</time>
      </trkpt>
      <trkpt lat="45.07949" lon="6.12546">
        <ele>1779</ele>
        <time>2017-12-15T20:45:54Z</time>
      </trkpt>
      <trkpt lat="45.07941" lon="6.12533">
        <ele>1778</ele>
        <time>2017-12-15T20:45:59Z</time>
      </trkpt>
      <trkpt lat="45.07931" lon="6.12501">
        <ele>1775</ele>
        <time>2017-12-15T20:46:08Z</time>
      </trkpt>
      <trkpt lat="45.07917" lon="6.12474">
        <ele>1772</ele>
        <time>2017-12-15T20:46:12Z</time>
      </trkpt>
      <trkpt lat="45.07913" lon="6.12443">
        <ele>1774</ele>
        <time>2017-12-15T20:46:30Z</time>
      </trkpt>
      <trkpt lat="45.0791" lon="6.12415">
        <ele>1763</ele>
        <time>2017-12-15T20:46:45Z</time>
      </trkpt>
      <trkpt lat="45.07906" lon="6.12402">
        <ele>1767</ele>
        <time>2017-12-15T20:47:03Z</time>
      </trkpt>
      <trkpt lat="45.07894" lon="6.12383">
        <ele>1771</ele>
        <time>2017-12-15T20:47:08Z</time>
      </trkpt>
      <trkpt lat="45.07888" lon="6.12376">
        <ele>1772</ele>
        <time>2017-12-15T20:47:15Z</time>
      </trkpt>
      <trkpt lat="45.07874" lon="6.12355">
        <ele>1775</ele>
        <time>2017-12-15T20:47:34Z</time>
      </trkpt>
      <trkpt lat="45.07862" lon="6.12322">
        <ele>1772</ele>
        <time>2017-12-15T20:47:41Z</time>
      </trkpt>
      <trkpt lat="45.07859" lon="6.12291">
        <ele>1769</ele>
        <time>2017-12-15T20:47:47Z</time>
      </trkpt>
      <trkpt lat="45.07848" lon="6.12201">
        <ele>1760</ele>
        <time>2017-12-15T20:47:53Z</time>
      </trkpt>
      <trkpt lat="45.07836" lon="6.12098">
        <ele>1754</ele>
        <time>2017-12-15T20:48:13Z</time>
      </trkpt>
      <trkpt lat="45.07828" lon="6.12067">
        <ele>1755</ele>
        <time>2017-12-15T20:48:29Z</time>
      </trkpt>
      <trkpt lat="45.07814" lon="6.12045">
        <ele>1759</ele>
        <time>2017-12-15T20:48:37Z</time>
      </trkpt>
      <trkpt lat="45.07805" lon="6.12024">
        <ele>1758</ele>
        <time>2017-12-15T20:48:56Z</time>
      </trkpt>
      <trkpt lat="45.07794" lon="6.11974">
        <ele>1752</ele>
        <time>2017-12-15T20:49:15Z</time>
      </trkpt>
      <trkpt lat="45.07786" lon="6.11936">
        <ele>1752</ele>
        <time>2017-12-15T20:49:26Z</time>
      </trkpt>
      <trkpt lat="45.07788" lon="6.11892">
        <ele>1748</ele>
        <time>2017-12-15T20:49:32Z</time>
      </trkpt>
      <trkpt lat="45.07789" lon="6.11859">
        <ele>1746</ele>
        <time>2017-12-15T20:49:52Z</time>
      </trkpt>
      <trkpt lat="45.07785" lon="6.11809">
        <ele>1742</ele>
        <time>2017-12-15T20:50:01Z</time>
      </trkpt>
      <trkpt lat="45.07782" lon="6.11777">
        <ele>1742</ele>
        <time>2017-12-15T20:50:21Z</time>
      </trkpt>
      <trkpt lat="45.07778" lon="6.11759">
        <ele>1743</ele>
        <time>2017-12-15T20:50:26Z</time>
      </trkpt>
      <trkpt lat="45.07777" lon="6.11731">
        <ele>1743</ele>
        <time>2017-12-15T20:50:32Z</time>
      </trkpt>
      <trkpt lat="45.07784" lon="6.11688">
        <ele>1743</ele>
        <time>2017-12-15T20:50:45Z</time>
      </trkpt>
      <trkpt lat="45.07793" lon="6.11645">
        <ele>1742</ele>
        <time>2017-12-15T20:50:52Z</time>
      </trkpt>
      <trkpt lat="45.07807" lon="6.11614">
        <ele>1739</ele>
        <time>2017-12-15T20:51:02Z</time>
      </trkpt>
      <trkpt lat="45.07813" lon="6.11596">
        <ele>1736</ele>
        <time>2017-12-15T20:51:10Z</time>
      </trkpt>
      <trkpt lat="45.07814" lon="6.11575">
        <ele>1733</ele>
        <time>2017-12-15T20:51:12Z</time>
      </trkpt>
      <trkpt lat="45.07811" lon="6.11556">
        <ele>1736</ele>
        <time>2017-12-15T20:51:23Z</time>
      </trkpt>
      <trkpt lat="45.07804" lon="6.11537">
        <ele>1737</ele>
        <time>2017-12-15T20:51:33Z</time>
      </trkpt>
      <trkpt lat="45.07795" lon="6.11517">
        <ele>1738</ele>
        <time>2017-12-15T20:51:46Z</time>
      </trkpt>
      <trkpt lat="45.07791" lon="6.11487">
        <ele>1735</ele>
        <time>2017-12-15T20:51:51Z</time>
      </trkpt>
      <trkpt lat="45.07794" lon="6.1143">
        <ele>1732</ele>
        <time>2017-12-15T20:52:05Z</time>
      </trkpt>
      <trkpt lat="45.07794" lon="6.11397">
        <ele>1728</ele>
        <time>2017-12-15T20:52:22Z</time>
      </trkpt>
      <trkpt lat="45.07792" lon="6.11355">
        <ele>1728</ele>
        <time>2017-12-15T20:52:32Z</time>
      </trkpt>
      <trkpt lat="45.07791" lon="6.11318">
        <ele>1728</ele>
        <time>2017-12-15T20:52:52Z</time>
      </trkpt>
      <trkpt lat="45.078" lon="6.11265">
        <ele>1725</ele>
        <time>2017-12-15T20:53:00Z</time>
      </trkpt>
      <trkpt lat="45.07812" lon="6.11208">
        <ele>1726</ele>
        <time>2017-12-15T20:53:05Z</time>
      </trkpt>
      <trkpt lat="45.07832" lon="6.11145">
        <ele>1725</ele>
        <time>2017-12-15T20:53:23Z</time>
      </trkpt>
      <trkpt lat="45.0784" lon="6.11123">
        <ele>1711</ele>
        <time>2017-12-15T20:53:36Z</time>
      </trkpt>
      <trkpt lat="45.07842" lon="6.1111">
        <ele>1712</ele>
        <time>2017-12-15T20:53:41Z</time>
      </trkpt>
      <trkpt lat="45.07841" lon="6.11095">
        <ele>1714</ele>
        <time>2017-12-15T20:53:43Z</time>
      </trkpt>
      <trkpt lat="45.07845" lon="6.10911">
        <ele>1708</ele>
        <time>2017-12-15T20:54:03Z</time>
      </trkpt>
      <trkpt lat="45.07843" lon="6.109">
        <ele>1706</ele>
        <time>2017-12-15T20:54:15Z</time>
      </trkpt>
      <trkpt lat="45.07838" lon="6.10894">
        <ele>1706</ele>
        <time>2017-12-15T20:54:19Z</time>
      </trkpt>
      <trkpt lat="45.07822" lon="6.10888">
        <ele>1708</ele>
        <time>2017-12-15T20:54:39Z</time>
      </trkpt>
      <trkpt lat="45.07783" lon="6.10894">
        <ele>1711</ele>
        <time>2017-12-15T20:54:56Z</time>
      </trkpt>
      <trkpt lat="45.07764" lon="6.10899">
        <ele>1715</ele>
        <time>2017-12-15T20:55:07Z</time>
      </trkpt>
      <trkpt lat="45.07742" lon="6.109">
        <ele>1725</ele>
        <time>2017-12-15T20:55:27Z</time>
      </trkpt>
      <trkpt lat="45.07711" lon="6.10904">
        <ele>1727</ele>
        <time>2017-12-15T20:55:41Z</time>
      </trkpt>
      <trkpt lat="45.07704" lon="6.10904">
        <ele>1728</ele>
        <time>2017-12-15T20:55:58Z</time>
      </trkpt>
      <trkpt lat="45.07693" lon="6.10898">
        <ele>1730</ele>
        <time>2017-12-15T20:56:00Z</time>
      </trkpt>
      <trkpt lat="45.07683" lon="6.10887">
        <ele>1729</ele>
        <time>2017-12-15T20:56:20Z</time>
      </trkpt>
      <trkpt lat="45.07672" lon="6.10869">
        <ele>1727</ele>
        <time>2017-12-15T20:56:40Z</time>
      </trkpt>
      <trkpt lat="45.07659" lon="6.10811">
        <ele>1737</ele>
        <time>2017-12-15T20:56:55Z</time>
      </trkpt>
      <trkpt lat="45.07656" lon="6.10788">
        <ele>1738</ele>
        <time>2017-12-15T20:57:02Z</time>
      </trkpt>
      <trkpt lat="45.07652" lon="6.10773">
        <ele>1738</ele>
        <time>2017-12-15T20:57:17Z</time>
      </trkpt>
      <trkpt lat="45.07635" lon="6.10738">
        <ele>1735</ele>
        <time>2017-12-15T20:57:28Z</time>
      </trkpt>
      <trkpt lat="45.07621" lon="6.10717">
        <ele>1737</ele>
        <time>2017-12-15T20:57:48Z</time>
      </trkpt>
      <trkpt lat="45.07617" lon="6.10712">
        <ele>1737</ele>
        <time>2017-12-15T20:58:08Z</time>
      </trkpt>
      <trkpt lat="45.07613" lon="6.10705">
        <ele>1738</ele>
        <time>2017-12-15T20:58:10Z</time>
      </trkpt>
      <trkpt lat="45.07611" lon="6.10666">
        <ele>1733</ele>
        <time>2017-12-15T20:58:29Z</time>
      </trkpt>
      <trkpt lat="45.07595" lon="6.10622">
        <ele>1731</ele>
        <time>2017-12-15T20:58:36Z</time>
      </trkpt>
      <trkpt lat="45.07589" lon="6.10616">
        <ele>1732</ele>
        <time>2017-12-15T20:58:51Z</time>
      </trkpt>
      <trkpt lat="45.0756" lon="6.10603">
        <ele>1755</ele>
        <time>2017-12-15T20:58:54Z</time>
      </trkpt>
      <trkpt lat="45.07557" lon="6.10599">
        <ele>1756</ele>
        <time>2017-12-15T20:59:13Z</time>
      </trkpt>
      <trkpt lat="45.07556" lon="6.10593">
        <ele>1755</ele>
        <time>2017-12-15T20:59:33Z</time>
      </trkpt>
      <trkpt lat="45.07559" lon="6.10577">
        <ele>1751</ele>
        <time>2017-12-15T20:59:36Z</time>
      </trkpt>
      <trkpt lat="45.07564" lon="6.10559">
        <ele>1752</ele>
        <time>2017-12-15T20:59:48Z</time>
      </trkpt>
      <trkpt lat="45.07564" lon="6.10544">
        <ele>1753</ele>
        <time>2017-12-15T21:00:07Z</time>
      </trkpt>
      <trkpt lat="45.07547" lon="6.1047">
        <ele>1753</ele>
        <time>2017-12-15T21:00:24Z</time>
      </trkpt>
      <trkpt lat="45.07526" lon="6.10392">
        <ele>1748</ele>
        <time>2017-12-15T21:00:26Z</time>
      </trkpt>
      <trkpt lat="45.07519" lon="6.10382">
        <ele>1748</ele>
        <time>2017-12-15T21:00:39Z</time>
      </trkpt>
      <trkpt lat="45.0751" lon="6.10377">
        <ele>1749</ele>
        <time>2017-12-15T21:00:44Z</time>
      </trkpt>
      <trkpt lat="45.07457" lon="6.1037">
        <ele>1767</ele>
        <time>2017-12-15T21:00:51Z</time>
      </trkpt>
      <trkpt lat="45.07428" lon="6.10363">
        <ele>1769</ele>
        <time>2017-12-15T21:01:05Z</time>
      </trkpt>
      <trkpt lat="45.07409" lon="6.10363">
        <ele>1777</ele>
        <time>2017-12-15T21:01:14Z</time>
      </trkpt>
      <trkpt lat="45.07392" lon="6.10369">
        <ele>1779</ele>
        <time>2017-12-15T21:01:30Z</time>
      </trkpt>
      <trkpt lat="45.0737" lon="6.10376">
        <ele>1780</ele>
        <time>2017-12-15T21:01:45Z</time>
      </trkpt>
      <trkpt lat="45.07361" lon="6.10377">
        <ele>1781</ele>
        <time>2017-12-15T21:01:57Z</time>
      </trkpt>
      <trkpt lat="45.07346" lon="6.10373">
        <ele>1781</ele>
        <time>2017-12-15T21:02:08Z</time>
      </trkpt>
      <trkpt lat="45.07318" lon="6.10368">
        <ele>1785</ele>
        <time>2017-12-15T21:02:25Z</time>
      </trkpt>
      <trkpt lat="45.07296" lon="6.10369">
        <ele>1786</ele>
        <time>2017-12-15T21:02:37Z</time>
      </trkpt>
      <trkpt lat="45.07274" lon="6.10369">
        <ele>1788</ele>
        <time>2017-12-15T21:02:56Z</time>
      </trkpt>
      <trkpt lat="45.07209" lon="6.10353">
        <ele>1796</ele>
        <time>2017-12-15T21:03:02Z</time>
      </trkpt>
      <trkpt lat="45.07131" lon="6.10329">
        <ele>1808</ele>
        <time>2017-12-15T21:03:13Z</time>
      </trkpt>
      <trkpt lat="45.07086" lon="6.10327">
        <ele>1806</ele>
        <time>2017-12-15T21:03:22Z</time>
      </trkpt>
      <trkpt lat="45.07058" lon="6.10331">
        <ele>1810</ele>
        <time>2017-12-15T21:03:32Z</time>
      </trkpt>
      <trkpt lat="45.07034" lon="6.10336">
        <ele>1808</ele>
        <time>2017-12-15T21:03:43Z</time>
      </trkpt>
      <trkpt lat="45.07016" lon="6.10337">
        <ele>1808</ele>
        <time>2017-12-15T21:03:52Z</time>
      </trkpt>
      <trkpt lat="45.0699" lon="6.10334">
        <ele>1808</ele>
        <time>2017-12-15T21:03:54Z</time>
      </trkpt>
      <trkpt lat="45.06938" lon="6.10342">
        <ele>1810</ele>
        <time>2017-12-15T21:04:04Z</time>
      </trkpt>
      <trkpt lat="45.06883" lon="6.1035">
        <ele>1808</ele>
        <time>2017-12-15T21:04:10Z</time>
      </trkpt>
      <trkpt lat="45.0685" lon="6.10352">
        <ele>1807</ele>
        <time>2017-12-15T21:04:18Z</time>
      </trkpt>
      <trkpt lat="45.0683" lon="6.10356">
        <ele>1800</ele>
        <time>2017-12-15T21:04:29Z</time>
      </trkpt>
      <trkpt lat="45.06802" lon="6.1037">
        <ele>1797</ele>
        <time>2017-12-15T21:04:44Z</time>
      </trkpt>
      <trkpt lat="45.06767" lon="6.10392">
        <ele>1794</ele>
        <time>2017-12-15T21:04:49Z</time>
      </trkpt>
      <trkpt lat="45.06744" lon="6.10405">
        <ele>1785</ele>
        <time>2017-12-15T21:05:07Z</time>
      </trkpt>
      <trkpt lat="45.0673" lon="6.10409">
        <ele>1783</ele>
        <time>2017-12-15T21:05:16Z</time>
      </trkpt>
      <trkpt lat="45.06695" lon="6.10408">
        <ele>1778</ele>
        <time>2017-12-15T21:05:32Z</time>
      </trkpt>
      <trkpt lat="45.0667" lon="6.10415">
        <ele>1776</ele>
        <time>2017-12-15T21:05:41Z</time>
      </trkpt>
      <trkpt lat="45.06635" lon="6.10438">
        <ele>1782</ele>
        <time>2017-12-15T21:05:45Z</time>
      </trkpt>
      <trkpt lat="45.06614" lon="6.1045">
        <ele>1782</ele>
        <time>2017-12-15T21:05:54Z</time>
      </trkpt>
      <trkpt lat="45.06594" lon="6.10456">
        <ele>1782</ele>
        <time>2017-12-15T21:06:10Z</time>
      </trkpt>
      <trkpt lat="45.06572" lon="6.10456">
        <ele>1775</ele>
        <time>2017-12-15T21:06:23Z</time>
      </trkpt>
      <trkpt lat="45.06538" lon="6.10457">
        <ele>1773</ele>
        <time>2017-12-15T21:06:38Z</time>
      </trkpt>
      <trkpt lat="45.06517" lon="6.10451">
        <ele>1770</ele>
        <time>2017-12-15T21:06:40Z</time>
      </trkpt>
      <trkpt lat="45.0647" lon="6.1045">
        <ele>1763</ele>
        <time>2017-12-15T21:06:51Z</time>
      </trkpt>
      <trkpt lat="45.06433" lon="6.10454">
        <ele>1763</ele>
        <time>2017-12-15T21:07:11Z</time>
      </trkpt>
      <trkpt lat="45.06419" lon="6.10453">
        <ele>1762</ele>
        <time>2017-12-15T21:07:17Z</time>
      </trkpt>
      <trkpt lat="45.06397" lon="6.10452">
        <ele>1757</ele>
        <time>2017-12-15T21:07:24Z</time>
      </trkpt>
      <trkpt lat="45.06386" lon="6.10454">
        <ele>1757</ele>
        <time>2017-12-15T21:07:28Z</time>
      </trkpt>
      <trkpt lat="45.06359" lon="6.10453">
        <ele>1755</ele>
        <time>2017-12-15T21:07:42Z</time>
      </trkpt>
      <trkpt lat="45.06317" lon="6.10449">
        <ele>1746</ele>
        <time>2017-12-15T21:07:48Z</time>
      </trkpt>
      <trkpt lat="45.06304" lon="6.10445">
        <ele>1744</ele>
        <time>2017-12-15T21:07:55Z</time>
      </trkpt>
      <trkpt lat="45.06288" lon="6.10442">
        <ele>1743</ele>
        <time>2017-12-15T21:08:01Z</time>
      </trkpt>
      <trkpt lat="45.06278" lon="6.10444">
        <ele>1742</ele>
        <time>2017-12-15T21:08:09Z</time>
      </trkpt>
      <trkpt lat="45.06267" lon="6.1045">
        <ele>1742</ele>
        <time>2017-12-15T21:08:21Z</time>
      </trkpt>
      <trkpt lat="45.06245" lon="6.10471">
        <ele>1736</ele>
        <time>2017-12-15T21:08:39Z</time>
      </trkpt>
      <trkpt lat="45.0623" lon="6.10482">
        <ele>1737</ele>
        <time>2017-12-15T21:08:44Z</time>
      </trkpt>
      <trkpt lat="45.0621" lon="6.1049">
        <ele>1735</ele>
        <time>2017-12-15T21:09:02Z</time>
      </trkpt>
      <trkpt lat="45.06187" lon="6.10502">
        <ele>1747</ele>
        <time>2017-12-15T21:09:05Z</time>
      </trkpt>
      <trkpt lat="45.0616" lon="6.10513">
        <ele>1738</ele>
        <time>2017-12-15T21:09:14Z</time>
      </trkpt>
      <trkpt lat="45.06116" lon="6.10517">
        <ele>1736</ele>
        <time>2017-12-15T21:09:32Z</time>
      </trkpt>
      <trkpt lat="45.06101" lon="6.10517">
        <ele>1734</ele>
        <time>2017-12-15T21:09:50Z</time>
      </trkpt>
      <trkpt lat="45.06083" lon="6.1052">
        <ele>1724</ele>
        <time>2017-12-15T21:09:54Z</time>
      </trkpt>
      <trkpt lat="45.06063" lon="6.10528">
        <ele>1724</ele>
        <time>2017-12-15T21:10:00Z</time>
      </trkpt>
      <trkpt lat="45.06047" lon="6.10545">
        <ele>1724</ele>
        <time>2017-12-15T21:10:03Z</time>
      </trkpt>
      <trkpt lat="45.06032" lon="6.10574">
        <ele>1724</ele>
        <time>2017-12-15T21:10:05Z</time>
      </trkpt>
      <trkpt lat="45.06022" lon="6.10587">
        <ele>1732</ele>
        <time>2017-12-15T21:10:22Z</time>
      </trkpt>
      <trkpt lat="45.06002" lon="6.10603">
        <ele>1731</ele>
        <time>2017-12-15T21:10:32Z</time>
      </trkpt>
      <trkpt lat="45.05971" lon="6.10625">
        <ele>1714</ele>
        <time>2017-12-15T21:10:44Z</time>
      </trkpt>
      <trkpt lat="45.05959" lon="6.10637">
        <ele>1713</ele>
        <time>2017-12-15T21:10:58Z</time>
      </trkpt>
      <trkpt lat="45.0594" lon="6.1067">
        <ele>1716</ele>
        <time>2017-12-15T21:11:07Z</time>
      </trkpt>
      <trkpt lat="45.05918" lon="6.10722">
        <ele>1719</ele>
        <time>2017-12-15T21:11:26Z</time>
      </trkpt>
      <trkpt lat="45.05893" lon="6.10789">
        <ele>1707</ele>
        <time>2017-12-15T21:11:37Z</time>
      </trkpt>
      <trkpt lat="45.05874" lon="6.10823">
        <ele>1706</ele>
        <time>2017-12-15T21:11:42Z</time>
      </trkpt>
      <trkpt lat="45.05869" lon="6.10841">
        <ele>1715</ele>
        <time>2017-12-15T21:12:01Z</time>
      </trkpt>
      <trkpt lat="45.05862" lon="6.10857">
        <ele>1715</ele>
        <time>2017-12-15T21:12:20Z</time>
      </trkpt>
      <trkpt lat="45.05856" lon="6.1086">
        <ele>1714</ele>
        <time>2017-12-15T21:12:36Z</time>
      </trkpt>
      <trkpt lat="45.0585" lon="6.10858">
        <ele>1712</ele>
        <time>2017-12-15T21:12:40Z</time>
      </trkpt>
      <trkpt lat="45.05845" lon="6.10845">
        <ele>1706</ele>
        <time>2017-12-15T21:12:49Z</time>
      </trkpt>
      <trkpt lat="45.0585" lon="6.1083">
        <ele>1699</ele>
        <time>2017-12-15T21:13:08Z</time>
      </trkpt>
      <trkpt lat="45.0586" lon="6.10814">
        <ele>1702</ele>
        <time>2017-12-15T21:13:19Z</time>
      </trkpt>
      <trkpt lat="45.05869" lon="6.1079">
        <ele>1703</ele>
        <time>2017-12-15T21:13:30Z</time>
      </trkpt>
      <trkpt lat="45.05878" lon="6.10747">
        <ele>1693</ele>
        <time>2017-12-15T21:13:38Z</time>
      </trkpt>
      <trkpt lat="45.05891" lon="6.10646">
        <ele>1682</ele>
        <time>2017-12-15T21:13:51Z</time>
      </trkpt>
      <trkpt lat="45.05906" lon="6.10583">
        <ele>1680</ele>
        <time>2017-12-15T21:14:09Z</time>
      </trkpt>
      <trkpt lat="45.05917" lon="6.10555">
        <ele>1692</ele>
        <time>2017-12-15T21:14:18Z</time>
      </trkpt>
      <trkpt lat="45.05935" lon="6.1053">
        <ele>1691</ele>
        <time>2017-12-15T21:14:24Z</time>
      </trkpt>
      <trkpt lat="45.05947" lon="6.10505">
        <ele>1691</ele>
        <time>2017-12-15T21:14:27Z</time>
      </trkpt>
      <trkpt lat="45.05949" lon="6.10488">
        <ele>1681</ele>
        <time>2017-12-15T21:14:29Z</time>
      </trkpt>
      <trkpt lat="45.05947" lon="6.10466">
        <ele>1679</ele>
        <time>2017-12-15T21:14:36Z</time>
      </trkpt>
      <trkpt lat="45.05948" lon="6.1043">
        <ele>1675</ele>
        <time>2017-12-15T21:14:42Z</time>
      </trkpt>
      <trkpt lat="45.05957" lon="6.10395">
        <ele>1663</ele>
        <time>2017-12-15T21:14:49Z</time>
      </trkpt>
      <trkpt lat="45.05963" lon="6.10382">
        <ele>1663</ele>
        <time>2017-12-15T21:14:58Z</time>
      </trkpt>
      <trkpt lat="45.05971" lon="6.10371">
        <ele>1662</ele>
        <time>2017-12-15T21:15:03Z</time>
      </trkpt>
      <trkpt lat="45.05983" lon="6.10361">
        <ele>1661</ele>
        <time>2017-12-15T21:15:05Z</time>
      </trkpt>
      <trkpt lat="45.06027" lon="6.10344">
        <ele>1670</ele>
        <time>2017-12-15T21:15:07Z</time>
      </trkpt>
      <trkpt lat="45.0606" lon="6.10335">
        <ele>1670</ele>
        <time>2017-12-15T21:15:19Z</time>
      </trkpt>
      <trkpt lat="45.06086" lon="6.10321">
        <ele>1660</ele>
        <time>2017-12-15T21:15:38Z</time>
      </trkpt>
      <trkpt lat="45.06099" lon="6.10313">
        <ele>1657</ele>
        <time>2017-12-15T21:15:46Z</time>
      </trkpt>
      <trkpt lat="45.06115" lon="6.10296">
        <ele>1654</ele>
        <time>2017-12-15T21:15:49Z</time>
      </trkpt>
      <trkpt lat="45.06125" lon="6.10284">
        <ele>1652</ele>
        <time>2017-12-15T21:16:06Z</time>
      </trkpt>
      <trkpt lat="45.06138" lon="6.10275">
        <ele>1651</ele>
        <time>2017-12-15T21:16:18Z</time>
      </trkpt>
      <trkpt lat="45.06153" lon="6.10266">
        <ele>1649</ele>
        <time>2017-12-15T21:16:32Z</time>
      </trkpt>
      <trkpt lat="45.06166" lon="6.10255">
        <ele>1644</ele>
        <time>2017-12-15T21:16:39Z</time>
      </trkpt>
      <trkpt lat="45.06177" lon="6.10241">
        <ele>1643</ele>
        <time>2017-12-15T21:16:54Z</time>
      </trkpt>
      <trkpt lat="45.06199" lon="6.10221">
        <ele>1644</ele>
        <time>2017-12-15T21:16:56Z</time>
      </trkpt>
      <trkpt lat="45.06226" lon="6.1019">
        <ele>1644</ele>
        <time>2017-12-15T21:17:12Z</time>
      </trkpt>
      <trkpt lat="45.06234" lon="6.10172">
        <ele>1644</ele>
        <time>2017-12-15T21:17:14Z</time>
      </trkpt>
      <trkpt lat="45.06237" lon="6.10161">
        <ele>1641</ele>
        <time>2017-12-15T21:17:23Z</time>
      </trkpt>
      <trkpt lat="45.06237" lon="6.1015">
        <ele>1641</ele>
        <time>2017-12-15T21:17:41Z</time>
      </trkpt>
      <trkpt lat="45.06235" lon="6.1014">
        <ele>1640</ele>
        <time>2017-12-15T21:17:59Z</time>
      </trkpt>
      <trkpt lat="45.06226" lon="6.10129">
        <ele>1639</ele>
        <time>2017-12-15T21:18:09Z</time>
      </trkpt>
      <trkpt lat="45.0621" lon="6.10114">
        <ele>1638</ele>
        <time>2017-12-15T21:18:22Z</time>
      </trkpt>
      <trkpt lat="45.06196" lon="6.10111">
        <ele>1636</ele>
        <time>2017-12-15T21:18:40Z</time>
      </trkpt>
      <trkpt lat="45.06172" lon="6.10102">
        <ele>1633</ele>
        <time>2017-12-15T21:18:50Z</time>
      </trkpt>
      <trkpt lat="45.06142" lon="6.10082">
        <ele>1629</ele>
        <time>2017-12-15T21:19:09Z</time>
      </trkpt>
      <trkpt lat="45.06123" lon="6.10068">
        <ele>1628</ele>
        <time>2017-12-15T21:19:28Z</time>
      </trkpt>
      <trkpt lat="45.06096" lon="6.10042">
        <ele>1627</ele>
        <time>2017-12-15T21:19:46Z</time>
      </trkpt>
      <trkpt lat="45.06045" lon="6.09978">
        <ele>1621</ele>
        <time>2017-12-15T21:19:59Z</time>
      </trkpt>
      <trkpt lat="45.06025" lon="6.09957">
        <ele>1620</ele>
        <time>2017-12-15T21:20:14Z</time>
      </trkpt>
      <trkpt lat="45.06002" lon="6.09939">
        <ele>1621</ele>
        <time>2017-12-15T21:20:25Z</time>
      </trkpt>
      <trkpt lat="45.05995" lon="6.09936">
        <ele>1611</ele>
        <time>2017-12-15T21:20:34Z</time>
      </trkpt>
      <trkpt lat="45.05981" lon="6.09936">
        <ele>1608</ele>
        <time>2017-12-15T21:20:36Z</time>
      </trkpt>
      <trkpt lat="45.05951" lon="6.09934">
        <ele>1603</ele>
        <time>2017-12-15T21:20:39Z</time>
      </trkpt>
      <trkpt lat="45.05902" lon="6.09914">
        <ele>1602</ele>
        <time>2017-12-15T21:20:55Z</time>
      </trkpt>
      <trkpt lat="45.05884" lon="6.09909">
        <ele>1600</ele>
        <time>2017-12-15T21:21:13Z</time>
      </trkpt>
      <trkpt lat="45.05873" lon="6.09902">
        <ele>1599</ele>
        <time>2017-12-15T21:21:26Z</time>
      </trkpt>
      <trkpt lat="45.05857" lon="6.09889">
        <ele>1598</ele>
        <time>2017-12-15T21:21:37Z</time>
      </trkpt>
      <trkpt lat="45.05838" lon="6.09879">
        <ele>1598</ele>
        <time>2017-12-15T21:21:47Z</time>
      </trkpt>
      <trkpt lat="45.05812" lon="6.09872">
        <ele>1585</ele>
        <time>2017-12-15T21:21:58Z</time>
      </trkpt>
      <trkpt lat="45.0577" lon="6.09862">
        <ele>1582</ele>
        <time>2017-12-15T21:22:00Z</time>
      </trkpt>
      <trkpt lat="45.05718" lon="6.0985">
        <ele>1570</ele>
        <time>2017-12-15T21:22:02Z</time>
      </trkpt>
      <trkpt lat="45.05692" lon="6.09841">
        <ele>1568</ele>
        <time>2017-12-15T21:22:04Z</time>
      </trkpt>
      <trkpt lat="45.05673" lon="6.09823">
        <ele>1574</ele>
        <time>2017-12-15T21:22:19Z</time>
      </trkpt>
      <trkpt lat="45.05632" lon="6.09772">
        <ele>1564</ele>
        <time>2017-12-15T21:22:39Z</time>
      </trkpt>
      <trkpt lat="45.05618" lon="6.09756">
        <ele>1562</ele>
        <time>2017-12-15T21:22:43Z</time>
      </trkpt>
      <trkpt lat="45.05605" lon="6.09737">
        <ele>1566</ele>
        <time>2017-12-15T21:22:47Z</time>
      </trkpt>
      <trkpt lat="45.05593" lon="6.09716">
        <ele>1568</ele>
        <time>2017-12-15T21:22:58Z</time>
      </trkpt>
      <trkpt lat="45.05573" lon="6.09692">
        <ele>1551</ele>
        <time>2017-12-15T21:23:04Z</time>
      </trkpt>
      <trkpt lat="45.05557" lon="6.09667">
        <ele>1550</ele>
        <time>2017-12-15T21:23:07Z</time>
      </trkpt>
      <trkpt lat="45.05548" lon="6.09647">
        <ele>1553</ele>
        <time>2017-12-15T21:23:11Z</time>
      </trkpt>
      <trkpt lat="45.05528" lon="6.09603">
        <ele>1551</ele>
        <time>2017-12-15T21:23:18Z</time>
      </trkpt>
      <trkpt lat="45.0548" lon="6.0953">
        <ele>1538</ele>
        <time>2017-12-15T21:23:31Z</time>
      </trkpt>
      <trkpt lat="45.05458" lon="6.095">
        <ele>1540</ele>
        <time>2017-12-15T21:23:37Z</time>
      </trkpt>
      <trkpt lat="45.0545" lon="6.09485">
        <ele>1539</ele>
        <time>2017-12-15T21:23:52Z</time>
      </trkpt>
      <trkpt lat="45.05438" lon="6.0945">
        <ele>1538</ele>
        <time>2017-12-15T21:23:59Z</time>
      </trkpt>
      <trkpt lat="45.05419" lon="6.09404">
        <ele>1537</ele>
        <time>2017-12-15T21:24:11Z</time>
      </trkpt>
      <trkpt lat="45.054" lon="6.09361">
        <ele>1530</ele>
        <time>2017-12-15T21:24:15Z</time>
      </trkpt>
      <trkpt lat="45.05393" lon="6.09354">
        <ele>1530</ele>
        <time>2017-12-15T21:24:34Z</time>
      </trkpt>
      <trkpt lat="45.05383" lon="6.0935">
        <ele>1529</ele>
        <time>2017-12-15T21:24:38Z</time>
      </trkpt>
      <trkpt lat="45.05366" lon="6.09349">
        <ele>1527</ele>
        <time>2017-12-15T21:24:50Z</time>
      </trkpt>
      <trkpt lat="45.05359" lon="6.09351">
        <ele>1526</ele>
        <time>2017-12-15T21:25:01Z</time>
      </trkpt>
      <trkpt lat="45.05354" lon="6.09357">
        <ele>1526</ele>
        <time>2017-12-15T21:25:10Z</time>
      </trkpt>
      <trkpt lat="45.05377" lon="6.09365">
        <ele>1527</ele>
        <time>2017-12-15T21:25:28Z</time>
      </trkpt>
      <trkpt lat="45.05387" lon="6.09374">
        <ele>1527</ele>
        <time>2017-12-15T21:25:44Z</time>
      </trkpt>
      <trkpt lat="45.05394" lon="6.09397">
        <ele>1526</ele>
        <time>2017-12-15T21:25:54Z</time>
      </trkpt>
      <trkpt lat="45.054" lon="6.09475">
        <ele>1515</ele>
        <time>2017-12-15T21:26:03Z</time>
      </trkpt>
      <trkpt lat="45.05404" lon="6.09564">
        <ele>1505</ele>
        <time>2017-12-15T21:26:10Z</time>
      </trkpt>
      <trkpt lat="45.05411" lon="6.09616">
        <ele>1497</ele>
        <time>2017-12-15T21:26:29Z</time>
      </trkpt>
      <trkpt lat="45.05419" lon="6.0965">
        <ele>1510</ele>
        <time>2017-12-15T21:26:32Z</time>
      </trkpt>
      <trkpt lat="45.05426" lon="6.09696">
        <ele>1506</ele>
        <time>2017-12-15T21:26:51Z</time>
      </trkpt>
      <trkpt lat="45.05435" lon="6.09763">
        <ele>1496</ele>
        <time>2017-12-15T21:27:00Z</time>
      </trkpt>
      <trkpt lat="45.05446" lon="6.09804">
        <ele>1497</ele>
        <time>2017-12-15T21:27:16Z</time>
      </trkpt>
      <trkpt lat="45.05447" lon="6.09811">
        <ele>1496</ele>
        <time>2017-12-15T21:27:24Z</time>
      </trkpt>
      <trkpt lat="45.05444" lon="6.09819">
        <ele>1494</ele>
        <time>2017-12-15T21:27:29Z</time>
      </trkpt>
      <trkpt lat="45.05439" lon="6.09819">
        <ele>1493</ele>
        <time>2017-12-15T21:27:45Z</time>
      </trkpt>
      <trkpt lat="45.05433" lon="6.09813">
        <ele>1492</ele>
        <time>2017-12-15T21:28:03Z</time>
      </trkpt>
      <trkpt lat="45.05427" lon="6.09798">
        <ele>1494</ele>
        <time>2017-12-15T21:28:18Z</time>
      </trkpt>
      <trkpt lat="45.05418" lon="6.09776">
        <ele>1495</ele>
        <time>2017-12-15T21:28:28Z</time>
      </trkpt>
      <trkpt lat="45.05409" lon="6.09764">
        <ele>1480</ele>
        <time>2017-12-15T21:28:47Z</time>
      </trkpt>
      <trkpt lat="45.05381" lon="6.09727">
        <ele>1480</ele>
        <time>2017-12-15T21:28:51Z</time>
      </trkpt>
      <trkpt lat="45.0537" lon="6.0971">
        <ele>1479</ele>
        <time>2017-12-15T21:29:04Z</time>
      </trkpt>
      <trkpt lat="45.05362" lon="6.09687">
        <ele>1478</ele>
        <time>2017-12-15T21:29:09Z</time>
      </trkpt>
      <trkpt lat="45.05348" lon="6.09628">
        <ele>1485</ele>
        <time>2017-12-15T21:29:23Z</time>
      </trkpt>
      <trkpt lat="45.05326" lon="6.09555">
        <ele>1472</ele>
        <time>2017-12-15T21:29:34Z</time>
      </trkpt>
      <trkpt lat="45.05312" lon="6.09531">
        <ele>1473</ele>
        <time>2017-12-15T21:29:44Z</time>
      </trkpt>
      <trkpt lat="45.053" lon="6.09519">
        <ele>1472</ele>
        <time>2017-12-15T21:29:56Z</time>
      </trkpt>
      <trkpt lat="45.05265" lon="6.09494">
        <ele>1473</ele>
        <time>2017-12-15T21:30:00Z</time>
      </trkpt>
      <trkpt lat="45.05241" lon="6.09479">
        <ele>1456</ele>
        <time>2017-12-15T21:30:19Z</time>
      </trkpt>
      <trkpt lat="45.05225" lon="6.09469">
        <ele>1453</ele>
        <time>2017-12-15T21:30:32Z</time>
      </trkpt>
      <trkpt lat="45.05216" lon="6.09461">
        <ele>1452</ele>
        <time>2017-12-15T21:30:43Z</time>
      </trkpt>
      <trkpt lat="45.05213" lon="6.09452">
        <ele>1452</ele>
        <time>2017-12-15T21:30:48Z</time>
      </trkpt>
      <trkpt lat="45.05209" lon="6.09437">
        <ele>1451</ele>
        <time>2017-12-15T21:31:05Z</time>
      </trkpt>
      <trkpt lat="45.05204" lon="6.09401">
        <ele>1454</ele>
        <time>2017-12-15T21:31:13Z</time>
      </trkpt>
      <trkpt lat="45.05203" lon="6.09329">
        <ele>1453</ele>
        <time>2017-12-15T21:31:23Z</time>
      </trkpt>
      <trkpt lat="45.05202" lon="6.0925">
        <ele>1452</ele>
        <time>2017-12-15T21:31:42Z</time>
      </trkpt>
      <trkpt lat="45.05198" lon="6.0913">
        <ele>1446</ele>
        <time>2017-12-15T21:31:52Z</time>
      </trkpt>
      <trkpt lat="45.05195" lon="6.0905">
        <ele>1443</ele>
        <time>2017-12-15T21:31:56Z</time>
      </trkpt>
      <trkpt lat="45.05196" lon="6.08997">
        <ele>1439</ele>
        <time>2017-12-15T21:32:13Z</time>
      </trkpt>
      <trkpt lat="45.05199" lon="6.08908">
        <ele>1434</ele>
        <time>2017-12-15T21:32:29Z</time>
      </trkpt>
      <trkpt lat="45.05201" lon="6.0883">
        <ele>1431</ele>
        <time>2017-12-15T21:32:44Z</time>
      </trkpt>
      <trkpt lat="45.05201" lon="6.08796">
        <ele>1431</ele>
        <time>2017-12-15T21:32:56Z</time>
      </trkpt>
      <trkpt lat="45.05198" lon="6.08782">
        <ele>1430</ele>
        <time>2017-12-15T21:33:07Z</time>
      </trkpt>
      <trkpt lat="45.05186" lon="6.08759">
        <ele>1424</ele>
        <time>2017-12-15T21:33:18Z</time>
      </trkpt>
      <trkpt lat="45.05174" lon="6.08726">
        <ele>1425</ele>
        <time>2017-12-15T21:33:29Z</time>
      </trkpt>
      <trkpt lat="45.05157" lon="6.08648">
        <ele>1406</ele>
        <time>2017-12-15T21:33:40Z</time>
      </trkpt>
      <trkpt lat="45.05155" lon="6.08598">
        <ele>1407</ele>
        <time>2017-12-15T21:33:56Z</time>
      </trkpt>
      <trkpt lat="45.05157" lon="6.08533">
        <ele>1403</ele>
        <time>2017-12-15T21:34:14Z</time>
      </trkpt>
      <trkpt lat="45.0516" lon="6.08457">
        <ele>1402</ele>
        <time>2017-12-15T21:34:20Z</time>
      </trkpt>
      <trkpt lat="45.05158" lon="6.08418">
        <ele>1409</ele>
        <time>2017-12-15T21:34:24Z</time>
      </trkpt>
      <trkpt lat="45.05157" lon="6.084">
        <ele>1403</ele>
        <time>2017-12-15T21:34:42Z</time>
      </trkpt>
      <trkpt lat="45.05151" lon="6.0838">
        <ele>1398</ele>
        <time>2017-12-15T21:35:01Z</time>
      </trkpt>
      <trkpt lat="45.05147" lon="6.08366">
        <ele>1397</ele>
        <time>2017-12-15T21:35:21Z</time>
      </trkpt>
      <trkpt lat="45.05148" lon="6.08357">
        <ele>1397</ele>
        <time>2017-12-15T21:35:27Z</time>
      </trkpt>
      <trkpt lat="45.05156" lon="6.08327">
        <ele>1401</ele>
        <time>2017-12-15T21:35:34Z</time>
      </trkpt>
      <trkpt lat="45.0518" lon="6.08269">
        <ele>1417</ele>
        <time>2017-12-15T21:35:54Z</time>
      </trkpt>
      <trkpt lat="45.05182" lon="6.08256">
        <ele>1415</ele>
        <time>2017-12-15T21:36:11Z</time>
      </trkpt>
      <trkpt lat="45.05179" lon="6.08244">
        <ele>1419</ele>
        <time>2017-12-15T21:36:18Z</time>
      </trkpt>
      <trkpt lat="45.05171" lon="6.08237">
        <ele>1418</ele>
        <time>2017-12-15T21:36:37Z</time>
      </trkpt>
      <trkpt lat="45.05165" lon="6.08235">
        <ele>1410</ele>
        <time>2017-12-15T21:36:44Z</time>
      </trkpt>
      <trkpt lat="45.0514" lon="6.08238">
        <ele>1410</ele>
        <time>2017-12-15T21:37:04Z</time>
      </trkpt>
      <trkpt lat="45.05093" lon="6.08226">
        <ele>1405</ele>
        <time>2017-12-15T21:37:09Z</time>
      </trkpt>
      <trkpt lat="45.05061" lon="6.08216">
        <ele>1404</ele>
        <time>2017-12-15T21:37:29Z</time>
      </trkpt>
      <trkpt lat="45.05047" lon="6.08214">
        <ele>1405</ele>
        <time>2017-12-15T21:37:36Z</time>
      </trkpt>
      <trkpt lat="45.0504" lon="6.08217">
        <ele>1404</ele>
        <time>2017-12-15T21:37:43Z</time>
      </trkpt>
      <trkpt lat="45.05032" lon="6.08226">
        <ele>1402</ele>
        <time>2017-12-15T21:37:56Z</time>
      </trkpt>
      <trkpt lat="45.0502" lon="6.08239">
        <ele>1399</ele>
        <time>2017-12-15T21:38:01Z</time>
      </trkpt>
      <trkpt lat="45.05002" lon="6.08252">
        <ele>1388</ele>
        <time>2017-12-15T21:38:07Z</time>
      </trkpt>
      <trkpt lat="45.049" lon="6.08316">
        <ele>1385</ele>
        <time>2017-12-15T21:38:22Z</time>
      </trkpt>
      <trkpt lat="45.04849" lon="6.08329">
        <ele>1382</ele>
        <time>2017-12-15T21:38:27Z</time>
      </trkpt>
      <trkpt lat="45.04816" lon="6.08335">
        <ele>1373</ele>
        <time>2017-12-15T21:38:32Z</time>
      </trkpt>
      <trkpt lat="45.04799" lon="6.08342">
        <ele>1373</ele>
        <time>2017-12-15T21:38:40Z</time>
      </trkpt>
      <trkpt lat="45.04786" lon="6.08352">
        <ele>1374</ele>
        <time>2017-12-15T21:38:58Z</time>
      </trkpt>
      <trkpt lat="45.04775" lon="6.08368">
        <ele>1373</ele>
        <time>2017-12-15T21:39:13Z</time>
      </trkpt>
      <trkpt lat="45.0474" lon="6.08446">
        <ele>1358</ele>
        <time>2017-12-15T21:39:29Z</time>
      </trkpt>
      <trkpt lat="45.04731" lon="6.0846">
        <ele>1355</ele>
        <time>2017-12-15T21:39:38Z</time>
      </trkpt>
      <trkpt lat="45.04726" lon="6.08456">
        <ele>1356</ele>
        <time>2017-12-15T21:39:40Z</time>
      </trkpt>
      <trkpt lat="45.04721" lon="6.08453">
        <ele>1357</ele>
        <time>2017-12-15T21:39:59Z</time>
      </trkpt>
      <trkpt lat="45.04708" lon="6.08458">
        <ele>1356</ele>
        <time>2017-12-15T21:40:13Z</time>
      </trkpt>
      <trkpt lat="45.04696" lon="6.08463">
        <ele>1355</ele>
        <time>2017-12-15T21:40:26Z</time>
      </trkpt>
      <trkpt lat="45.04682" lon="6.08462">
        <ele>1356</ele>
        <time>2017-12-15T21:40:30Z</time>
      </trkpt>
      <trkpt lat="45.0467" lon="6.08456">
        <ele>1357</ele>
        <time>2017-12-15T21:40:38Z</time>
      </trkpt>
      <trkpt lat="45.04656" lon="6.08447">
        <ele>1358</ele>
        <time>2017-12-15T21:40:58Z</time>
      </trkpt>
      <trkpt lat="45.04638" lon="6.08437">
        <ele>1359</ele>
        <time>2017-12-15T21:41:00Z</time>
      </trkpt>
      <trkpt lat="45.0462" lon="6.08431">
        <ele>1359</ele>
        <time>2017-12-15T21:41:19Z</time>
      </trkpt>
      <trkpt lat="45.04593" lon="6.08428">
        <ele>1363</ele>
        <time>2017-12-15T21:41:24Z</time>
      </trkpt>
      <trkpt lat="45.04571" lon="6.08422">
        <ele>1364</ele>
        <time>2017-12-15T21:41:43Z</time>
      </trkpt>
      <trkpt lat="45.0455" lon="6.08415">
        <ele>1382</ele>
        <time>2017-12-15T21:42:02Z</time>
      </trkpt>
      <trkpt lat="45.04534" lon="6.08416">
        <ele>1382</ele>
        <time>2017-12-15T21:42:07Z</time>
      </trkpt>
      <trkpt lat="45.04492" lon="6.08435">
        <ele>1367</ele>
        <time>2017-12-15T21:42:22Z</time>
      </trkpt>
      <trkpt lat="45.04467" lon="6.08444">
        <ele>1364</ele>
        <time>2017-12-15T21:42:30Z</time>
      </trkpt>
      <trkpt lat="45.04425" lon="6.08452">
        <ele>1365</ele>
        <time>2017-12-15T21:42:49Z</time>
      </trkpt>
      <trkpt lat="45.04396" lon="6.08466">
        <ele>1362</ele>
        <time>2017-12-15T21:43:02Z</time>
      </trkpt>
      <trkpt lat="45.04379" lon="6.08472">
        <ele>1360</ele>
        <time>2017-12-15T21:43:11Z</time>
      </trkpt>
      <trkpt lat="45.04358" lon="6.08471">
        <ele>1359</ele>
        <time>2017-12-15T21:43:23Z</time>
      </trkpt>
      <trkpt lat="45.04325" lon="6.08459">
        <ele>1350</ele>
        <time>2017-12-15T21:43:27Z</time>
      </trkpt>
      <trkpt lat="45.04297" lon="6.08443">
        <ele>1349</ele>
        <time>2017-12-15T21:43:39Z</time>
      </trkpt>
      <trkpt lat="45.04276" lon="6.08424">
        <ele>1347</ele>
        <time>2017-12-15T21:43:50Z</time>
      </trkpt>
      <trkpt lat="45.04218" lon="6.08342">
        <ele>1349</ele>
        <time>2017-12-15T21:43:58Z</time>
      </trkpt>
      <trkpt lat="45.04192" lon="6.08302">
        <ele>1360</ele>
        <time>2017-12-15T21:44:01Z</time>
      </trkpt>
      <trkpt lat="45.04183" lon="6.08286">
        <ele>1360</ele>
        <time>2017-12-15T21:44:11Z</time>
      </trkpt>
      <trkpt lat="45.04176" lon="6.08267">
        <ele>1360</ele>
        <time>2017-12-15T21:44:18Z</time>
      </trkpt>
      <trkpt lat="45.04161" lon="6.08228">
        <ele>1350</ele>
        <time>2017-12-15T21:44:29Z</time>
      </trkpt>
      <trkpt lat="45.04153" lon="6.08214">
        <ele>1349</ele>
        <time>2017-12-15T21:44:31Z</time>
      </trkpt>
      <trkpt lat="45.04108" lon="6.08144">
        <ele>1351</ele>
        <time>2017-12-15T21:44:40Z</time>
      </trkpt>
      <trkpt lat="45.04083" lon="6.08089">
        <ele>1341</ele>
        <time>2017-12-15T21:44:46Z</time>
      </trkpt>
      <trkpt lat="45.0408" lon="6.08079">
        <ele>1342</ele>
        <time>2017-12-15T21:44:59Z</time>
      </trkpt>
      <trkpt lat="45.04077" lon="6.08057">
        <ele>1339</ele>
        <time>2017-12-15T21:45:09Z</time>
      </trkpt>
      <trkpt lat="45.04067" lon="6.08022">
        <ele>1340</ele>
        <time>2017-12-15T21:45:18Z</time>
      </trkpt>
      <trkpt lat="45.04051" lon="6.07986">
        <ele>1343</ele>
        <time>2017-12-15T21:45:32Z</time>
      </trkpt>
      <trkpt lat="45.0403" lon="6.07961">
        <ele>1341</ele>
        <time>2017-12-15T21:45:40Z</time>
      </trkpt>
      <trkpt lat="45.04011" lon="6.07933">
        <ele>1339</ele>
        <time>2017-12-15T21:45:51Z</time>
      </trkpt>
      <trkpt lat="45.04004" lon="6.07917">
        <ele>1337</ele>
        <time>2017-12-15T21:46:09Z</time>
      </trkpt>
      <trkpt lat="45.03999" lon="6.07896">
        <ele>1329</ele>
        <time>2017-12-15T21:46:29Z</time>
      </trkpt>
      <trkpt lat="45.03996" lon="6.07843">
        <ele>1334</ele>
        <time>2017-12-15T21:46:42Z</time>
      </trkpt>
      <trkpt lat="45.03996" lon="6.07822">
        <ele>1332</ele>
        <time>2017-12-15T21:46:45Z</time>
      </trkpt>
      <trkpt lat="45.04012" lon="6.07748">
        <ele>1335</ele>
        <time>2017-12-15T21:46:57Z</time>
      </trkpt>
      <trkpt lat="45.04022" lon="6.07719">
        <ele>1337</ele>
        <time>2017-12-15T21:47:00Z</time>
      </trkpt>
      <trkpt lat="45.04032" lon="6.07705">
        <ele>1338</ele>
        <time>2017-12-15T21:47:09Z</time>
      </trkpt>
      <trkpt lat="45.04054" lon="6.07689">
        <ele>1340</ele>
        <time>2017-12-15T21:47:28Z</time>
      </trkpt>
      <trkpt lat="45.04071" lon="6.07672">
        <ele>1343</ele>
        <time>2017-12-15T21:47:47Z</time>
      </trkpt>
      <trkpt lat="45.0408" lon="6.07658">
        <ele>1343</ele>
        <time>2017-12-15T21:48:03Z</time>
      </trkpt>
      <trkpt lat="45.04086" lon="6.07644">
        <ele>1355</ele>
        <time>2017-12-15T21:48:19Z</time>
      </trkpt>
      <trkpt lat="45.04087" lon="6.07635">
        <ele>1357</ele>
        <time>2017-12-15T21:48:22Z</time>
      </trkpt>
      <trkpt lat="45.04083" lon="6.07625">
        <ele>1341</ele>
        <time>2017-12-15T21:48:24Z</time>
      </trkpt>
      <trkpt lat="45.04077" lon="6.0762">
        <ele>1341</ele>
        <time>2017-12-15T21:48:37Z</time>
      </trkpt>
      <trkpt lat="45.04064" lon="6.07615">
        <ele>1340</ele>
        <time>2017-12-15T21:48:43Z</time>
      </trkpt>
      <trkpt lat="45.04039" lon="6.07608">
        <ele>1337</ele>
        <time>2017-12-15T21:48:45Z</time>
      </trkpt>
      <trkpt lat="45.04018" lon="6.07599">
        <ele>1334</ele>
        <time>2017-12-15T21:49:05Z</time>
      </trkpt>
      <trkpt lat="45.04" lon="6.07586">
        <ele>1329</ele>
        <time>2017-12-15T21:49:09Z</time>
      </trkpt>
      <trkpt lat="45.03981" lon="6.07566">
        <ele>1331</ele>
        <time>2017-12-15T21:49:20Z</time>
      </trkpt>
      <trkpt lat="45.0396" lon="6.07537">
        <ele>1331</ele>
        <time>2017-12-15T21:49:38Z</time>
      </trkpt>
      <trkpt lat="45.03933" lon="6.07493">
        <ele>1342</ele>
        <time>2017-12-15T21:49:45Z</time>
      </trkpt>
      <trkpt lat="45.03919" lon="6.07473">
        <ele>1345</ele>
        <time>2017-12-15T21:49:59Z</time>
      </trkpt>
      <trkpt lat="45.03905" lon="6.07462">
        <ele>1333</ele>
        <time>2017-12-15T21:50:16Z</time>
      </trkpt>
      <trkpt lat="45.03878" lon="6.0745">
        <ele>1332</ele>
        <time>2017-12-15T21:50:19Z</time>
      </trkpt>
      <trkpt lat="45.03829" lon="6.07418">
        <ele>1324</ele>
        <time>2017-12-15T21:50:33Z</time>
      </trkpt>
      <trkpt lat="45.03804" lon="6.074">
        <ele>1323</ele>
        <time>2017-12-15T21:50:51Z</time>
      </trkpt>
      <trkpt lat="45.03796" lon="6.07385">
        <ele>1323</ele>
        <time>2017-12-15T21:51:08Z</time>
      </trkpt>
      <trkpt lat="45.03793" lon="6.07371">
        <ele>1324</ele>
        <time>2017-12-15T21:51:21Z</time>
      </trkpt>
      <trkpt lat="45.03783" lon="6.07334">
        <ele>1325</ele>
        <time>2017-12-15T21:51:39Z</time>
      </trkpt>
      <trkpt lat="45.03771" lon="6.07318">
        <ele>1329</ele>
        <time>2017-12-15T21:51:49Z</time>
      </trkpt>
      <trkpt lat="45.03755" lon="6.07302">
        <ele>1329</ele>
        <time>2017-12-15T21:51:53Z</time>
      </trkpt>
      <trkpt lat="45.03745" lon="6.07297">
        <ele>1309</ele>
        <time>2017-12-15T21:52:13Z</time>
      </trkpt>
      <trkpt lat="45.03744" lon="6.07291">
        <ele>1309</ele>
        <time>2017-12-15T21:52:18Z</time>
      </trkpt>
      <trkpt lat="45.03743" lon="6.07283">
        <ele>1309</ele>
        <time>2017-12-15T21:52:27Z</time>
      </trkpt>
      <trkpt lat="45.03747" lon="6.07274">
        <ele>1310</ele>
        <time>2017-12-15T21:52:45Z</time>
      </trkpt>
      <trkpt lat="45.03767" lon="6.07252">
        <ele>1327</ele>
        <time>2017-12-15T21:52:54Z</time>
      </trkpt>
      <trkpt lat="45.03776" lon="6.07241">
        <ele>1326</ele>
        <time>2017-12-15T21:53:05Z</time>
      </trkpt>
      <trkpt lat="45.03782" lon="6.0722">
        <ele>1327</ele>
        <time>2017-12-15T21:53:17Z</time>
      </trkpt>
      <trkpt lat="45.03788" lon="6.07207">
        <ele>1327</ele>
        <time>2017-12-15T21:53:31Z</time>
      </trkpt>
      <trkpt lat="45.03812" lon="6.07171">
        <ele>1333</ele>
        <time>2017-12-15T21:53:49Z</time>
      </trkpt>
      <trkpt lat="45.03832" lon="6.07124">
        <ele>1308</ele>
        <time>2017-12-15T21:54:07Z</time>
      </trkpt>
      <trkpt lat="45.03837" lon="6.07102">
        <ele>1329</ele>
        <time>2017-12-15T21:54:27Z</time>
      </trkpt>
      <trkpt lat="45.03846" lon="6.07074">
        <ele>1304</ele>
        <time>2017-12-15T21:54:38Z</time>
      </trkpt>
      <trkpt lat="45.03852" lon="6.07066">
        <ele>1304</ele>
        <time>2017-12-15T21:54:48Z</time>
      </trkpt>
      <trkpt lat="45.03859" lon="6.07063">
        <ele>1305</ele>
        <time>2017-12-15T21:54:52Z</time>
      </trkpt>
      <trkpt lat="45.03889" lon="6.07062">
        <ele>1315</ele>
        <time>2017-12-15T21:54:55Z</time>
      </trkpt>
      <trkpt lat="45.03908" lon="6.07047">
        <ele>1315</ele>
        <time>2017-12-15T21:54:58Z</time>
      </trkpt>
      <trkpt lat="45.03919" lon="6.07041">
        <ele>1339</ele>
        <time>2017-12-15T21:55:14Z</time>
      </trkpt>
      <trkpt lat="45.03928" lon="6.07036">
        <ele>1338</ele>
        <time>2017-12-15T21:55:32Z</time>
      </trkpt>
      <trkpt lat="45.03933" lon="6.07029">
        <ele>1336</ele>
        <time>2017-12-15T21:55:41Z</time>
      </trkpt>
      <trkpt lat="45.03939" lon="6.07022">
        <ele>1334</ele>
        <time>2017-12-15T21:56:00Z</time>
      </trkpt>
      <trkpt lat="45.03965" lon="6.07014">
        <ele>1338</ele>
        <time>2017-12-15T21:56:15Z</time>
      </trkpt>
      <trkpt lat="45.03983" lon="6.07005">
        <ele>1337</ele>
        <time>2017-12-15T21:56:33Z</time>
      </trkpt>
      <trkpt lat="45.04" lon="6.07001">
        <ele>1333</ele>
        <time>2017-12-15T21:56:38Z</time>
      </trkpt>
      <trkpt lat="45.04018" lon="6.07004">
        <ele>1348</ele>
        <time>2017-12-15T21:56:58Z</time>
      </trkpt>
      <trkpt lat="45.04031" lon="6.07002">
        <ele>1352</ele>
        <time>2017-12-15T21:57:14Z</time>
      </trkpt>
      <trkpt lat="45.04042" lon="6.06989">
        <ele>1319</ele>
        <time>2017-12-15T21:57:29Z</time>
      </trkpt>
      <trkpt lat="45.04049" lon="6.06981">
        <ele>1318</ele>
        <time>2017-12-15T21:57:45Z</time>
      </trkpt>
      <trkpt lat="45.04058" lon="6.06975">
        <ele>1319</ele>
        <time>2017-12-15T21:58:02Z</time>
      </trkpt>
      <trkpt lat="45.04067" lon="6.06972">
        <ele>1320</ele>
        <time>2017-12-15T21:58:04Z</time>
      </trkpt>
      <trkpt lat="45.04089" lon="6.06976">
        <ele>1341</ele>
        <time>2017-12-15T21:58:23Z</time>
      </trkpt>
      <trkpt lat="45.04118" lon="6.06984">
        <ele>1344</ele>
        <time>2017-12-15T21:58:38Z</time>
      </trkpt>
      <trkpt lat="45.04122" lon="6.06983">
        <ele>1345</ele>
        <time>2017-12-15T21:58:51Z</time>
      </trkpt>
      <trkpt lat="45.0413" lon="6.06975">
        <ele>1344</ele>
        <time>2017-12-15T21:59:05Z</time>
      </trkpt>
      <trkpt lat="45.04145" lon="6.06925">
        <ele>1335</ele>
        <time>2017-12-15T21:59:21Z</time>
      </trkpt>
      <trkpt lat="45.0415" lon="6.06916">
        <ele>1311</ele>
        <time>2017-12-15T21:59:29Z</time>
      </trkpt>
      <trkpt lat="45.04172" lon="6.06896">
        <ele>1325</ele>
        <time>2017-12-15T21:59:45Z</time>
      </trkpt>
      <trkpt lat="45.04187" lon="6.06878">
        <ele>1321</ele>
        <time>2017-12-15T21:59:55Z</time>
      </trkpt>
      <trkpt lat="45.042" lon="6.0687">
        <ele>1320</ele>
        <time>2017-12-15T22:00:14Z</time>
      </trkpt>
      <trkpt lat="45.04212" lon="6.06866">
        <ele>1322</ele>
        <time>2017-12-15T22:00:17Z</time>
      </trkpt>
      <trkpt lat="45.04225" lon="6.06856">
        <ele>1322</ele>
        <time>2017-12-15T22:00:28Z</time>
      </trkpt>
      <trkpt lat="45.0425" lon="6.06854">
        <ele>1324</ele>
        <time>2017-12-15T22:00:37Z</time>
      </trkpt>
      <trkpt lat="45.04253" lon="6.06851">
        <ele>1342</ele>
        <time>2017-12-15T22:00:42Z</time>
      </trkpt>
      <trkpt lat="45.04257" lon="6.06844">
        <ele>1337</ele>
        <time>2017-12-15T22:01:01Z</time>
      </trkpt>
      <trkpt lat="45.0426" lon="6.0683">
        <ele>1319</ele>
        <time>2017-12-15T22:01:13Z</time>
      </trkpt>
      <trkpt lat="45.04264" lon="6.0682">
        <ele>1318</ele>
        <time>2017-12-15T22:01:15Z</time>
      </trkpt>
      <trkpt lat="45.04275" lon="6.06809">
        <ele>1317</ele>
        <time>2017-12-15T22:01:18Z</time>
      </trkpt>
      <trkpt lat="45.04285" lon="6.068">
        <ele>1318</ele>
        <time>2017-12-15T22:01:23Z</time>
      </trkpt>
      <trkpt lat="45.04316" lon="6.06752">
        <ele>1318</ele>
        <time>2017-12-15T22:01:37Z</time>
      </trkpt>
      <trkpt lat="45.04362" lon="6.06682">
        <ele>1309</ele>
        <time>2017-12-15T22:01:39Z</time>
      </trkpt>
      <trkpt lat="45.04372" lon="6.06669">
        <ele>1313</ele>
        <time>2017-12-15T22:01:44Z</time>
      </trkpt>
      <trkpt lat="45.04393" lon="6.06652">
        <ele>1292</ele>
        <time>2017-12-15T22:01:48Z</time>
      </trkpt>
      <trkpt lat="45.04418" lon="6.06623">
        <ele>1331</ele>
        <time>2017-12-15T22:02:08Z</time>
      </trkpt>
      <trkpt lat="45.04431" lon="6.06595">
        <ele>1316</ele>
        <time>2017-12-15T22:02:10Z</time>
      </trkpt>
      <trkpt lat="45.04433" lon="6.06582">
        <ele>1285</ele>
        <time>2017-12-15T22:02:12Z</time>
      </trkpt>
      <trkpt lat="45.04435" lon="6.06576">
        <ele>1285</ele>
        <time>2017-12-15T22:02:18Z</time>
      </trkpt>
      <trkpt lat="45.04446" lon="6.06558">
        <ele>1284</ele>
        <time>2017-12-15T22:02:21Z</time>
      </trkpt>
      <trkpt lat="45.04462" lon="6.06538">
        <ele>1282</ele>
        <time>2017-12-15T22:02:25Z</time>
      </trkpt>
      <trkpt lat="45.04469" lon="6.06533">
        <ele>1284</ele>
        <time>2017-12-15T22:02:30Z</time>
      </trkpt>
      <trkpt lat="45.0448" lon="6.06525">
        <ele>1285</ele>
        <time>2017-12-15T22:02:39Z</time>
      </trkpt>
      <trkpt lat="45.04482" lon="6.06524">
        <ele>1285</ele>
        <time>2017-12-15T22:02:46Z</time>
      </trkpt>
      <trkpt lat="45.04492" lon="6.06515">
        <ele>1286</ele>
        <time>2017-12-15T22:02:57Z</time>
      </trkpt>
      <trkpt lat="45.04501" lon="6.06506">
        <ele>1303</ele>
        <time>2017-12-15T22:03:16Z</time>
      </trkpt>
      <trkpt lat="45.04514" lon="6.06501">
        <ele>1318</ele>
        <time>2017-12-15T22:03:27Z</time>
      </trkpt>
      <trkpt lat="45.04594" lon="6.06458">
        <ele>1321</ele>
        <time>2017-12-15T22:03:36Z</time>
      </trkpt>
      <trkpt lat="45.04634" lon="6.06436">
        <ele>1320</ele>
        <time>2017-12-15T22:03:41Z</time>
      </trkpt>
      <trkpt lat="45.04645" lon="6.06423">
        <ele>1318</ele>
        <time>2017-12-15T22:03:48Z</time>
      </trkpt>
      <trkpt lat="45.0467" lon="6.06393">
        <ele>1293</ele>
        <time>2017-12-15T22:04:03Z</time>
      </trkpt>
      <trkpt lat="45.0468" lon="6.06378">
        <ele>1283</ele>
        <time>2017-12-15T22:04:23Z</time>
      </trkpt>
      <trkpt lat="45.04692" lon="6.06374">
        <ele>1283</ele>
        <time>2017-12-15T22:04:40Z</time>
      </trkpt>
      <trkpt lat="45.04711" lon="6.06346">
        <ele>1275</ele>
        <time>2017-12-15T22:04:43Z</time>
      </trkpt>
      <trkpt lat="45.04719" lon="6.06337">
        <ele>1275</ele>
        <time>2017-12-15T22:04:49Z</time>
      </trkpt>
      <trkpt lat="45.04729" lon="6.06332">
        <ele>1237</ele>
        <time>2017-12-15T22:05:02Z</time>
      </trkpt>
      <trkpt lat="45.04739" lon="6.06334">
        <ele>1275</ele>
        <time>2017-12-15T22:05:06Z</time>
      </trkpt>
      <trkpt lat="45.0476" lon="6.06365">
        <ele>1318</ele>
        <time>2017-12-15T22:05:22Z</time>
      </trkpt>
      <trkpt lat="45.04765" lon="6.06367">
        <ele>1321</ele>
        <time>2017-12-15T22:05:27Z</time>
      </trkpt>
      <trkpt lat="45.04772" lon="6.06366">
        <ele>1323</ele>
        <time>2017-12-15T22:05:41Z</time>
      </trkpt>
      <trkpt lat="45.04783" lon="6.06337">
        <ele>1314</ele>
        <time>2017-12-15T22:05:46Z</time>
      </trkpt>
      <trkpt lat="45.04788" lon="6.06323">
        <ele>1269</ele>
        <time>2017-12-15T22:05:55Z</time>
      </trkpt>
      <trkpt lat="45.04791" lon="6.06317">
        <ele>1269</ele>
        <time>2017-12-15T22:06:03Z</time>
      </trkpt>
      <trkpt lat="45.048" lon="6.06312">
        <ele>1271</ele>
        <time>2017-12-15T22:06:09Z</time>
      </trkpt>
      <trkpt lat="45.04805" lon="6.06308">
        <ele>1271</ele>
        <time>2017-12-15T22:06:22Z</time>
      </trkpt>
      <trkpt lat="45.04815" lon="6.06291">
        <ele>1265</ele>
        <time>2017-12-15T22:06:30Z</time>
      </trkpt>
      <trkpt lat="45.04832" lon="6.0627">
        <ele>1257</ele>
        <time>2017-12-15T22:06:41Z</time>
      </trkpt>
      <trkpt lat="45.0485" lon="6.06239">
        <ele>1251</ele>
        <time>2017-12-15T22:06:58Z</time>
      </trkpt>
      <trkpt lat="45.0486" lon="6.06233">
        <ele>1253</ele>
        <time>2017-12-15T22:07:15Z</time>
      </trkpt>
      <trkpt lat="45.04868" lon="6.06232">
        <ele>1256</ele>
        <time>2017-12-15T22:07:34Z</time>
      </trkpt>
      <trkpt lat="45.04878" lon="6.06232">
        <ele>1260</ele>
        <time>2017-12-15T22:07:41Z</time>
      </trkpt>
      <trkpt lat="45.04881" lon="6.06231">
        <ele>1262</ele>
        <time>2017-12-15T22:07:51Z</time>
      </trkpt>
      <trkpt lat="45.04915" lon="6.06188">
        <ele>1254</ele>
        <time>2017-12-15T22:08:01Z</time>
      </trkpt>
      <trkpt lat="45.04955" lon="6.0613">
        <ele>1239</ele>
        <time>2017-12-15T22:08:10Z</time>
      </trkpt>
      <trkpt lat="45.0496" lon="6.06121">
        <ele>1236</ele>
        <time>2017-12-15T22:08:20Z</time>
      </trkpt>
      <trkpt lat="45.04967" lon="6.06114">
        <ele>1235</ele>
        <time>2017-12-15T22:08:33Z</time>
      </trkpt>
      <trkpt lat="45.04977" lon="6.06105">
        <ele>1235</ele>
        <time>2017-12-15T22:08:37Z</time>
      </trkpt>
      <trkpt lat="45.0499" lon="6.06098">
        <ele>1234</ele>
        <time>2017-12-15T22:08:43Z</time>
      </trkpt>
      <trkpt lat="45.05006" lon="6.06091">
        <ele>1250</ele>
        <time>2017-12-15T22:09:03Z</time>
      </trkpt>
      <trkpt lat="45.05015" lon="6.06086">
        <ele>1257</ele>
        <time>2017-12-15T22:09:18Z</time>
      </trkpt>
      <trkpt lat="45.0503" lon="6.0607">
        <ele>1228</ele>
        <time>2017-12-15T22:09:34Z</time>
      </trkpt>
      <trkpt lat="45.05053" lon="6.06044">
        <ele>1227</ele>
        <time>2017-12-15T22:09:49Z</time>
      </trkpt>
      <trkpt lat="45.05075" lon="6.06019">
        <ele>1222</ele>
        <time>2017-12-15T22:09:54Z</time>
      </trkpt>
      <trkpt lat="45.05093" lon="6.06001">
        <ele>1236</ele>
        <time>2017-12-15T22:10:06Z</time>
      </trkpt>
      <trkpt lat="45.05108" lon="6.05988">
        <ele>1217</ele>
        <time>2017-12-15T22:10:08Z</time>
      </trkpt>
      <trkpt lat="45.05137" lon="6.05959">
        <ele>1217</ele>
        <time>2017-12-15T22:10:27Z</time>
      </trkpt>
      <trkpt lat="45.05153" lon="6.0594">
        <ele>1215</ele>
        <time>2017-12-15T22:10:35Z</time>
      </trkpt>
      <trkpt lat="45.0517" lon="6.05917">
        <ele>1221</ele>
        <time>2017-12-15T22:10:45Z</time>
      </trkpt>
      <trkpt lat="45.05185" lon="6.05902">
        <ele>1215</ele>
        <time>2017-12-15T22:11:03Z</time>
      </trkpt>
      <trkpt lat="45.05192" lon="6.05895">
        <ele>1216</ele>
        <time>2017-12-15T22:11:12Z</time>
      </trkpt>
      <trkpt lat="45.05199" lon="6.05875">
        <ele>1212</ele>
        <time>2017-12-15T22:11:21Z</time>
      </trkpt>
      <trkpt lat="45.05227" lon="6.058">
        <ele>1175</ele>
        <time>2017-12-15T22:11:26Z</time>
      </trkpt>
      <trkpt lat="45.05239" lon="6.05789">
        <ele>1175</ele>
        <time>2017-12-15T22:11:42Z</time>
      </trkpt>
      <trkpt lat="45.05254" lon="6.0578">
        <ele>1215</ele>
        <time>2017-12-15T22:11:46Z</time>
      </trkpt>
      <trkpt lat="45.05258" lon="6.05775">
        <ele>1212</ele>
        <time>2017-12-15T22:12:05Z</time>
      </trkpt>
      <trkpt lat="45.05261" lon="6.05765">
        <ele>1207</ele>
        <time>2017-12-15T22:12:13Z</time>
      </trkpt>
      <trkpt lat="45.05262" lon="6.05741">
        <ele>1185</ele>
        <time>2017-12-15T22:12:17Z</time>
      </trkpt>
      <trkpt lat="45.05266" lon="6.05726">
        <ele>1185</ele>
        <time>2017-12-15T22:12:36Z</time>
      </trkpt>
      <trkpt lat="45.05273" lon="6.05716">
        <ele>1185</ele>
        <time>2017-12-15T22:12:38Z</time>
      </trkpt>
      <trkpt lat="45.05295" lon="6.05689">
        <ele>1186</ele>
        <time>2017-12-15T22:12:40Z</time>
      </trkpt>
      <trkpt lat="45.05309" lon="6.05667">
        <ele>1190</ele>
        <time>2017-12-15T22:12:57Z</time>
      </trkpt>
      <trkpt lat="45.05338" lon="6.05638">
        <ele>1197</ele>
        <time>2017-12-15T22:13:15Z</time>
      </trkpt>
      <trkpt lat="45.05375" lon="6.05596">
        <ele>1195</ele>
        <time>2017-12-15T22:13:19Z</time>
      </trkpt>
      <trkpt lat="45.05396" lon="6.05564">
        <ele>1178</ele>
        <time>2017-12-15T22:13:36Z</time>
      </trkpt>
      <trkpt lat="45.05439" lon="6.05493">
        <ele>1177</ele>
        <time>2017-12-15T22:13:44Z</time>
      </trkpt>
      <trkpt lat="45.05447" lon="6.05486">
        <ele>1178</ele>
        <time>2017-12-15T22:13:50Z</time>
      </trkpt>
      <trkpt lat="45.05451" lon="6.05485">
        <ele>1179</ele>
        <time>2017-12-15T22:13:57Z</time>
      </trkpt>
      <trkpt lat="45.05456" lon="6.05487">
        <ele>1181</ele>
        <time>2017-12-15T22:14:01Z</time>
      </trkpt>
      <trkpt lat="45.05467" lon="6.0549">
        <ele>1184</ele>
        <time>2017-12-15T22:14:07Z</time>
      </trkpt>
      <trkpt lat="45.05472" lon="6.05489">
        <ele>1186</ele>
        <time>2017-12-15T22:14:24Z</time>
      </trkpt>
      <trkpt lat="45.05476" lon="6.05487">
        <ele>1187</ele>
        <time>2017-12-15T22:14:27Z</time>
      </trkpt>
      <trkpt lat="45.05486" lon="6.05474">
        <ele>1186</ele>
        <time>2017-12-15T22:14:46Z</time>
      </trkpt>
      <trkpt lat="45.05488" lon="6.0546">
        <ele>1183</ele>
        <time>2017-12-15T22:15:06Z</time>
      </trkpt>
      <trkpt lat="45.05478" lon="6.05413">
        <ele>1166</ele>
        <time>2017-12-15T22:15:25Z</time>
      </trkpt>
      <trkpt lat="45.05479" lon="6.05404">
        <ele>1165</ele>
        <time>2017-12-15T22:15:35Z</time>
      </trkpt>
      <trkpt lat="45.05491" lon="6.05367">
        <ele>1161</ele>
        <time>2017-12-15T22:15:38Z</time>
      </trkpt>
      <trkpt lat="45.05495" lon="6.05352">
        <ele>1162</ele>
        <time>2017-12-15T22:15:43Z</time>
      </trkpt>
      <trkpt lat="45.05544" lon="6.05223">
        <ele>1158</ele>
        <time>2017-12-15T22:15:48Z</time>
      </trkpt>
      <trkpt lat="45.05556" lon="6.05195">
        <ele>1157</ele>
        <time>2017-12-15T22:16:05Z</time>
      </trkpt>
      <trkpt lat="45.05567" lon="6.05179">
        <ele>1157</ele>
        <time>2017-12-15T22:16:14Z</time>
      </trkpt>
      <trkpt lat="45.05581" lon="6.05171">
        <ele>1157</ele>
        <time>2017-12-15T22:16:25Z</time>
      </trkpt>
      <trkpt lat="45.05598" lon="6.05171">
        <ele>1159</ele>
        <time>2017-12-15T22:16:33Z</time>
      </trkpt>
      <trkpt lat="45.05617" lon="6.05175">
        <ele>1159</ele>
        <time>2017-12-15T22:16:50Z</time>
      </trkpt>
      <trkpt lat="45.05644" lon="6.05181">
        <ele>1157</ele>
        <time>2017-12-15T22:17:03Z</time>
      </trkpt>
      <trkpt lat="45.05663" lon="6.05191">
        <ele>1157</ele>
        <time>2017-12-15T22:17:17Z</time>
      </trkpt>
      <trkpt lat="45.05719" lon="6.05221">
        <ele>1153</ele>
        <time>2017-12-15T22:17:35Z</time>
      </trkpt>
      <trkpt lat="45.05744" lon="6.05239">
        <ele>1158</ele>
        <time>2017-12-15T22:17:45Z</time>
      </trkpt>
      <trkpt lat="45.05758" lon="6.05253">
        <ele>1166</ele>
        <time>2017-12-15T22:17:53Z</time>
      </trkpt>
      <trkpt lat="45.05769" lon="6.05265">
        <ele>1171</ele>
        <time>2017-12-15T22:18:08Z</time>
      </trkpt>
      <trkpt lat="45.05774" lon="6.05268">
        <ele>1172</ele>
        <time>2017-12-15T22:18:22Z</time>
      </trkpt>
      <trkpt lat="45.0578" lon="6.05267">
        <ele>1173</ele>
        <time>2017-12-15T22:18:24Z</time>
      </trkpt>
      <trkpt lat="45.05788" lon="6.05255">
        <ele>1171</ele>
        <time>2017-12-15T22:18:40Z</time>
      </trkpt>
      <trkpt lat="45.05795" lon="6.05233">
        <ele>1147</ele>
        <time>2017-12-15T22:18:56Z</time>
      </trkpt>
      <trkpt lat="45.05809" lon="6.05198">
        <ele>1140</ele>
        <time>2017-12-15T22:19:03Z</time>
      </trkpt>
      <trkpt lat="45.05818" lon="6.05172">
        <ele>1133</ele>
        <time>2017-12-15T22:19:07Z</time>
      </trkpt>
      <trkpt lat="45.05823" lon="6.05163">
        <ele>1120</ele>
        <time>2017-12-15T22:19:18Z</time>
      </trkpt>
      <trkpt lat="45.0583" lon="6.05157">
        <ele>1120</ele>
        <time>2017-12-15T22:19:38Z</time>
      </trkpt>
      <trkpt lat="45.05842" lon="6.05153">
        <ele>1121</ele>
        <time>2017-12-15T22:19:49Z</time>
      </trkpt>
      <trkpt lat="45.0588" lon="6.0515">
        <ele>1122</ele>
        <time>2017-12-15T22:20:05Z</time>
      </trkpt>
      <trkpt lat="45.05893" lon="6.05146">
        <ele>1124</ele>
        <time>2017-12-15T22:20:11Z</time>
      </trkpt>
      <trkpt lat="45.05905" lon="6.05144">
        <ele>1125</ele>
        <time>2017-12-15T22:20:20Z</time>
      </trkpt>
      <trkpt lat="45.05919" lon="6.05144">
        <ele>1137</ele>
        <time>2017-12-15T22:20:31Z</time>
      </trkpt>
      <trkpt lat="45.05927" lon="6.05143">
        <ele>1138</ele>
        <time>2017-12-15T22:20:35Z</time>
      </trkpt>
      <trkpt lat="45.0593" lon="6.05141">
        <ele>1138</ele>
        <time>2017-12-15T22:20:48Z</time>
      </trkpt>
      <trkpt lat="45.05933" lon="6.05135">
        <ele>1137</ele>
        <time>2017-12-15T22:21:05Z</time>
      </trkpt>
      <trkpt lat="45.05933" lon="6.05123">
        <ele>1135</ele>
        <time>2017-12-15T22:21:13Z</time>
      </trkpt>
      <trkpt lat="45.05927" lon="6.05092">
        <ele>1125</ele>
        <time>2017-12-15T22:21:29Z</time>
      </trkpt>
      <trkpt lat="45.05923" lon="6.05055">
        <ele>1117</ele>
        <time>2017-12-15T22:21:37Z</time>
      </trkpt>
      <trkpt lat="45.05922" lon="6.05025">
        <ele>1112</ele>
        <time>2017-12-15T22:21:49Z</time>
      </trkpt>
      <trkpt lat="45.05924" lon="6.05002">
        <ele>1106</ele>
        <time>2017-12-15T22:21:58Z</time>
      </trkpt>
      <trkpt lat="45.05929" lon="6.04981">
        <ele>1098</ele>
        <time>2017-12-15T22:22:06Z</time>
      </trkpt>
      <trkpt lat="45.05937" lon="6.04968">
        <ele>1096</ele>
        <time>2017-12-15T22:22:18Z</time>
      </trkpt>
      <trkpt lat="45.05947" lon="6.04961">
        <ele>1096</ele>
        <time>2017-12-15T22:22:31Z</time>
      </trkpt>
      <trkpt lat="45.05974" lon="6.04958">
        <ele>1097</ele>
        <time>2017-12-15T22:22:33Z</time>
      </trkpt>
      <trkpt lat="45.06039" lon="6.04962">
        <ele>1108</ele>
        <time>2017-12-15T22:22:53Z</time>
      </trkpt>
      <trkpt lat="45.0606" lon="6.04959">
        <ele>1108</ele>
        <time>2017-12-15T22:22:58Z</time>
      </trkpt>
      <trkpt lat="45.0607" lon="6.0495">
        <ele>1106</ele>
        <time>2017-12-15T22:23:02Z</time>
      </trkpt>
      <trkpt lat="45.06087" lon="6.0492">
        <ele>1101</ele>
        <time>2017-12-15T22:23:19Z</time>
      </trkpt>
      <trkpt lat="45.06099" lon="6.04889">
        <ele>1096</ele>
        <time>2017-12-15T22:23:38Z</time>
      </trkpt>
      <trkpt lat="45.06108" lon="6.04856">
        <ele>1092</ele>
        <time>2017-12-15T22:23:49Z</time>
      </trkpt>
      <trkpt lat="45.06119" lon="6.04833">
        <ele>1075</ele>
        <time>2017-12-15T22:24:09Z</time>
      </trkpt>
      <trkpt lat="45.06143" lon="6.04807">
        <ele>1078</ele>
        <time>2017-12-15T22:24:16Z</time>
      </trkpt>
      <trkpt lat="45.0615" lon="6.04796">
        <ele>1077</ele>
        <time>2017-12-15T22:24:34Z</time>
      </trkpt>
      <trkpt lat="45.06156" lon="6.04784">
        <ele>1075</ele>
        <time>2017-12-15T22:24:36Z</time>
      </trkpt>
      <trkpt lat="45.06168" lon="6.04751">
        <ele>1074</ele>
        <time>2017-12-15T22:24:53Z</time>
      </trkpt>
      <trkpt lat="45.06179" lon="6.04733">
        <ele>1064</ele>
        <time>2017-12-15T22:24:57Z</time>
      </trkpt>
      <trkpt lat="45.06185" lon="6.04727">
        <ele>1062</ele>
        <time>2017-12-15T22:25:01Z</time>
      </trkpt>
      <trkpt lat="45.06192" lon="6.04724">
        <ele>1061</ele>
        <time>2017-12-15T22:25:14Z</time>
      </trkpt>
      <trkpt lat="45.06199" lon="6.04722">
        <ele>1061</ele>
        <time>2017-12-15T22:25:30Z</time>
      </trkpt>
      <trkpt lat="45.0621" lon="6.04724">
        <ele>1061</ele>
        <time>2017-12-15T22:25:32Z</time>
      </trkpt>
      <trkpt lat="45.06243" lon="6.0473">
        <ele>1066</ele>
        <time>2017-12-15T22:25:41Z</time>
      </trkpt>
      <trkpt lat="45.06261" lon="6.04736">
        <ele>1061</ele>
        <time>2017-12-15T22:25:50Z</time>
      </trkpt>
      <trkpt lat="45.06275" lon="6.04744">
        <ele>1057</ele>
        <time>2017-12-15T22:26:00Z</time>
      </trkpt>
      <trkpt lat="45.063" lon="6.04759">
        <ele>1075</ele>
        <time>2017-12-15T22:26:17Z</time>
      </trkpt>
      <trkpt lat="45.06343" lon="6.04778">
        <ele>1056</ele>
        <time>2017-12-15T22:26:25Z</time>
      </trkpt>
      <trkpt lat="45.06388" lon="6.04798">
        <ele>1057</ele>
        <time>2017-12-15T22:26:39Z</time>
      </trkpt>
      <trkpt lat="45.06428" lon="6.04816">
        <ele>1053</ele>
        <time>2017-12-15T22:26:44Z</time>
      </trkpt>
      <trkpt lat="45.06457" lon="6.04823">
        <ele>1048</ele>
        <time>2017-12-15T22:27:03Z</time>
      </trkpt>
      <trkpt lat="45.06471" lon="6.04823">
        <ele>1048</ele>
        <time>2017-12-15T22:27:15Z</time>
      </trkpt>
      <trkpt lat="45.06484" lon="6.04818">
        <ele>1048</ele>
        <time>2017-12-15T22:27:25Z</time>
      </trkpt>
      <trkpt lat="45.06528" lon="6.04792">
        <ele>1031</ele>
        <time>2017-12-15T22:27:32Z</time>
      </trkpt>
      <trkpt lat="45.06539" lon="6.04788">
        <ele>1029</ele>
        <time>2017-12-15T22:27:43Z</time>
      </trkpt>
      <trkpt lat="45.06555" lon="6.04793">
        <ele>1028</ele>
        <time>2017-12-15T22:27:46Z</time>
      </trkpt>
      <trkpt lat="45.06582" lon="6.04812">
        <ele>1030</ele>
        <time>2017-12-15T22:27:50Z</time>
      </trkpt>
      <trkpt lat="45.06607" lon="6.04832">
        <ele>1020</ele>
        <time>2017-12-15T22:27:52Z</time>
      </trkpt>
      <trkpt lat="45.0663" lon="6.04867">
        <ele>1033</ele>
        <time>2017-12-15T22:28:09Z</time>
      </trkpt>
      <trkpt lat="45.06641" lon="6.0488">
        <ele>1033</ele>
        <time>2017-12-15T22:28:28Z</time>
      </trkpt>
      <trkpt lat="45.06713" lon="6.04937">
        <ele>1025</ele>
        <time>2017-12-15T22:28:34Z</time>
      </trkpt>
      <trkpt lat="45.06724" lon="6.04944">
        <ele>1024</ele>
        <time>2017-12-15T22:28:37Z</time>
      </trkpt>
      <trkpt lat="45.06736" lon="6.04958">
        <ele>1024</ele>
        <time>2017-12-15T22:28:56Z</time>
      </trkpt>
      <trkpt lat="45.06761" lon="6.05005">
        <ele>1019</ele>
        <time>2017-12-15T22:29:10Z</time>
      </trkpt>
      <trkpt lat="45.06776" lon="6.05033">
        <ele>1016</ele>
        <time>2017-12-15T22:29:24Z</time>
      </trkpt>
      <trkpt lat="45.06785" lon="6.05045">
        <ele>1016</ele>
        <time>2017-12-15T22:29:36Z</time>
      </trkpt>
      <trkpt lat="45.06797" lon="6.05055">
        <ele>1014</ele>
        <time>2017-12-15T22:29:49Z</time>
      </trkpt>
      <trkpt lat="45.06817" lon="6.0506">
        <ele>1010</ele>
        <time>2017-12-15T22:30:02Z</time>
      </trkpt>
      <trkpt lat="45.0683" lon="6.05071">
        <ele>1008</ele>
        <time>2017-12-15T22:30:12Z</time>
      </trkpt>
      <trkpt lat="45.06853" lon="6.05113">
        <ele>1002</ele>
        <time>2017-12-15T22:30:30Z</time>
      </trkpt>
      <trkpt lat="45.0687" lon="6.05132">
        <ele>1001</ele>
        <time>2017-12-15T22:30:39Z</time>
      </trkpt>
      <trkpt lat="45.06887" lon="6.05143">
        <ele>999</ele>
        <time>2017-12-15T22:30:50Z</time>
      </trkpt>
      <trkpt lat="45.06908" lon="6.05158">
        <ele>995</ele>
        <time>2017-12-15T22:30:59Z</time>
      </trkpt>
      <trkpt lat="45.06925" lon="6.05177">
        <ele>992</ele>
        <time>2017-12-15T22:31:09Z</time>
      </trkpt>
      <trkpt lat="45.06972" lon="6.05249">
        <ele>988</ele>
        <time>2017-12-15T22:31:29Z</time>
      </trkpt>
      <trkpt lat="45.06984" lon="6.05272">
        <ele>999</ele>
        <time>2017-12-15T22:31:41Z</time>
      </trkpt>
      <trkpt lat="45.06986" lon="6.0528">
        <ele>1001</ele>
        <time>2017-12-15T22:31:51Z</time>
      </trkpt>
      <trkpt lat="45.06985" lon="6.05305">
        <ele>1005</ele>
        <time>2017-12-15T22:31:53Z</time>
      </trkpt>
      <trkpt lat="45.06983" lon="6.05326">
        <ele>1005</ele>
        <time>2017-12-15T22:32:00Z</time>
      </trkpt>
      <trkpt lat="45.06987" lon="6.05338">
        <ele>1013</ele>
        <time>2017-12-15T22:32:02Z</time>
      </trkpt>
      <trkpt lat="45.07007" lon="6.05349">
        <ele>1010</ele>
        <time>2017-12-15T22:32:08Z</time>
      </trkpt>
      <trkpt lat="45.07012" lon="6.05348">
        <ele>1011</ele>
        <time>2017-12-15T22:32:10Z</time>
      </trkpt>
      <trkpt lat="45.07017" lon="6.0534">
        <ele>1011</ele>
        <time>2017-12-15T22:32:12Z</time>
      </trkpt>
      <trkpt lat="45.07031" lon="6.05309">
        <ele>1007</ele>
        <time>2017-12-15T22:32:18Z</time>
      </trkpt>
      <trkpt lat="45.07034" lon="6.05296">
        <ele>1006</ele>
        <time>2017-12-15T22:32:24Z</time>
      </trkpt>
      <trkpt lat="45.07036" lon="6.05264">
        <ele>1003</ele>
        <time>2017-12-15T22:32:34Z</time>
      </trkpt>
      <trkpt lat="45.07039" lon="6.05235">
        <ele>992</ele>
        <time>2017-12-15T22:32:36Z</time>
      </trkpt>
      <trkpt lat="45.07051" lon="6.052">
        <ele>992</ele>
        <time>2017-12-15T22:32:51Z</time>
      </trkpt>
      <trkpt lat="45.07052" lon="6.05157">
        <ele>985</ele>
        <time>2017-12-15T22:33:04Z</time>
      </trkpt>
      <trkpt lat="45.07052" lon="6.05131">
        <ele>983</ele>
        <time>2017-12-15T22:33:08Z</time>
      </trkpt>
      <trkpt lat="45.07055" lon="6.05109">
        <ele>984</ele>
        <time>2017-12-15T22:33:22Z</time>
      </trkpt>
      <trkpt lat="45.07062" lon="6.05068">
        <ele>982</ele>
        <time>2017-12-15T22:33:36Z</time>
      </trkpt>
      <trkpt lat="45.07062" lon="6.05054">
        <ele>980</ele>
        <time>2017-12-15T22:33:43Z</time>
      </trkpt>
      <trkpt lat="45.07059" lon="6.05018">
        <ele>979</ele>
        <time>2017-12-15T22:33:51Z</time>
      </trkpt>
      <trkpt lat="45.0704" lon="6.04954">
        <ele>970</ele>
        <time>2017-12-15T22:33:53Z</time>
      </trkpt>
      <trkpt lat="45.07038" lon="6.04926">
        <ele>968</ele>
        <time>2017-12-15T22:34:05Z</time>
      </trkpt>
      <trkpt lat="45.07041" lon="6.04906">
        <ele>970</ele>
        <time>2017-12-15T22:34:23Z</time>
      </trkpt>
      <trkpt lat="45.07047" lon="6.04895">
        <ele>971</ele>
        <time>2017-12-15T22:34:29Z</time>
      </trkpt>
      <trkpt lat="45.07061" lon="6.04882">
        <ele>974</ele>
        <time>2017-12-15T22:34:35Z</time>
      </trkpt>
      <trkpt lat="45.07069" lon="6.04872">
        <ele>975</ele>
        <time>2017-12-15T22:34:41Z</time>
      </trkpt>
      <trkpt lat="45.07071" lon="6.04858">
        <ele>976</ele>
        <time>2017-12-15T22:34:52Z</time>
      </trkpt>
      <trkpt lat="45.07069" lon="6.04851">
        <ele>977</ele>
        <time>2017-12-15T22:35:04Z</time>
      </trkpt>
      <trkpt lat="45.07065" lon="6.04846">
        <ele>977</ele>
        <time>2017-12-15T22:35:12Z</time>
      </trkpt>
      <trkpt lat="45.0705" lon="6.04843">
        <ele>973</ele>
        <time>2017-12-15T22:35:28Z</time>
      </trkpt>
      <trkpt lat="45.07034" lon="6.04846">
        <ele>969</ele>
        <time>2017-12-15T22:35:33Z</time>
      </trkpt>
      <trkpt lat="45.07028" lon="6.04846">
        <ele>968</ele>
        <time>2017-12-15T22:35:38Z</time>
      </trkpt>
      <trkpt lat="45.07024" lon="6.04842">
        <ele>967</ele>
        <time>2017-12-15T22:35:45Z</time>
      </trkpt>
      <trkpt lat="45.07019" lon="6.04826">
        <ele>971</ele>
        <time>2017-12-15T22:35:57Z</time>
      </trkpt>
      <trkpt lat="45.07015" lon="6.04804">
        <ele>974</ele>
        <time>2017-12-15T22:36:06Z</time>
      </trkpt>
      <trkpt lat="45.07013" lon="6.04789">
        <ele>976</ele>
        <time>2017-12-15T22:36:22Z</time>
      </trkpt>
      <trkpt lat="45.07003" lon="6.04757">
        <ele>972</ele>
        <time>2017-12-15T22:36:35Z</time>
      </trkpt>
      <trkpt lat="45.06984" lon="6.04713">
        <ele>966</ele>
        <time>2017-12-15T22:36:46Z</time>
      </trkpt>
      <trkpt lat="45.06973" lon="6.04681">
        <ele>969</ele>
        <time>2017-12-15T22:36:52Z</time>
      </trkpt>
      <trkpt lat="45.06958" lon="6.04656">
        <ele>978</ele>
        <time>2017-12-15T22:37:00Z</time>
      </trkpt>
      <trkpt lat="45.06932" lon="6.04633">
        <ele>976</ele>
        <time>2017-12-15T22:37:10Z</time>
      </trkpt>
      <trkpt lat="45.06906" lon="6.04616">
        <ele>966</ele>
        <time>2017-12-15T22:37:15Z</time>
      </trkpt>
      <trkpt lat="45.06872" lon="6.04592">
        <ele>965</ele>
        <time>2017-12-15T22:37:28Z</time>
      </trkpt>
      <trkpt lat="45.06852" lon="6.04573">
        <ele>974</ele>
        <time>2017-12-15T22:37:37Z</time>
      </trkpt>
      <trkpt lat="45.06831" lon="6.04534">
        <ele>969</ele>
        <time>2017-12-15T22:37:51Z</time>
      </trkpt>
      <trkpt lat="45.06817" lon="6.04509">
        <ele>972</ele>
        <time>2017-12-15T22:38:05Z</time>
      </trkpt>
      <trkpt lat="45.06801" lon="6.04496">
        <ele>980</ele>
        <time>2017-12-15T22:38:18Z</time>
      </trkpt>
      <trkpt lat="45.06781" lon="6.04489">
        <ele>978</ele>
        <time>2017-12-15T22:38:34Z</time>
      </trkpt>
      <trkpt lat="45.06766" lon="6.04483">
        <ele>976</ele>
        <time>2017-12-15T22:38:43Z</time>
      </trkpt>
      <trkpt lat="45.06755" lon="6.04475">
        <ele>976</ele>
        <time>2017-12-15T22:38:46Z</time>
      </trkpt>
      <trkpt lat="45.06738" lon="6.04444">
        <ele>968</ele>
        <time>2017-12-15T22:39:01Z</time>
      </trkpt>
      <trkpt lat="45.0673" lon="6.04422">
        <ele>970</ele>
        <time>2017-12-15T22:39:18Z</time>
      </trkpt>
      <trkpt lat="45.06731" lon="6.04408">
        <ele>969</ele>
        <time>2017-12-15T22:39:28Z</time>
      </trkpt>
      <trkpt lat="45.06724" lon="6.04402">
        <ele>966</ele>
        <time>2017-12-15T22:39:43Z</time>
      </trkpt>
      <trkpt lat="45.06719" lon="6.04393">
        <ele>963</ele>
        <time>2017-12-15T22:39:48Z</time>
      </trkpt>
      <trkpt lat="45.06718" lon="6.04376">
        <ele>961</ele>
        <time>2017-12-15T22:39:54Z</time>
      </trkpt>
      <trkpt lat="45.06721" lon="6.04367">
        <ele>961</ele>
        <time>2017-12-15T22:40:04Z</time>
      </trkpt>
      <trkpt lat="45.0673" lon="6.04357">
        <ele>962</ele>
        <time>2017-12-15T22:40:24Z</time>
      </trkpt>
      <trkpt lat="45.06778" lon="6.04322">
        <ele>963</ele>
        <time>2017-12-15T22:40:36Z</time>
      </trkpt>
      <trkpt lat="45.068" lon="6.04304">
        <ele>962</ele>
        <time>2017-12-15T22:40:42Z</time>
      </trkpt>
      <trkpt lat="45.06823" lon="6.04285">
        <ele>960</ele>
        <time>2017-12-15T22:40:47Z</time>
      </trkpt>
      <trkpt lat="45.0684" lon="6.04281">
        <ele>974</ele>
        <time>2017-12-15T22:41:06Z</time>
      </trkpt>
      <trkpt lat="45.06856" lon="6.04283">
        <ele>977</ele>
        <time>2017-12-15T22:41:12Z</time>
      </trkpt>
      <trkpt lat="45.06878" lon="6.04291">
        <ele>982</ele>
        <time>2017-12-15T22:41:29Z</time>
      </trkpt>
      <trkpt lat="45.06882" lon="6.04293">
        <ele>984</ele>
        <time>2017-12-15T22:41:35Z</time>
      </trkpt>
      <trkpt lat="45.06887" lon="6.04291">
        <ele>984</ele>
        <time>2017-12-15T22:41:37Z</time>
      </trkpt>
      <trkpt lat="45.0689" lon="6.04282">
        <ele>981</ele>
        <time>2017-12-15T22:41:40Z</time>
      </trkpt>
      <trkpt lat="45.06891" lon="6.04275">
        <ele>979</ele>
        <time>2017-12-15T22:41:53Z</time>
      </trkpt>
      <trkpt lat="45.06883" lon="6.04268">
        <ele>977</ele>
        <time>2017-12-15T22:42:06Z</time>
      </trkpt>
      <trkpt lat="45.06853" lon="6.04264">
        <ele>970</ele>
        <time>2017-12-15T22:42:20Z</time>
      </trkpt>
      <trkpt lat="45.06822" lon="6.04262">
        <ele>954</ele>
        <time>2017-12-15T22:42:28Z</time>
      </trkpt>
      <trkpt lat="45.06808" lon="6.04263">
        <ele>954</ele>
        <time>2017-12-15T22:42:45Z</time>
      </trkpt>
      <trkpt lat="45.06795" lon="6.04268">
        <ele>953</ele>
        <time>2017-12-15T22:42:55Z</time>
      </trkpt>
      <trkpt lat="45.06756" lon="6.04285">
        <ele>950</ele>
        <time>2017-12-15T22:43:07Z</time>
      </trkpt>
      <trkpt lat="45.06731" lon="6.04282">
        <ele>933</ele>
        <time>2017-12-15T22:43:21Z</time>
      </trkpt>
      <trkpt lat="45.06716" lon="6.04284">
        <ele>932</ele>
        <time>2017-12-15T22:43:40Z</time>
      </trkpt>
      <trkpt lat="45.06683" lon="6.04308">
        <ele>933</ele>
        <time>2017-12-15T22:43:43Z</time>
      </trkpt>
      <trkpt lat="45.06673" lon="6.04313">
        <ele>934</ele>
        <time>2017-12-15T22:43:45Z</time>
      </trkpt>
      <trkpt lat="45.06654" lon="6.04317">
        <ele>914</ele>
        <time>2017-12-15T22:43:51Z</time>
      </trkpt>
      <trkpt lat="45.0663" lon="6.04322">
        <ele>903</ele>
        <time>2017-12-15T22:44:04Z</time>
      </trkpt>
      <trkpt lat="45.06605" lon="6.04333">
        <ele>892</ele>
        <time>2017-12-15T22:44:09Z</time>
      </trkpt>
      <trkpt lat="45.066" lon="6.04331">
        <ele>890</ele>
        <time>2017-12-15T22:44:28Z</time>
      </trkpt>
      <trkpt lat="45.06594" lon="6.04325">
        <ele>888</ele>
        <time>2017-12-15T22:44:31Z</time>
      </trkpt>
      <trkpt lat="45.06595" lon="6.04312">
        <ele>890</ele>
        <time>2017-12-15T22:44:46Z</time>
      </trkpt>
      <trkpt lat="45.066" lon="6.04307">
        <ele>891</ele>
        <time>2017-12-15T22:44:52Z</time>
      </trkpt>
      <trkpt lat="45.06669" lon="6.04273">
        <ele>921</ele>
        <time>2017-12-15T22:45:12Z</time>
      </trkpt>
      <trkpt lat="45.06691" lon="6.04255">
        <ele>921</ele>
        <time>2017-12-15T22:45:22Z</time>
      </trkpt>
      <trkpt lat="45.06722" lon="6.04218">
        <ele>895</ele>
        <time>2017-12-15T22:45:33Z</time>
      </trkpt>
      <trkpt lat="45.06743" lon="6.04198">
        <ele>890</ele>
        <time>2017-12-15T22:45:47Z</time>
      </trkpt>
      <trkpt lat="45.06761" lon="6.04192">
        <ele>898</ele>
        <time>2017-12-15T22:46:03Z</time>
      </trkpt>
      <trkpt lat="45.06767" lon="6.04194">
        <ele>900</ele>
        <time>2017-12-15T22:46:12Z</time>
      </trkpt>
      <trkpt lat="45.06794" lon="6.0421">
        <ele>910</ele>
        <time>2017-12-15T22:46:32Z</time>
      </trkpt>
      <trkpt lat="45.06798" lon="6.04206">
        <ele>909</ele>
        <time>2017-12-15T22:46:42Z</time>
      </trkpt>
      <trkpt lat="45.068" lon="6.04195">
        <ele>905</ele>
        <time>2017-12-15T22:46:45Z</time>
      </trkpt>
      <trkpt lat="45.06799" lon="6.04192">
        <ele>904</ele>
        <time>2017-12-15T22:47:01Z</time>
      </trkpt>
      <trkpt lat="45.06796" lon="6.04188">
        <ele>903</ele>
        <time>2017-12-15T22:47:17Z</time>
      </trkpt>
      <trkpt lat="45.0677" lon="6.04177">
        <ele>895</ele>
        <time>2017-12-15T22:47:19Z</time>
      </trkpt>
      <trkpt lat="45.06757" lon="6.04177">
        <ele>889</ele>
        <time>2017-12-15T22:47:39Z</time>
      </trkpt>
      <trkpt lat="45.06739" lon="6.04182">
        <ele>884</ele>
        <time>2017-12-15T22:47:50Z</time>
      </trkpt>
      <trkpt lat="45.06653" lon="6.04227">
        <ele>880</ele>
        <time>2017-12-15T22:48:02Z</time>
      </trkpt>
      <trkpt lat="45.06647" lon="6.04227">
        <ele>878</ele>
        <time>2017-12-15T22:48:05Z</time>
      </trkpt>
      <trkpt lat="45.06643" lon="6.04222">
        <ele>875</ele>
        <time>2017-12-15T22:48:19Z</time>
      </trkpt>
      <trkpt lat="45.06643" lon="6.04214">
        <ele>873</ele>
        <time>2017-12-15T22:48:24Z</time>
      </trkpt>
      <trkpt lat="45.06645" lon="6.0421">
        <ele>872</ele>
        <time>2017-12-15T22:48:35Z</time>
      </trkpt>
      <trkpt lat="45.06647" lon="6.04207">
        <ele>871</ele>
        <time>2017-12-15T22:48:40Z</time>
      </trkpt>
      <trkpt lat="45.06659" lon="6.04202">
        <ele>871</ele>
        <time>2017-12-15T22:48:59Z</time>
      </trkpt>
      <trkpt lat="45.06767" lon="6.04135">
        <ele>862</ele>
        <time>2017-12-15T22:49:07Z</time>
      </trkpt>
      <trkpt lat="45.06826" lon="6.04108">
        <ele>857</ele>
        <time>2017-12-15T22:49:23Z</time>
      </trkpt>
      <trkpt lat="45.06894" lon="6.04094">
        <ele>866</ele>
        <time>2017-12-15T22:49:37Z</time>
      </trkpt>
      <trkpt lat="45.06918" lon="6.04088">
        <ele>863</ele>
        <time>2017-12-15T22:49:50Z</time>
      </trkpt>
      <trkpt lat="45.06926" lon="6.04082">
        <ele>854</ele>
        <time>2017-12-15T22:50:03Z</time>
      </trkpt>
      <trkpt lat="45.06941" lon="6.04061">
        <ele>853</ele>
        <time>2017-12-15T22:50:07Z</time>
      </trkpt>
      <trkpt lat="45.0696" lon="6.0403">
        <ele>849</ele>
        <time>2017-12-15T22:50:12Z</time>
      </trkpt>
      <trkpt lat="45.06984" lon="6.04005">
        <ele>848</ele>
        <time>2017-12-15T22:50:16Z</time>
      </trkpt>
      <trkpt lat="45.07002" lon="6.03981">
        <ele>839</ele>
        <time>2017-12-15T22:50:32Z</time>
      </trkpt>
      <trkpt lat="45.07022" lon="6.03955">
        <ele>832</ele>
        <time>2017-12-15T22:50:52Z</time>
      </trkpt>
      <trkpt lat="45.07036" lon="6.03942">
        <ele>831</ele>
        <time>2017-12-15T22:50:54Z</time>
      </trkpt>
      <trkpt lat="45.07073" lon="6.03921">
        <ele>828</ele>
        <time>2017-12-15T22:51:05Z</time>
      </trkpt>
      <trkpt lat="45.07094" lon="6.03914">
        <ele>818</ele>
        <time>2017-12-15T22:51:07Z</time>
      </trkpt>
      <trkpt lat="45.07112" lon="6.03913">
        <ele>813</ele>
        <time>2017-12-15T22:51:10Z</time>
      </trkpt>
      <trkpt lat="45.07146" lon="6.03921">
        <ele>838</ele>
        <time>2017-12-15T22:51:26Z</time>
      </trkpt>
      <trkpt lat="45.0717" lon="6.03929">
        <ele>837</ele>
        <time>2017-12-15T22:51:31Z</time>
      </trkpt>
      <trkpt lat="45.07183" lon="6.0393">
        <ele>841</ele>
        <time>2017-12-15T22:51:42Z</time>
      </trkpt>
      <trkpt lat="45.07188" lon="6.03927">
        <ele>841</ele>
        <time>2017-12-15T22:52:00Z</time>
      </trkpt>
      <trkpt lat="45.07188" lon="6.03913">
        <ele>817</ele>
        <time>2017-12-15T22:52:02Z</time>
      </trkpt>
      <trkpt lat="45.07182" lon="6.03905">
        <ele>817</ele>
        <time>2017-12-15T22:52:13Z</time>
      </trkpt>
      <trkpt lat="45.0712" lon="6.03891">
        <ele>809</ele>
        <time>2017-12-15T22:52:26Z</time>
      </trkpt>
      <trkpt lat="45.07073" lon="6.03875">
        <ele>797</ele>
        <time>2017-12-15T22:52:35Z</time>
      </trkpt>
      <trkpt lat="45.07051" lon="6.03871">
        <ele>794</ele>
        <time>2017-12-15T22:52:40Z</time>
      </trkpt>
      <trkpt lat="45.07039" lon="6.03871">
        <ele>793</ele>
        <time>2017-12-15T22:52:45Z</time>
      </trkpt>
      <trkpt lat="45.07005" lon="6.03877">
        <ele>792</ele>
        <time>2017-12-15T22:52:54Z</time>
      </trkpt>
      <trkpt lat="45.06982" lon="6.03886">
        <ele>781</ele>
        <time>2017-12-15T22:53:01Z</time>
      </trkpt>
      <trkpt lat="45.06962" lon="6.03899">
        <ele>780</ele>
        <time>2017-12-15T22:53:20Z</time>
      </trkpt>
      <trkpt lat="45.06928" lon="6.03918">
        <ele>791</ele>
        <time>2017-12-15T22:53:38Z</time>
      </trkpt>
      <trkpt lat="45.0689" lon="6.03929">
        <ele>784</ele>
        <time>2017-12-15T22:53:57Z</time>
      </trkpt>
      <trkpt lat="45.06868" lon="6.03932">
        <ele>781</ele>
        <time>2017-12-15T22:54:08Z</time>
      </trkpt>
      <trkpt lat="45.06854" lon="6.0393">
        <ele>777</ele>
        <time>2017-12-15T22:54:11Z</time>
      </trkpt>
      <trkpt lat="45.06835" lon="6.03925">
        <ele>768</ele>
        <time>2017-12-15T22:54:25Z</time>
      </trkpt>
      <trkpt lat="45.06827" lon="6.03925">
        <ele>764</ele>
        <time>2017-12-15T22:54:30Z</time>
      </trkpt>
      <trkpt lat="45.06811" lon="6.0393">
        <ele>766</ele>
        <time>2017-12-15T22:54:40Z</time>
      </trkpt>
      <trkpt lat="45.06782" lon="6.03942">
        <ele>766</ele>
        <time>2017-12-15T22:54:43Z</time>
      </trkpt>
      <trkpt lat="45.06738" lon="6.03949">
        <ele>754</ele>
        <time>2017-12-15T22:54:48Z</time>
      </trkpt>
      <trkpt lat="45.06672" lon="6.03959">
        <ele>751</ele>
        <time>2017-12-15T22:55:07Z</time>
      </trkpt>
      <trkpt lat="45.06639" lon="6.03969">
        <ele>740</ele>
        <time>2017-12-15T22:55:21Z</time>
      </trkpt>
      <trkpt lat="45.06609" lon="6.03981">
        <ele>739</ele>
        <time>2017-12-15T22:55:40Z</time>
      </trkpt>
      <trkpt lat="45.0654" lon="6.0401">
        <ele>745</ele>
        <time>2017-12-15T22:55:48Z</time>
      </trkpt>
      <trkpt lat="45.06517" lon="6.04013">
        <ele>741</ele>
        <time>2017-12-15T22:55:52Z</time>
      </trkpt>
      <trkpt lat="45.06508" lon="6.04011">
        <ele>738</ele>
        <time>2017-12-15T22:56:04Z</time>
      </trkpt>
      <trkpt lat="45.06497" lon="6.04001">
        <ele>730</ele>
        <time>2017-12-15T22:56:17Z</time>
      </trkpt>
      <trkpt lat="45.06426" lon="6.03903">
        <ele>724</ele>
        <time>2017-12-15T22:56:22Z</time>
      </trkpt>
      <trkpt lat="45.06371" lon="6.03822">
        <ele>722</ele>
        <time>2017-12-15T22:56:35Z</time>
      </trkpt>
      <trkpt lat="45.06362" lon="6.0381">
        <ele>722</ele>
        <time>2017-12-15T22:56:48Z</time>
      </trkpt>
      <trkpt lat="45.06313" lon="6.0374">
        <ele>719</ele>
        <time>2017-12-15T22:56:59Z</time>
      </trkpt>
      <trkpt lat="45.06296" lon="6.03718">
        <ele>719</ele>
        <time>2017-12-15T22:57:11Z</time>
      </trkpt>
      <trkpt lat="45.06288" lon="6.03707">
        <ele>719</ele>
        <time>2017-12-15T22:57:18Z</time>
      </trkpt>
      <trkpt lat="45.06282" lon="6.03705">
        <ele>719</ele>
        <time>2017-12-15T22:57:27Z</time>
      </trkpt>
      <trkpt lat="45.0626" lon="6.03699">
        <ele>719</ele>
        <time>2017-12-15T22:57:30Z</time>
      </trkpt>
      <trkpt lat="45.06238" lon="6.03698">
        <ele>719</ele>
        <time>2017-12-15T22:57:40Z</time>
      </trkpt>
      <trkpt lat="45.06229" lon="6.037">
        <ele>719</ele>
        <time>2017-12-15T22:57:50Z</time>
      </trkpt>
      <trkpt lat="45.06193" lon="6.0372">
        <ele>718</ele>
        <time>2017-12-15T22:58:06Z</time>
      </trkpt>
      <trkpt lat="45.06167" lon="6.03733">
        <ele>718</ele>
        <time>2017-12-15T22:58:12Z</time>
      </trkpt>
      <trkpt lat="45.0614" lon="6.03743">
        <ele>718</ele>
        <time>2017-12-15T22:58:30Z</time>
      </trkpt>
      <trkpt lat="45.06082" lon="6.03758">
        <ele>719</ele>
        <time>2017-12-15T22:58:44Z</time>
      </trkpt>
      <trkpt lat="45.06028" lon="6.03771">
        <ele>721</ele>
        <time>2017-12-15T22:59:04Z</time>
      </trkpt>
      <trkpt lat="45.06007" lon="6.03776">
        <ele>721</ele>
        <time>2017-12-15T22:59:09Z</time>
      </trkpt>
      <trkpt lat="45.05973" lon="6.03781">
        <ele>722</ele>
        <time>2017-12-15T22:59:17Z</time>
      </trkpt>
      <trkpt lat="45.05941" lon="6.03773">
        <ele>722</ele>
        <time>2017-12-15T22:59:31Z</time>
      </trkpt>
      <trkpt lat="45.0594" lon="6.03771">
        <ele>722</ele>
        <time>2017-12-15T22:59:34Z</time>
      </trkpt>
      <trkpt lat="45.05939" lon="6.03769">
        <ele>722</ele>
        <time>2017-12-15T22:59:43Z</time>
      </trkpt>
      <trkpt lat="45.05937" lon="6.03766">
        <ele>723</ele>
        <time>2017-12-15T22:59:57Z</time>
      </trkpt>
      <trkpt lat="45.05928" lon="6.0376">
        <ele>723</ele>
        <time>2017-12-15T23:00:08Z</time>
      </trkpt>
      <trkpt lat="45.05918" lon="6.03762">
        <ele>723</ele>
        <time>2017-12-15T23:00:10Z</time>
      </trkpt>
      <trkpt lat="45.05907" lon="6.03755">
        <ele>723</ele>
        <time>2017-12-15T23:00:23Z</time>
      </trkpt>
      <trkpt lat="45.05896" lon="6.03744">
        <ele>723</ele>
        <time>2017-12-15T23:00:29Z</time>
      </trkpt>
      <trkpt lat="45.05887" lon="6.03734">
        <ele>723</ele>
        <time>2017-12-15T23:00:31Z</time>
      </trkpt>
      <trkpt lat="45.05874" lon="6.03714">
        <ele>723</ele>
        <time>2017-12-15T23:00:44Z</time>
      </trkpt>
      <trkpt lat="45.05838" lon="6.03658">
        <ele>721</ele>
        <time>2017-12-15T23:00:57Z</time>
      </trkpt>
      <trkpt lat="45.05819" lon="6.03626">
        <ele>721</ele>
        <time>2017-12-15T23:01:07Z</time>
      </trkpt>
      <trkpt lat="45.0579" lon="6.0359">
        <ele>721</ele>
        <time>2017-12-15T23:01:20Z</time>
      </trkpt>
      <trkpt lat="45.05739" lon="6.03536">
        <ele>720</ele>
        <time>2017-12-15T23:01:26Z</time>
      </trkpt>
      <trkpt lat="45.05691" lon="6.03479">
        <ele>719</ele>
        <time>2017-12-15T23:01:35Z</time>
      </trkpt>
      <trkpt lat="45.05659" lon="6.03446">
        <ele>719</ele>
        <time>2017-12-15T23:01:48Z</time>
      </trkpt>
      <trkpt lat="45.05632" lon="6.03418">
        <ele>718</ele>
        <time>2017-12-15T23:02:04Z</time>
      </trkpt>
      <trkpt lat="45.05531" lon="6.03302">
        <ele>719</ele>
        <time>2017-12-15T23:02:09Z</time>
      </trkpt>
      <trkpt lat="45.05497" lon="6.03256">
        <ele>720</ele>
        <time>2017-12-15T23:02:13Z</time>
      </trkpt>
      <trkpt lat="45.05487" lon="6.03235">
        <ele>720</ele>
        <time>2017-12-15T23:02:32Z</time>
      </trkpt>
      <trkpt lat="45.05481" lon="6.03219">
        <ele>720</ele>
        <time>2017-12-15T23:02:38Z</time>
      </trkpt>
      <trkpt lat="45.05476" lon="6.03198">
        <ele>720</ele>
        <time>2017-12-15T23:02:40Z</time>
      </trkpt>
      <trkpt lat="45.05477" lon="6.03178">
        <ele>721</ele>
        <time>2017-12-15T23:02:50Z</time>
      </trkpt>
      <trkpt lat="45.05482" lon="6.03143">
        <ele>723</ele>
        <time>2017-12-15T23:03:02Z</time>
      </trkpt>
      <trkpt lat="45.05487" lon="6.031">
        <ele>723</ele>
        <time>2017-12-15T23:03:20Z</time>
      </trkpt>
      <trkpt lat="45.05498" lon="6.031">
        <ele>723</ele>
        <time>2017-12-15T23:03:36Z</time>
      </trkpt>
      <trkpt lat="45.05511" lon="6.03094">
        <ele>722</ele>
        <time>2017-12-15T23:03:46Z</time>
      </trkpt>
      <trkpt lat="45.05515" lon="6.03087">
        <ele>722</ele>
        <time>2017-12-15T23:03:53Z</time>
      </trkpt>
      <trkpt lat="45.0552" lon="6.03064">
        <ele>723</ele>
        <time>2017-12-15T23:04:04Z</time>
      </trkpt>
    </trkseg>
  </trk>
</gpx>